<?xml version="1.0" encoding="UTF-8" standalone="no" ?>
<gpx xmlns="http://www.topografix.com/GPX/1/1" xmlns:xsi="http://www.w3.org/2001/XMLSchema-instance" xsi:schemaLocation="http://www.topografix.com/GPX/1/1 http://www.topografix.com/GPX/1/1/gpx.xsd" version="1.1" creator="VisuGPX - https://www.visugpx.com">
  <metadata>
    <name>Entre Cancon et Montaut</name>
    <desc><![CDATA[Une quarantaine de kilomètre, à faire par temps sec. Un tracé assez physique, dans des paysages variés et des chemins joueurs. ]]></desc>
  </metadata>
  <trk>
    <name><![CDATA[18-MAI-14 12:33:44]]></name>
    <trkseg>
      <trkpt lat="44.53626" lon="0.62477">
        <ele>159.24</ele>
        <time>2014-05-18T07:07:57Z</time>
      </trkpt>
      <trkpt lat="44.53627" lon="0.62476">
        <ele>159.24</ele>
        <time>2014-05-18T07:08:15Z</time>
      </trkpt>
      <trkpt lat="44.53628" lon="0.62475">
        <ele>159.24</ele>
        <time>2014-05-18T07:08:16Z</time>
      </trkpt>
      <trkpt lat="44.53629" lon="0.62474">
        <ele>159.24</ele>
        <time>2014-05-18T07:08:17Z</time>
      </trkpt>
      <trkpt lat="44.5363" lon="0.62474">
        <ele>159.24</ele>
        <time>2014-05-18T07:08:18Z</time>
      </trkpt>
      <trkpt lat="44.53631" lon="0.62474">
        <ele>159.24</ele>
        <time>2014-05-18T07:08:19Z</time>
      </trkpt>
      <trkpt lat="44.53633" lon="0.62475">
        <ele>159.24</ele>
        <time>2014-05-18T07:08:20Z</time>
      </trkpt>
      <trkpt lat="44.53634" lon="0.62475">
        <ele>159.24</ele>
        <time>2014-05-18T07:08:21Z</time>
      </trkpt>
      <trkpt lat="44.53635" lon="0.62477">
        <ele>158.75</ele>
        <time>2014-05-18T07:08:22Z</time>
      </trkpt>
      <trkpt lat="44.53637" lon="0.62479">
        <ele>158.75</ele>
        <time>2014-05-18T07:08:23Z</time>
      </trkpt>
      <trkpt lat="44.53662" lon="0.62495">
        <ele>158.75</ele>
        <time>2014-05-18T07:08:33Z</time>
      </trkpt>
      <trkpt lat="44.53666" lon="0.62494">
        <ele>158.75</ele>
        <time>2014-05-18T07:08:34Z</time>
      </trkpt>
      <trkpt lat="44.5367" lon="0.62492">
        <ele>158.75</ele>
        <time>2014-05-18T07:08:35Z</time>
      </trkpt>
      <trkpt lat="44.53674" lon="0.62489">
        <ele>158.75</ele>
        <time>2014-05-18T07:08:36Z</time>
      </trkpt>
      <trkpt lat="44.53677" lon="0.62486">
        <ele>158.75</ele>
        <time>2014-05-18T07:08:37Z</time>
      </trkpt>
      <trkpt lat="44.5368" lon="0.62482">
        <ele>158.27</ele>
        <time>2014-05-18T07:08:38Z</time>
      </trkpt>
      <trkpt lat="44.53713" lon="0.62444">
        <ele>158.75</ele>
        <time>2014-05-18T07:08:50Z</time>
      </trkpt>
      <trkpt lat="44.53732" lon="0.6241">
        <ele>159.24</ele>
        <time>2014-05-18T07:08:59Z</time>
      </trkpt>
      <trkpt lat="44.53736" lon="0.62408">
        <ele>159.24</ele>
        <time>2014-05-18T07:09:00Z</time>
      </trkpt>
      <trkpt lat="44.53739" lon="0.62408">
        <ele>159.24</ele>
        <time>2014-05-18T07:09:01Z</time>
      </trkpt>
      <trkpt lat="44.53744" lon="0.62408">
        <ele>158.75</ele>
        <time>2014-05-18T07:09:02Z</time>
      </trkpt>
      <trkpt lat="44.5375" lon="0.62409">
        <ele>158.75</ele>
        <time>2014-05-18T07:09:03Z</time>
      </trkpt>
      <trkpt lat="44.53824" lon="0.62421">
        <ele>151.54</ele>
        <time>2014-05-18T07:09:12Z</time>
      </trkpt>
      <trkpt lat="44.53963" lon="0.62446">
        <ele>144.34</ele>
        <time>2014-05-18T07:09:26Z</time>
      </trkpt>
      <trkpt lat="44.54015" lon="0.62455">
        <ele>146.74</ele>
        <time>2014-05-18T07:09:35Z</time>
      </trkpt>
      <trkpt lat="44.54052" lon="0.62462">
        <ele>149.14</ele>
        <time>2014-05-18T07:09:46Z</time>
      </trkpt>
      <trkpt lat="44.54055" lon="0.62466">
        <ele>148.66</ele>
        <time>2014-05-18T07:09:47Z</time>
      </trkpt>
      <trkpt lat="44.54056" lon="0.62471">
        <ele>148.66</ele>
        <time>2014-05-18T07:09:48Z</time>
      </trkpt>
      <trkpt lat="44.54085" lon="0.62558">
        <ele>141.93</ele>
        <time>2014-05-18T07:09:58Z</time>
      </trkpt>
      <trkpt lat="44.54113" lon="0.62633">
        <ele>138.57</ele>
        <time>2014-05-18T07:10:05Z</time>
      </trkpt>
      <trkpt lat="44.54118" lon="0.6264">
        <ele>138.57</ele>
        <time>2014-05-18T07:10:06Z</time>
      </trkpt>
      <trkpt lat="44.54124" lon="0.62646">
        <ele>138.57</ele>
        <time>2014-05-18T07:10:07Z</time>
      </trkpt>
      <trkpt lat="44.54131" lon="0.62649">
        <ele>138.57</ele>
        <time>2014-05-18T07:10:08Z</time>
      </trkpt>
      <trkpt lat="44.54137" lon="0.62652">
        <ele>138.57</ele>
        <time>2014-05-18T07:10:09Z</time>
      </trkpt>
      <trkpt lat="44.54144" lon="0.62655">
        <ele>138.57</ele>
        <time>2014-05-18T07:10:10Z</time>
      </trkpt>
      <trkpt lat="44.54149" lon="0.6266">
        <ele>138.57</ele>
        <time>2014-05-18T07:10:11Z</time>
      </trkpt>
      <trkpt lat="44.54154" lon="0.62666">
        <ele>138.57</ele>
        <time>2014-05-18T07:10:12Z</time>
      </trkpt>
      <trkpt lat="44.54158" lon="0.62674">
        <ele>138.57</ele>
        <time>2014-05-18T07:10:13Z</time>
      </trkpt>
      <trkpt lat="44.54161" lon="0.62681">
        <ele>138.57</ele>
        <time>2014-05-18T07:10:14Z</time>
      </trkpt>
      <trkpt lat="44.54164" lon="0.62689">
        <ele>138.57</ele>
        <time>2014-05-18T07:10:15Z</time>
      </trkpt>
      <trkpt lat="44.54195" lon="0.62771">
        <ele>138.09</ele>
        <time>2014-05-18T07:10:26Z</time>
      </trkpt>
      <trkpt lat="44.54213" lon="0.62793">
        <ele>138.09</ele>
        <time>2014-05-18T07:10:30Z</time>
      </trkpt>
      <trkpt lat="44.54282" lon="0.62848">
        <ele>143.37</ele>
        <time>2014-05-18T07:10:46Z</time>
      </trkpt>
      <trkpt lat="44.54321" lon="0.6288">
        <ele>143.85</ele>
        <time>2014-05-18T07:10:57Z</time>
      </trkpt>
      <trkpt lat="44.54388" lon="0.62959">
        <ele>137.13</ele>
        <time>2014-05-18T07:11:09Z</time>
      </trkpt>
      <trkpt lat="44.5444" lon="0.63022">
        <ele>132.32</ele>
        <time>2014-05-18T07:11:16Z</time>
      </trkpt>
      <trkpt lat="44.54494" lon="0.63116">
        <ele>130.4</ele>
        <time>2014-05-18T07:11:27Z</time>
      </trkpt>
      <trkpt lat="44.54519" lon="0.63157">
        <ele>129.43</ele>
        <time>2014-05-18T07:11:33Z</time>
      </trkpt>
      <trkpt lat="44.54577" lon="0.63209">
        <ele>132.32</ele>
        <time>2014-05-18T07:11:46Z</time>
      </trkpt>
      <trkpt lat="44.54632" lon="0.63246">
        <ele>134.72</ele>
        <time>2014-05-18T07:12:01Z</time>
      </trkpt>
      <trkpt lat="44.54696" lon="0.63274">
        <ele>129.92</ele>
        <time>2014-05-18T07:12:12Z</time>
      </trkpt>
      <trkpt lat="44.54704" lon="0.63276">
        <ele>128.95</ele>
        <time>2014-05-18T07:12:13Z</time>
      </trkpt>
      <trkpt lat="44.5473" lon="0.63276">
        <ele>128.95</ele>
        <time>2014-05-18T07:12:17Z</time>
      </trkpt>
      <trkpt lat="44.54756" lon="0.63266">
        <ele>130.4</ele>
        <time>2014-05-18T07:12:23Z</time>
      </trkpt>
      <trkpt lat="44.54825" lon="0.63243">
        <ele>134.24</ele>
        <time>2014-05-18T07:12:41Z</time>
      </trkpt>
      <trkpt lat="44.54881" lon="0.63224">
        <ele>140.01</ele>
        <time>2014-05-18T07:12:58Z</time>
      </trkpt>
      <trkpt lat="44.54932" lon="0.63206">
        <ele>143.85</ele>
        <time>2014-05-18T07:13:14Z</time>
      </trkpt>
      <trkpt lat="44.54975" lon="0.63201">
        <ele>146.74</ele>
        <time>2014-05-18T07:13:27Z</time>
      </trkpt>
      <trkpt lat="44.55005" lon="0.63201">
        <ele>150.58</ele>
        <time>2014-05-18T07:13:36Z</time>
      </trkpt>
      <trkpt lat="44.55017" lon="0.63215">
        <ele>151.54</ele>
        <time>2014-05-18T07:13:41Z</time>
      </trkpt>
      <trkpt lat="44.55036" lon="0.63267">
        <ele>152.51</ele>
        <time>2014-05-18T07:13:54Z</time>
      </trkpt>
      <trkpt lat="44.55039" lon="0.63277">
        <ele>152.51</ele>
        <time>2014-05-18T07:13:56Z</time>
      </trkpt>
      <trkpt lat="44.55083" lon="0.63361">
        <ele>148.66</ele>
        <time>2014-05-18T07:14:11Z</time>
      </trkpt>
      <trkpt lat="44.55112" lon="0.63404">
        <ele>148.66</ele>
        <time>2014-05-18T07:14:22Z</time>
      </trkpt>
      <trkpt lat="44.5515" lon="0.63434">
        <ele>154.91</ele>
        <time>2014-05-18T07:14:35Z</time>
      </trkpt>
      <trkpt lat="44.55172" lon="0.63454">
        <ele>155.87</ele>
        <time>2014-05-18T07:14:46Z</time>
      </trkpt>
      <trkpt lat="44.55202" lon="0.63484">
        <ele>165</ele>
        <time>2014-05-18T07:15:01Z</time>
      </trkpt>
      <trkpt lat="44.55217" lon="0.63498">
        <ele>167.41</ele>
        <time>2014-05-18T07:15:15Z</time>
      </trkpt>
      <trkpt lat="44.55216" lon="0.63501">
        <ele>168.37</ele>
        <time>2014-05-18T07:15:45Z</time>
      </trkpt>
      <trkpt lat="44.55221" lon="0.63499">
        <ele>170.77</ele>
        <time>2014-05-18T07:16:05Z</time>
      </trkpt>
      <trkpt lat="44.55223" lon="0.63501">
        <ele>173.17</ele>
        <time>2014-05-18T07:16:39Z</time>
      </trkpt>
      <trkpt lat="44.55222" lon="0.63504">
        <ele>172.69</ele>
        <time>2014-05-18T07:17:02Z</time>
      </trkpt>
      <trkpt lat="44.55223" lon="0.63507">
        <ele>171.25</ele>
        <time>2014-05-18T07:17:18Z</time>
      </trkpt>
      <trkpt lat="44.55223" lon="0.63511">
        <ele>171.73</ele>
        <time>2014-05-18T07:17:20Z</time>
      </trkpt>
      <trkpt lat="44.55235" lon="0.63523">
        <ele>170.29</ele>
        <time>2014-05-18T07:17:26Z</time>
      </trkpt>
      <trkpt lat="44.55285" lon="0.63552">
        <ele>164.52</ele>
        <time>2014-05-18T07:17:37Z</time>
      </trkpt>
      <trkpt lat="44.55296" lon="0.63557">
        <ele>163.56</ele>
        <time>2014-05-18T07:17:39Z</time>
      </trkpt>
      <trkpt lat="44.55359" lon="0.63574">
        <ele>159.24</ele>
        <time>2014-05-18T07:17:49Z</time>
      </trkpt>
      <trkpt lat="44.55458" lon="0.6363">
        <ele>140.97</ele>
        <time>2014-05-18T07:18:00Z</time>
      </trkpt>
      <trkpt lat="44.55539" lon="0.63664">
        <ele>127.51</ele>
        <time>2014-05-18T07:18:10Z</time>
      </trkpt>
      <trkpt lat="44.55553" lon="0.63668">
        <ele>127.03</ele>
        <time>2014-05-18T07:18:12Z</time>
      </trkpt>
      <trkpt lat="44.55574" lon="0.63682">
        <ele>126.07</ele>
        <time>2014-05-18T07:18:16Z</time>
      </trkpt>
      <trkpt lat="44.55583" lon="0.63691">
        <ele>125.59</ele>
        <time>2014-05-18T07:18:18Z</time>
      </trkpt>
      <trkpt lat="44.55636" lon="0.63749">
        <ele>127.51</ele>
        <time>2014-05-18T07:18:33Z</time>
      </trkpt>
      <trkpt lat="44.55698" lon="0.63823">
        <ele>133.28</ele>
        <time>2014-05-18T07:18:54Z</time>
      </trkpt>
      <trkpt lat="44.5574" lon="0.63874">
        <ele>139.05</ele>
        <time>2014-05-18T07:19:11Z</time>
      </trkpt>
      <trkpt lat="44.55769" lon="0.63909">
        <ele>143.37</ele>
        <time>2014-05-18T07:19:25Z</time>
      </trkpt>
      <trkpt lat="44.55799" lon="0.63944">
        <ele>147.22</ele>
        <time>2014-05-18T07:19:40Z</time>
      </trkpt>
      <trkpt lat="44.55823" lon="0.63973">
        <ele>151.06</ele>
        <time>2014-05-18T07:19:55Z</time>
      </trkpt>
      <trkpt lat="44.55852" lon="0.64007">
        <ele>154.91</ele>
        <time>2014-05-18T07:20:13Z</time>
      </trkpt>
      <trkpt lat="44.55884" lon="0.64044">
        <ele>158.27</ele>
        <time>2014-05-18T07:20:31Z</time>
      </trkpt>
      <trkpt lat="44.55908" lon="0.64072">
        <ele>159.72</ele>
        <time>2014-05-18T07:20:46Z</time>
      </trkpt>
      <trkpt lat="44.5591" lon="0.64073">
        <ele>159.72</ele>
        <time>2014-05-18T07:20:47Z</time>
      </trkpt>
      <trkpt lat="44.55912" lon="0.64072">
        <ele>159.72</ele>
        <time>2014-05-18T07:20:48Z</time>
      </trkpt>
      <trkpt lat="44.55913" lon="0.64071">
        <ele>159.24</ele>
        <time>2014-05-18T07:20:49Z</time>
      </trkpt>
      <trkpt lat="44.55915" lon="0.6407">
        <ele>159.24</ele>
        <time>2014-05-18T07:20:50Z</time>
      </trkpt>
      <trkpt lat="44.55917" lon="0.64069">
        <ele>159.24</ele>
        <time>2014-05-18T07:20:51Z</time>
      </trkpt>
      <trkpt lat="44.5595" lon="0.64037">
        <ele>160.2</ele>
        <time>2014-05-18T07:21:08Z</time>
      </trkpt>
      <trkpt lat="44.55976" lon="0.64004">
        <ele>160.68</ele>
        <time>2014-05-18T07:21:23Z</time>
      </trkpt>
      <trkpt lat="44.55977" lon="0.64002">
        <ele>160.68</ele>
        <time>2014-05-18T07:21:24Z</time>
      </trkpt>
      <trkpt lat="44.55977" lon="0.64001">
        <ele>160.68</ele>
        <time>2014-05-18T07:21:25Z</time>
      </trkpt>
      <trkpt lat="44.55979" lon="0.64">
        <ele>160.68</ele>
        <time>2014-05-18T07:21:34Z</time>
      </trkpt>
      <trkpt lat="44.55981" lon="0.64">
        <ele>160.68</ele>
        <time>2014-05-18T07:21:58Z</time>
      </trkpt>
      <trkpt lat="44.55981" lon="0.64001">
        <ele>159.24</ele>
        <time>2014-05-18T07:22:24Z</time>
      </trkpt>
      <trkpt lat="44.55981" lon="0.64001">
        <ele>158.75</ele>
        <time>2014-05-18T07:22:48Z</time>
      </trkpt>
      <trkpt lat="44.55981" lon="0.64001">
        <ele>159.24</ele>
        <time>2014-05-18T07:23:14Z</time>
      </trkpt>
      <trkpt lat="44.55983" lon="0.64004">
        <ele>158.75</ele>
        <time>2014-05-18T07:23:31Z</time>
      </trkpt>
      <trkpt lat="44.55995" lon="0.64019">
        <ele>158.27</ele>
        <time>2014-05-18T07:23:40Z</time>
      </trkpt>
      <trkpt lat="44.56011" lon="0.64053">
        <ele>155.87</ele>
        <time>2014-05-18T07:23:50Z</time>
      </trkpt>
      <trkpt lat="44.56047" lon="0.64135">
        <ele>151.06</ele>
        <time>2014-05-18T07:23:59Z</time>
      </trkpt>
      <trkpt lat="44.561" lon="0.64281">
        <ele>143.37</ele>
        <time>2014-05-18T07:24:11Z</time>
      </trkpt>
      <trkpt lat="44.56103" lon="0.64292">
        <ele>142.89</ele>
        <time>2014-05-18T07:24:12Z</time>
      </trkpt>
      <trkpt lat="44.56119" lon="0.64405">
        <ele>140.01</ele>
        <time>2014-05-18T07:24:23Z</time>
      </trkpt>
      <trkpt lat="44.56118" lon="0.64415">
        <ele>140.01</ele>
        <time>2014-05-18T07:24:24Z</time>
      </trkpt>
      <trkpt lat="44.56116" lon="0.64425">
        <ele>139.53</ele>
        <time>2014-05-18T07:24:25Z</time>
      </trkpt>
      <trkpt lat="44.56107" lon="0.64463">
        <ele>138.09</ele>
        <time>2014-05-18T07:24:29Z</time>
      </trkpt>
      <trkpt lat="44.56106" lon="0.64472">
        <ele>137.61</ele>
        <time>2014-05-18T07:24:30Z</time>
      </trkpt>
      <trkpt lat="44.56105" lon="0.64489">
        <ele>136.64</ele>
        <time>2014-05-18T07:24:32Z</time>
      </trkpt>
      <trkpt lat="44.56106" lon="0.64498">
        <ele>136.16</ele>
        <time>2014-05-18T07:24:33Z</time>
      </trkpt>
      <trkpt lat="44.56108" lon="0.64505">
        <ele>135.68</ele>
        <time>2014-05-18T07:24:34Z</time>
      </trkpt>
      <trkpt lat="44.56113" lon="0.6451">
        <ele>135.2</ele>
        <time>2014-05-18T07:24:35Z</time>
      </trkpt>
      <trkpt lat="44.56119" lon="0.64512">
        <ele>134.72</ele>
        <time>2014-05-18T07:24:36Z</time>
      </trkpt>
      <trkpt lat="44.56125" lon="0.64509">
        <ele>134.24</ele>
        <time>2014-05-18T07:24:37Z</time>
      </trkpt>
      <trkpt lat="44.56131" lon="0.64503">
        <ele>133.28</ele>
        <time>2014-05-18T07:24:38Z</time>
      </trkpt>
      <trkpt lat="44.56137" lon="0.64496">
        <ele>133.28</ele>
        <time>2014-05-18T07:24:39Z</time>
      </trkpt>
      <trkpt lat="44.56143" lon="0.64489">
        <ele>132.8</ele>
        <time>2014-05-18T07:24:40Z</time>
      </trkpt>
      <trkpt lat="44.56188" lon="0.64443">
        <ele>129.43</ele>
        <time>2014-05-18T07:24:46Z</time>
      </trkpt>
      <trkpt lat="44.56197" lon="0.64438">
        <ele>128.47</ele>
        <time>2014-05-18T07:24:47Z</time>
      </trkpt>
      <trkpt lat="44.56206" lon="0.64435">
        <ele>127.99</ele>
        <time>2014-05-18T07:24:48Z</time>
      </trkpt>
      <trkpt lat="44.56215" lon="0.64435">
        <ele>127.03</ele>
        <time>2014-05-18T07:24:49Z</time>
      </trkpt>
      <trkpt lat="44.56224" lon="0.64436">
        <ele>126.55</ele>
        <time>2014-05-18T07:24:50Z</time>
      </trkpt>
      <trkpt lat="44.56233" lon="0.64439">
        <ele>125.59</ele>
        <time>2014-05-18T07:24:51Z</time>
      </trkpt>
      <trkpt lat="44.56241" lon="0.64443">
        <ele>125.11</ele>
        <time>2014-05-18T07:24:52Z</time>
      </trkpt>
      <trkpt lat="44.56248" lon="0.64448">
        <ele>124.15</ele>
        <time>2014-05-18T07:24:53Z</time>
      </trkpt>
      <trkpt lat="44.56254" lon="0.64453">
        <ele>123.19</ele>
        <time>2014-05-18T07:24:54Z</time>
      </trkpt>
      <trkpt lat="44.56259" lon="0.64458">
        <ele>122.71</ele>
        <time>2014-05-18T07:24:55Z</time>
      </trkpt>
      <trkpt lat="44.56262" lon="0.64463">
        <ele>122.71</ele>
        <time>2014-05-18T07:24:56Z</time>
      </trkpt>
      <trkpt lat="44.56265" lon="0.64467">
        <ele>122.22</ele>
        <time>2014-05-18T07:24:57Z</time>
      </trkpt>
      <trkpt lat="44.56267" lon="0.64472">
        <ele>121.74</ele>
        <time>2014-05-18T07:24:58Z</time>
      </trkpt>
      <trkpt lat="44.56268" lon="0.64478">
        <ele>120.78</ele>
        <time>2014-05-18T07:24:59Z</time>
      </trkpt>
      <trkpt lat="44.56279" lon="0.64505">
        <ele>117.9</ele>
        <time>2014-05-18T07:25:04Z</time>
      </trkpt>
      <trkpt lat="44.56312" lon="0.64547">
        <ele>113.09</ele>
        <time>2014-05-18T07:25:14Z</time>
      </trkpt>
      <trkpt lat="44.56333" lon="0.64577">
        <ele>110.21</ele>
        <time>2014-05-18T07:25:20Z</time>
      </trkpt>
      <trkpt lat="44.56368" lon="0.64643">
        <ele>107.32</ele>
        <time>2014-05-18T07:25:30Z</time>
      </trkpt>
      <trkpt lat="44.56376" lon="0.64654">
        <ele>106.36</ele>
        <time>2014-05-18T07:25:33Z</time>
      </trkpt>
      <trkpt lat="44.56404" lon="0.64679">
        <ele>106.84</ele>
        <time>2014-05-18T07:25:43Z</time>
      </trkpt>
      <trkpt lat="44.56412" lon="0.64686">
        <ele>108.29</ele>
        <time>2014-05-18T07:25:58Z</time>
      </trkpt>
      <trkpt lat="44.56414" lon="0.6469">
        <ele>108.77</ele>
        <time>2014-05-18T07:26:14Z</time>
      </trkpt>
      <trkpt lat="44.5642" lon="0.64696">
        <ele>109.25</ele>
        <time>2014-05-18T07:26:26Z</time>
      </trkpt>
      <trkpt lat="44.56433" lon="0.64708">
        <ele>110.69</ele>
        <time>2014-05-18T07:26:36Z</time>
      </trkpt>
      <trkpt lat="44.56458" lon="0.64731">
        <ele>114.05</ele>
        <time>2014-05-18T07:26:47Z</time>
      </trkpt>
      <trkpt lat="44.56481" lon="0.64758">
        <ele>115.98</ele>
        <time>2014-05-18T07:26:59Z</time>
      </trkpt>
      <trkpt lat="44.56492" lon="0.64769">
        <ele>117.42</ele>
        <time>2014-05-18T07:27:11Z</time>
      </trkpt>
      <trkpt lat="44.56495" lon="0.6477">
        <ele>116.46</ele>
        <time>2014-05-18T07:27:21Z</time>
      </trkpt>
      <trkpt lat="44.5651" lon="0.64785">
        <ele>119.82</ele>
        <time>2014-05-18T07:27:36Z</time>
      </trkpt>
      <trkpt lat="44.56522" lon="0.64794">
        <ele>121.74</ele>
        <time>2014-05-18T07:27:47Z</time>
      </trkpt>
      <trkpt lat="44.5653" lon="0.64796">
        <ele>122.22</ele>
        <time>2014-05-18T07:27:59Z</time>
      </trkpt>
      <trkpt lat="44.56556" lon="0.64813">
        <ele>125.11</ele>
        <time>2014-05-18T07:28:14Z</time>
      </trkpt>
      <trkpt lat="44.56596" lon="0.6484">
        <ele>124.15</ele>
        <time>2014-05-18T07:28:29Z</time>
      </trkpt>
      <trkpt lat="44.56601" lon="0.64844">
        <ele>123.67</ele>
        <time>2014-05-18T07:28:32Z</time>
      </trkpt>
      <trkpt lat="44.56601" lon="0.64843">
        <ele>124.15</ele>
        <time>2014-05-18T07:28:47Z</time>
      </trkpt>
      <trkpt lat="44.56601" lon="0.64844">
        <ele>125.59</ele>
        <time>2014-05-18T07:29:10Z</time>
      </trkpt>
      <trkpt lat="44.56606" lon="0.64842">
        <ele>125.11</ele>
        <time>2014-05-18T07:29:16Z</time>
      </trkpt>
      <trkpt lat="44.56607" lon="0.6484">
        <ele>125.11</ele>
        <time>2014-05-18T07:29:17Z</time>
      </trkpt>
      <trkpt lat="44.56609" lon="0.64836">
        <ele>125.11</ele>
        <time>2014-05-18T07:29:18Z</time>
      </trkpt>
      <trkpt lat="44.5661" lon="0.64833">
        <ele>125.59</ele>
        <time>2014-05-18T07:29:19Z</time>
      </trkpt>
      <trkpt lat="44.56611" lon="0.64829">
        <ele>126.07</ele>
        <time>2014-05-18T07:29:20Z</time>
      </trkpt>
      <trkpt lat="44.56612" lon="0.64825">
        <ele>126.55</ele>
        <time>2014-05-18T07:29:21Z</time>
      </trkpt>
      <trkpt lat="44.56612" lon="0.64821">
        <ele>127.03</ele>
        <time>2014-05-18T07:29:22Z</time>
      </trkpt>
      <trkpt lat="44.56613" lon="0.64817">
        <ele>127.03</ele>
        <time>2014-05-18T07:29:23Z</time>
      </trkpt>
      <trkpt lat="44.5664" lon="0.64756">
        <ele>131.84</ele>
        <time>2014-05-18T07:29:41Z</time>
      </trkpt>
      <trkpt lat="44.56682" lon="0.64693">
        <ele>135.68</ele>
        <time>2014-05-18T07:30:00Z</time>
      </trkpt>
      <trkpt lat="44.56719" lon="0.64631">
        <ele>134.24</ele>
        <time>2014-05-18T07:30:13Z</time>
      </trkpt>
      <trkpt lat="44.56759" lon="0.64555">
        <ele>137.61</ele>
        <time>2014-05-18T07:30:29Z</time>
      </trkpt>
      <trkpt lat="44.56788" lon="0.64493">
        <ele>140.97</ele>
        <time>2014-05-18T07:30:44Z</time>
      </trkpt>
      <trkpt lat="44.56798" lon="0.64423">
        <ele>143.37</ele>
        <time>2014-05-18T07:30:59Z</time>
      </trkpt>
      <trkpt lat="44.56808" lon="0.64354">
        <ele>146.74</ele>
        <time>2014-05-18T07:31:15Z</time>
      </trkpt>
      <trkpt lat="44.5682" lon="0.64293">
        <ele>149.62</ele>
        <time>2014-05-18T07:31:30Z</time>
      </trkpt>
      <trkpt lat="44.56842" lon="0.64228">
        <ele>153.47</ele>
        <time>2014-05-18T07:31:48Z</time>
      </trkpt>
      <trkpt lat="44.56866" lon="0.64162">
        <ele>155.87</ele>
        <time>2014-05-18T07:32:05Z</time>
      </trkpt>
      <trkpt lat="44.56878" lon="0.64107">
        <ele>156.83</ele>
        <time>2014-05-18T07:32:18Z</time>
      </trkpt>
      <trkpt lat="44.56898" lon="0.64024">
        <ele>157.31</ele>
        <time>2014-05-18T07:32:37Z</time>
      </trkpt>
      <trkpt lat="44.56918" lon="0.6396">
        <ele>157.31</ele>
        <time>2014-05-18T07:32:51Z</time>
      </trkpt>
      <trkpt lat="44.56938" lon="0.63888">
        <ele>156.83</ele>
        <time>2014-05-18T07:33:05Z</time>
      </trkpt>
      <trkpt lat="44.56948" lon="0.63843">
        <ele>155.87</ele>
        <time>2014-05-18T07:33:13Z</time>
      </trkpt>
      <trkpt lat="44.5695" lon="0.63837">
        <ele>155.87</ele>
        <time>2014-05-18T07:33:14Z</time>
      </trkpt>
      <trkpt lat="44.56957" lon="0.6381">
        <ele>155.39</ele>
        <time>2014-05-18T07:33:18Z</time>
      </trkpt>
      <trkpt lat="44.56959" lon="0.63803">
        <ele>154.91</ele>
        <time>2014-05-18T07:33:19Z</time>
      </trkpt>
      <trkpt lat="44.56962" lon="0.63795">
        <ele>154.91</ele>
        <time>2014-05-18T07:33:20Z</time>
      </trkpt>
      <trkpt lat="44.56995" lon="0.63724">
        <ele>155.39</ele>
        <time>2014-05-18T07:33:33Z</time>
      </trkpt>
      <trkpt lat="44.57007" lon="0.63701">
        <ele>154.91</ele>
        <time>2014-05-18T07:33:38Z</time>
      </trkpt>
      <trkpt lat="44.57012" lon="0.63691">
        <ele>154.91</ele>
        <time>2014-05-18T07:33:40Z</time>
      </trkpt>
      <trkpt lat="44.57066" lon="0.63614">
        <ele>152.51</ele>
        <time>2014-05-18T07:33:56Z</time>
      </trkpt>
      <trkpt lat="44.57083" lon="0.63592">
        <ele>151.06</ele>
        <time>2014-05-18T07:34:00Z</time>
      </trkpt>
      <trkpt lat="44.5713" lon="0.635">
        <ele>148.18</ele>
        <time>2014-05-18T07:34:13Z</time>
      </trkpt>
      <trkpt lat="44.57181" lon="0.63403">
        <ele>149.62</ele>
        <time>2014-05-18T07:34:29Z</time>
      </trkpt>
      <trkpt lat="44.57228" lon="0.63324">
        <ele>152.51</ele>
        <time>2014-05-18T07:34:47Z</time>
      </trkpt>
      <trkpt lat="44.57271" lon="0.6326">
        <ele>157.31</ele>
        <time>2014-05-18T07:35:04Z</time>
      </trkpt>
      <trkpt lat="44.57308" lon="0.63209">
        <ele>162.12</ele>
        <time>2014-05-18T07:35:19Z</time>
      </trkpt>
      <trkpt lat="44.57333" lon="0.63162">
        <ele>164.52</ele>
        <time>2014-05-18T07:35:32Z</time>
      </trkpt>
      <trkpt lat="44.57336" lon="0.63161">
        <ele>165</ele>
        <time>2014-05-18T07:35:33Z</time>
      </trkpt>
      <trkpt lat="44.57345" lon="0.63168">
        <ele>166.45</ele>
        <time>2014-05-18T07:35:38Z</time>
      </trkpt>
      <trkpt lat="44.57375" lon="0.63204">
        <ele>167.89</ele>
        <time>2014-05-18T07:35:53Z</time>
      </trkpt>
      <trkpt lat="44.5741" lon="0.63246">
        <ele>171.73</ele>
        <time>2014-05-18T07:36:08Z</time>
      </trkpt>
      <trkpt lat="44.57435" lon="0.63284">
        <ele>171.73</ele>
        <time>2014-05-18T07:36:18Z</time>
      </trkpt>
      <trkpt lat="44.57428" lon="0.633">
        <ele>172.21</ele>
        <time>2014-05-18T07:36:22Z</time>
      </trkpt>
      <trkpt lat="44.57423" lon="0.63326">
        <ele>171.25</ele>
        <time>2014-05-18T07:36:26Z</time>
      </trkpt>
      <trkpt lat="44.57433" lon="0.63394">
        <ele>167.89</ele>
        <time>2014-05-18T07:36:35Z</time>
      </trkpt>
      <trkpt lat="44.5744" lon="0.63438">
        <ele>165.96</ele>
        <time>2014-05-18T07:36:41Z</time>
      </trkpt>
      <trkpt lat="44.57442" lon="0.63463">
        <ele>165.48</ele>
        <time>2014-05-18T07:36:44Z</time>
      </trkpt>
      <trkpt lat="44.57442" lon="0.63486">
        <ele>164.52</ele>
        <time>2014-05-18T07:36:47Z</time>
      </trkpt>
      <trkpt lat="44.57443" lon="0.63501">
        <ele>164.04</ele>
        <time>2014-05-18T07:36:49Z</time>
      </trkpt>
      <trkpt lat="44.5745" lon="0.63522">
        <ele>162.6</ele>
        <time>2014-05-18T07:36:52Z</time>
      </trkpt>
      <trkpt lat="44.57476" lon="0.63591">
        <ele>160.2</ele>
        <time>2014-05-18T07:37:00Z</time>
      </trkpt>
      <trkpt lat="44.57481" lon="0.63615">
        <ele>159.24</ele>
        <time>2014-05-18T07:37:03Z</time>
      </trkpt>
      <trkpt lat="44.57485" lon="0.63636">
        <ele>158.27</ele>
        <time>2014-05-18T07:37:06Z</time>
      </trkpt>
      <trkpt lat="44.57508" lon="0.6369">
        <ele>154.43</ele>
        <time>2014-05-18T07:37:12Z</time>
      </trkpt>
      <trkpt lat="44.57527" lon="0.63698">
        <ele>152.51</ele>
        <time>2014-05-18T07:37:16Z</time>
      </trkpt>
      <trkpt lat="44.57554" lon="0.63676">
        <ele>152.51</ele>
        <time>2014-05-18T07:37:24Z</time>
      </trkpt>
      <trkpt lat="44.57584" lon="0.6363">
        <ele>153.47</ele>
        <time>2014-05-18T07:37:36Z</time>
      </trkpt>
      <trkpt lat="44.57603" lon="0.63628">
        <ele>152.03</ele>
        <time>2014-05-18T07:37:40Z</time>
      </trkpt>
      <trkpt lat="44.57638" lon="0.63627">
        <ele>151.06</ele>
        <time>2014-05-18T07:37:48Z</time>
      </trkpt>
      <trkpt lat="44.57647" lon="0.63634">
        <ele>150.58</ele>
        <time>2014-05-18T07:37:50Z</time>
      </trkpt>
      <trkpt lat="44.57655" lon="0.63643">
        <ele>149.62</ele>
        <time>2014-05-18T07:37:52Z</time>
      </trkpt>
      <trkpt lat="44.57663" lon="0.63657">
        <ele>149.14</ele>
        <time>2014-05-18T07:37:54Z</time>
      </trkpt>
      <trkpt lat="44.57682" lon="0.63681">
        <ele>147.22</ele>
        <time>2014-05-18T07:37:58Z</time>
      </trkpt>
      <trkpt lat="44.57697" lon="0.6371">
        <ele>145.3</ele>
        <time>2014-05-18T07:38:02Z</time>
      </trkpt>
      <trkpt lat="44.57703" lon="0.63732">
        <ele>143.85</ele>
        <time>2014-05-18T07:38:05Z</time>
      </trkpt>
      <trkpt lat="44.57722" lon="0.63762">
        <ele>139.05</ele>
        <time>2014-05-18T07:38:10Z</time>
      </trkpt>
      <trkpt lat="44.57741" lon="0.63798">
        <ele>133.76</ele>
        <time>2014-05-18T07:38:16Z</time>
      </trkpt>
      <trkpt lat="44.57748" lon="0.63812">
        <ele>128.47</ele>
        <time>2014-05-18T07:38:25Z</time>
      </trkpt>
      <trkpt lat="44.57749" lon="0.63813">
        <ele>126.07</ele>
        <time>2014-05-18T07:39:04Z</time>
      </trkpt>
      <trkpt lat="44.57747" lon="0.63816">
        <ele>127.03</ele>
        <time>2014-05-18T07:39:43Z</time>
      </trkpt>
      <trkpt lat="44.57747" lon="0.63819">
        <ele>125.11</ele>
        <time>2014-05-18T07:40:15Z</time>
      </trkpt>
      <trkpt lat="44.57749" lon="0.63813">
        <ele>125.11</ele>
        <time>2014-05-18T07:40:34Z</time>
      </trkpt>
      <trkpt lat="44.57763" lon="0.63795">
        <ele>126.07</ele>
        <time>2014-05-18T07:40:45Z</time>
      </trkpt>
      <trkpt lat="44.57785" lon="0.63755">
        <ele>130.4</ele>
        <time>2014-05-18T07:40:57Z</time>
      </trkpt>
      <trkpt lat="44.57807" lon="0.6371">
        <ele>131.84</ele>
        <time>2014-05-18T07:41:08Z</time>
      </trkpt>
      <trkpt lat="44.5782" lon="0.63691">
        <ele>132.32</ele>
        <time>2014-05-18T07:41:12Z</time>
      </trkpt>
      <trkpt lat="44.57834" lon="0.63678">
        <ele>133.76</ele>
        <time>2014-05-18T07:41:15Z</time>
      </trkpt>
      <trkpt lat="44.57849" lon="0.63665">
        <ele>134.72</ele>
        <time>2014-05-18T07:41:18Z</time>
      </trkpt>
      <trkpt lat="44.5788" lon="0.63613">
        <ele>137.61</ele>
        <time>2014-05-18T07:41:26Z</time>
      </trkpt>
      <trkpt lat="44.57892" lon="0.63592">
        <ele>138.57</ele>
        <time>2014-05-18T07:41:29Z</time>
      </trkpt>
      <trkpt lat="44.57937" lon="0.63503">
        <ele>140.01</ele>
        <time>2014-05-18T07:41:42Z</time>
      </trkpt>
      <trkpt lat="44.57946" lon="0.63473">
        <ele>138.09</ele>
        <time>2014-05-18T07:41:46Z</time>
      </trkpt>
      <trkpt lat="44.57962" lon="0.63443">
        <ele>135.2</ele>
        <time>2014-05-18T07:41:52Z</time>
      </trkpt>
      <trkpt lat="44.57965" lon="0.63445">
        <ele>135.2</ele>
        <time>2014-05-18T07:41:53Z</time>
      </trkpt>
      <trkpt lat="44.5797" lon="0.63447">
        <ele>135.2</ele>
        <time>2014-05-18T07:41:54Z</time>
      </trkpt>
      <trkpt lat="44.57974" lon="0.6345">
        <ele>135.2</ele>
        <time>2014-05-18T07:41:55Z</time>
      </trkpt>
      <trkpt lat="44.57978" lon="0.63453">
        <ele>134.72</ele>
        <time>2014-05-18T07:41:56Z</time>
      </trkpt>
      <trkpt lat="44.58011" lon="0.63471">
        <ele>137.13</ele>
        <time>2014-05-18T07:42:07Z</time>
      </trkpt>
      <trkpt lat="44.58067" lon="0.63506">
        <ele>138.09</ele>
        <time>2014-05-18T07:42:23Z</time>
      </trkpt>
      <trkpt lat="44.58142" lon="0.63535">
        <ele>138.09</ele>
        <time>2014-05-18T07:42:38Z</time>
      </trkpt>
      <trkpt lat="44.58203" lon="0.63548">
        <ele>142.89</ele>
        <time>2014-05-18T07:42:53Z</time>
      </trkpt>
      <trkpt lat="44.58269" lon="0.63556">
        <ele>147.22</ele>
        <time>2014-05-18T07:43:10Z</time>
      </trkpt>
      <trkpt lat="44.58353" lon="0.63569">
        <ele>152.03</ele>
        <time>2014-05-18T07:43:31Z</time>
      </trkpt>
      <trkpt lat="44.58433" lon="0.6358">
        <ele>156.83</ele>
        <time>2014-05-18T07:43:50Z</time>
      </trkpt>
      <trkpt lat="44.58505" lon="0.63589">
        <ele>162.12</ele>
        <time>2014-05-18T07:44:08Z</time>
      </trkpt>
      <trkpt lat="44.58519" lon="0.63595">
        <ele>163.56</ele>
        <time>2014-05-18T07:44:12Z</time>
      </trkpt>
      <trkpt lat="44.5852" lon="0.636">
        <ele>164.04</ele>
        <time>2014-05-18T07:44:13Z</time>
      </trkpt>
      <trkpt lat="44.58521" lon="0.63605">
        <ele>164.04</ele>
        <time>2014-05-18T07:44:14Z</time>
      </trkpt>
      <trkpt lat="44.5852" lon="0.6361">
        <ele>164.52</ele>
        <time>2014-05-18T07:44:15Z</time>
      </trkpt>
      <trkpt lat="44.58519" lon="0.63615">
        <ele>164.52</ele>
        <time>2014-05-18T07:44:16Z</time>
      </trkpt>
      <trkpt lat="44.5851" lon="0.63688">
        <ele>166.93</ele>
        <time>2014-05-18T07:44:29Z</time>
      </trkpt>
      <trkpt lat="44.585" lon="0.63754">
        <ele>167.89</ele>
        <time>2014-05-18T07:44:40Z</time>
      </trkpt>
      <trkpt lat="44.58478" lon="0.63858">
        <ele>170.29</ele>
        <time>2014-05-18T07:44:57Z</time>
      </trkpt>
      <trkpt lat="44.58448" lon="0.6396">
        <ele>171.73</ele>
        <time>2014-05-18T07:45:14Z</time>
      </trkpt>
      <trkpt lat="44.58426" lon="0.64034">
        <ele>174.14</ele>
        <time>2014-05-18T07:45:27Z</time>
      </trkpt>
      <trkpt lat="44.58425" lon="0.6404">
        <ele>174.62</ele>
        <time>2014-05-18T07:45:28Z</time>
      </trkpt>
      <trkpt lat="44.58426" lon="0.64045">
        <ele>174.62</ele>
        <time>2014-05-18T07:45:29Z</time>
      </trkpt>
      <trkpt lat="44.5845" lon="0.64099">
        <ele>177.5</ele>
        <time>2014-05-18T07:45:42Z</time>
      </trkpt>
      <trkpt lat="44.5846" lon="0.64109">
        <ele>177.5</ele>
        <time>2014-05-18T07:45:45Z</time>
      </trkpt>
      <trkpt lat="44.58464" lon="0.64111">
        <ele>177.5</ele>
        <time>2014-05-18T07:45:46Z</time>
      </trkpt>
      <trkpt lat="44.58469" lon="0.64112">
        <ele>177.5</ele>
        <time>2014-05-18T07:45:47Z</time>
      </trkpt>
      <trkpt lat="44.58473" lon="0.64113">
        <ele>177.5</ele>
        <time>2014-05-18T07:45:48Z</time>
      </trkpt>
      <trkpt lat="44.58478" lon="0.64114">
        <ele>177.5</ele>
        <time>2014-05-18T07:45:49Z</time>
      </trkpt>
      <trkpt lat="44.58483" lon="0.64114">
        <ele>177.5</ele>
        <time>2014-05-18T07:45:50Z</time>
      </trkpt>
      <trkpt lat="44.58488" lon="0.64114">
        <ele>177.5</ele>
        <time>2014-05-18T07:45:51Z</time>
      </trkpt>
      <trkpt lat="44.58493" lon="0.64112">
        <ele>177.5</ele>
        <time>2014-05-18T07:45:52Z</time>
      </trkpt>
      <trkpt lat="44.58572" lon="0.64098">
        <ele>173.66</ele>
        <time>2014-05-18T07:46:04Z</time>
      </trkpt>
      <trkpt lat="44.58636" lon="0.64085">
        <ele>170.77</ele>
        <time>2014-05-18T07:46:11Z</time>
      </trkpt>
      <trkpt lat="44.58646" lon="0.64085">
        <ele>170.29</ele>
        <time>2014-05-18T07:46:12Z</time>
      </trkpt>
      <trkpt lat="44.58656" lon="0.64086">
        <ele>169.81</ele>
        <time>2014-05-18T07:46:13Z</time>
      </trkpt>
      <trkpt lat="44.58666" lon="0.64088">
        <ele>169.33</ele>
        <time>2014-05-18T07:46:14Z</time>
      </trkpt>
      <trkpt lat="44.58676" lon="0.64093">
        <ele>168.37</ele>
        <time>2014-05-18T07:46:15Z</time>
      </trkpt>
      <trkpt lat="44.58687" lon="0.64099">
        <ele>167.89</ele>
        <time>2014-05-18T07:46:16Z</time>
      </trkpt>
      <trkpt lat="44.58696" lon="0.64108">
        <ele>166.93</ele>
        <time>2014-05-18T07:46:17Z</time>
      </trkpt>
      <trkpt lat="44.58705" lon="0.64118">
        <ele>166.45</ele>
        <time>2014-05-18T07:46:18Z</time>
      </trkpt>
      <trkpt lat="44.58722" lon="0.6414">
        <ele>165</ele>
        <time>2014-05-18T07:46:20Z</time>
      </trkpt>
      <trkpt lat="44.58729" lon="0.64153">
        <ele>164.04</ele>
        <time>2014-05-18T07:46:21Z</time>
      </trkpt>
      <trkpt lat="44.58776" lon="0.64291">
        <ele>160.2</ele>
        <time>2014-05-18T07:46:31Z</time>
      </trkpt>
      <trkpt lat="44.58795" lon="0.64339">
        <ele>160.2</ele>
        <time>2014-05-18T07:46:35Z</time>
      </trkpt>
      <trkpt lat="44.58801" lon="0.64348">
        <ele>159.72</ele>
        <time>2014-05-18T07:46:36Z</time>
      </trkpt>
      <trkpt lat="44.58808" lon="0.64356">
        <ele>159.72</ele>
        <time>2014-05-18T07:46:37Z</time>
      </trkpt>
      <trkpt lat="44.58893" lon="0.64469">
        <ele>159.72</ele>
        <time>2014-05-18T07:46:51Z</time>
      </trkpt>
      <trkpt lat="44.5894" lon="0.64561">
        <ele>164.04</ele>
        <time>2014-05-18T07:47:04Z</time>
      </trkpt>
      <trkpt lat="44.59" lon="0.64627">
        <ele>164.04</ele>
        <time>2014-05-18T07:47:18Z</time>
      </trkpt>
      <trkpt lat="44.59029" lon="0.6466">
        <ele>164.04</ele>
        <time>2014-05-18T07:47:24Z</time>
      </trkpt>
      <trkpt lat="44.59033" lon="0.64667">
        <ele>163.56</ele>
        <time>2014-05-18T07:47:25Z</time>
      </trkpt>
      <trkpt lat="44.59037" lon="0.64674">
        <ele>163.56</ele>
        <time>2014-05-18T07:47:26Z</time>
      </trkpt>
      <trkpt lat="44.5904" lon="0.64682">
        <ele>163.56</ele>
        <time>2014-05-18T07:47:27Z</time>
      </trkpt>
      <trkpt lat="44.59043" lon="0.6469">
        <ele>163.56</ele>
        <time>2014-05-18T07:47:28Z</time>
      </trkpt>
      <trkpt lat="44.59045" lon="0.64698">
        <ele>164.04</ele>
        <time>2014-05-18T07:47:29Z</time>
      </trkpt>
      <trkpt lat="44.59047" lon="0.64707">
        <ele>164.04</ele>
        <time>2014-05-18T07:47:30Z</time>
      </trkpt>
      <trkpt lat="44.59068" lon="0.64837">
        <ele>165.96</ele>
        <time>2014-05-18T07:47:47Z</time>
      </trkpt>
      <trkpt lat="44.59088" lon="0.64926">
        <ele>169.33</ele>
        <time>2014-05-18T07:48:03Z</time>
      </trkpt>
      <trkpt lat="44.59098" lon="0.64964">
        <ele>169.81</ele>
        <time>2014-05-18T07:48:10Z</time>
      </trkpt>
      <trkpt lat="44.591" lon="0.64969">
        <ele>169.81</ele>
        <time>2014-05-18T07:48:11Z</time>
      </trkpt>
      <trkpt lat="44.59134" lon="0.65046">
        <ele>172.21</ele>
        <time>2014-05-18T07:48:27Z</time>
      </trkpt>
      <trkpt lat="44.59146" lon="0.65062">
        <ele>173.17</ele>
        <time>2014-05-18T07:48:34Z</time>
      </trkpt>
      <trkpt lat="44.59148" lon="0.65061">
        <ele>173.17</ele>
        <time>2014-05-18T07:48:35Z</time>
      </trkpt>
      <trkpt lat="44.59152" lon="0.65057">
        <ele>173.17</ele>
        <time>2014-05-18T07:48:37Z</time>
      </trkpt>
      <trkpt lat="44.59185" lon="0.65025">
        <ele>175.1</ele>
        <time>2014-05-18T07:48:50Z</time>
      </trkpt>
      <trkpt lat="44.59196" lon="0.65014">
        <ele>176.54</ele>
        <time>2014-05-18T07:49:00Z</time>
      </trkpt>
      <trkpt lat="44.59197" lon="0.65015">
        <ele>176.06</ele>
        <time>2014-05-18T07:49:19Z</time>
      </trkpt>
      <trkpt lat="44.59196" lon="0.65016">
        <ele>175.58</ele>
        <time>2014-05-18T07:49:26Z</time>
      </trkpt>
      <trkpt lat="44.59166" lon="0.65042">
        <ele>174.62</ele>
        <time>2014-05-18T07:49:37Z</time>
      </trkpt>
      <trkpt lat="44.59147" lon="0.65066">
        <ele>172.69</ele>
        <time>2014-05-18T07:49:44Z</time>
      </trkpt>
      <trkpt lat="44.59147" lon="0.65069">
        <ele>172.69</ele>
        <time>2014-05-18T07:49:45Z</time>
      </trkpt>
      <trkpt lat="44.59149" lon="0.65073">
        <ele>172.69</ele>
        <time>2014-05-18T07:49:46Z</time>
      </trkpt>
      <trkpt lat="44.59186" lon="0.65126">
        <ele>171.25</ele>
        <time>2014-05-18T07:50:00Z</time>
      </trkpt>
      <trkpt lat="44.59189" lon="0.65132">
        <ele>171.25</ele>
        <time>2014-05-18T07:50:01Z</time>
      </trkpt>
      <trkpt lat="44.59247" lon="0.65219">
        <ele>165</ele>
        <time>2014-05-18T07:50:13Z</time>
      </trkpt>
      <trkpt lat="44.59273" lon="0.65266">
        <ele>162.6</ele>
        <time>2014-05-18T07:50:22Z</time>
      </trkpt>
      <trkpt lat="44.59275" lon="0.65267">
        <ele>162.6</ele>
        <time>2014-05-18T07:50:23Z</time>
      </trkpt>
      <trkpt lat="44.59277" lon="0.65267">
        <ele>162.6</ele>
        <time>2014-05-18T07:50:24Z</time>
      </trkpt>
      <trkpt lat="44.59286" lon="0.65261">
        <ele>164.04</ele>
        <time>2014-05-18T07:50:34Z</time>
      </trkpt>
      <trkpt lat="44.59298" lon="0.6526">
        <ele>165</ele>
        <time>2014-05-18T07:50:42Z</time>
      </trkpt>
      <trkpt lat="44.59313" lon="0.65273">
        <ele>168.37</ele>
        <time>2014-05-18T07:50:50Z</time>
      </trkpt>
      <trkpt lat="44.5933" lon="0.65265">
        <ele>171.73</ele>
        <time>2014-05-18T07:50:59Z</time>
      </trkpt>
      <trkpt lat="44.59343" lon="0.65265">
        <ele>173.66</ele>
        <time>2014-05-18T07:51:04Z</time>
      </trkpt>
      <trkpt lat="44.59368" lon="0.65284">
        <ele>176.06</ele>
        <time>2014-05-18T07:51:16Z</time>
      </trkpt>
      <trkpt lat="44.59394" lon="0.65303">
        <ele>180.38</ele>
        <time>2014-05-18T07:51:27Z</time>
      </trkpt>
      <trkpt lat="44.59406" lon="0.65315">
        <ele>183.27</ele>
        <time>2014-05-18T07:51:34Z</time>
      </trkpt>
      <trkpt lat="44.59409" lon="0.65327">
        <ele>184.71</ele>
        <time>2014-05-18T07:51:38Z</time>
      </trkpt>
      <trkpt lat="44.59414" lon="0.65346">
        <ele>184.71</ele>
        <time>2014-05-18T07:51:43Z</time>
      </trkpt>
      <trkpt lat="44.59414" lon="0.65371">
        <ele>183.27</ele>
        <time>2014-05-18T07:51:47Z</time>
      </trkpt>
      <trkpt lat="44.59436" lon="0.65405">
        <ele>179.9</ele>
        <time>2014-05-18T07:51:54Z</time>
      </trkpt>
      <trkpt lat="44.59446" lon="0.6542">
        <ele>178.46</ele>
        <time>2014-05-18T07:51:58Z</time>
      </trkpt>
      <trkpt lat="44.59453" lon="0.65426">
        <ele>177.98</ele>
        <time>2014-05-18T07:52:00Z</time>
      </trkpt>
      <trkpt lat="44.59472" lon="0.65452">
        <ele>177.02</ele>
        <time>2014-05-18T07:52:11Z</time>
      </trkpt>
      <trkpt lat="44.59476" lon="0.65461">
        <ele>177.5</ele>
        <time>2014-05-18T07:52:15Z</time>
      </trkpt>
      <trkpt lat="44.59478" lon="0.65491">
        <ele>178.46</ele>
        <time>2014-05-18T07:52:25Z</time>
      </trkpt>
      <trkpt lat="44.59476" lon="0.6551">
        <ele>180.38</ele>
        <time>2014-05-18T07:52:31Z</time>
      </trkpt>
      <trkpt lat="44.59469" lon="0.65522">
        <ele>180.87</ele>
        <time>2014-05-18T07:52:36Z</time>
      </trkpt>
      <trkpt lat="44.59479" lon="0.65543">
        <ele>183.27</ele>
        <time>2014-05-18T07:52:43Z</time>
      </trkpt>
      <trkpt lat="44.59496" lon="0.65565">
        <ele>187.11</ele>
        <time>2014-05-18T07:52:55Z</time>
      </trkpt>
      <trkpt lat="44.59515" lon="0.65582">
        <ele>189.52</ele>
        <time>2014-05-18T07:53:06Z</time>
      </trkpt>
      <trkpt lat="44.59521" lon="0.65584">
        <ele>190</ele>
        <time>2014-05-18T07:53:09Z</time>
      </trkpt>
      <trkpt lat="44.59537" lon="0.65582">
        <ele>190</ele>
        <time>2014-05-18T07:53:19Z</time>
      </trkpt>
      <trkpt lat="44.59548" lon="0.65584">
        <ele>189.52</ele>
        <time>2014-05-18T07:53:24Z</time>
      </trkpt>
      <trkpt lat="44.59557" lon="0.65585">
        <ele>189.04</ele>
        <time>2014-05-18T07:53:28Z</time>
      </trkpt>
      <trkpt lat="44.59562" lon="0.65586">
        <ele>189.52</ele>
        <time>2014-05-18T07:53:30Z</time>
      </trkpt>
      <trkpt lat="44.5959" lon="0.65605">
        <ele>193.36</ele>
        <time>2014-05-18T07:53:43Z</time>
      </trkpt>
      <trkpt lat="44.59611" lon="0.65626">
        <ele>197.21</ele>
        <time>2014-05-18T07:53:54Z</time>
      </trkpt>
      <trkpt lat="44.59623" lon="0.65643">
        <ele>201.05</ele>
        <time>2014-05-18T07:54:03Z</time>
      </trkpt>
      <trkpt lat="44.59639" lon="0.65657">
        <ele>204.9</ele>
        <time>2014-05-18T07:54:12Z</time>
      </trkpt>
      <trkpt lat="44.59649" lon="0.65631">
        <ele>204.42</ele>
        <time>2014-05-18T07:54:21Z</time>
      </trkpt>
      <trkpt lat="44.59651" lon="0.65627">
        <ele>203.94</ele>
        <time>2014-05-18T07:54:22Z</time>
      </trkpt>
      <trkpt lat="44.59667" lon="0.65601">
        <ele>199.13</ele>
        <time>2014-05-18T07:54:33Z</time>
      </trkpt>
      <trkpt lat="44.59673" lon="0.65595">
        <ele>198.17</ele>
        <time>2014-05-18T07:54:36Z</time>
      </trkpt>
      <trkpt lat="44.5968" lon="0.65601">
        <ele>197.69</ele>
        <time>2014-05-18T07:54:40Z</time>
      </trkpt>
      <trkpt lat="44.59703" lon="0.65606">
        <ele>195.77</ele>
        <time>2014-05-18T07:54:48Z</time>
      </trkpt>
      <trkpt lat="44.59719" lon="0.65633">
        <ele>192.88</ele>
        <time>2014-05-18T07:54:56Z</time>
      </trkpt>
      <trkpt lat="44.59731" lon="0.65656">
        <ele>189.52</ele>
        <time>2014-05-18T07:55:04Z</time>
      </trkpt>
      <trkpt lat="44.59747" lon="0.65665">
        <ele>186.15</ele>
        <time>2014-05-18T07:55:09Z</time>
      </trkpt>
      <trkpt lat="44.59768" lon="0.65663">
        <ele>182.79</ele>
        <time>2014-05-18T07:55:14Z</time>
      </trkpt>
      <trkpt lat="44.59792" lon="0.65638">
        <ele>179.42</ele>
        <time>2014-05-18T07:55:20Z</time>
      </trkpt>
      <trkpt lat="44.59803" lon="0.65625">
        <ele>178.46</ele>
        <time>2014-05-18T07:55:23Z</time>
      </trkpt>
      <trkpt lat="44.59814" lon="0.65609">
        <ele>177.5</ele>
        <time>2014-05-18T07:55:27Z</time>
      </trkpt>
      <trkpt lat="44.59838" lon="0.65587">
        <ele>176.06</ele>
        <time>2014-05-18T07:55:36Z</time>
      </trkpt>
      <trkpt lat="44.59841" lon="0.65585">
        <ele>175.58</ele>
        <time>2014-05-18T07:55:37Z</time>
      </trkpt>
      <trkpt lat="44.59854" lon="0.6558">
        <ele>174.62</ele>
        <time>2014-05-18T07:55:40Z</time>
      </trkpt>
      <trkpt lat="44.59888" lon="0.65575">
        <ele>172.69</ele>
        <time>2014-05-18T07:55:48Z</time>
      </trkpt>
      <trkpt lat="44.59914" lon="0.65562">
        <ele>170.29</ele>
        <time>2014-05-18T07:55:54Z</time>
      </trkpt>
      <trkpt lat="44.59931" lon="0.65551">
        <ele>169.81</ele>
        <time>2014-05-18T07:55:58Z</time>
      </trkpt>
      <trkpt lat="44.59946" lon="0.6554">
        <ele>169.81</ele>
        <time>2014-05-18T07:56:01Z</time>
      </trkpt>
      <trkpt lat="44.59964" lon="0.65531">
        <ele>169.81</ele>
        <time>2014-05-18T07:56:06Z</time>
      </trkpt>
      <trkpt lat="44.59987" lon="0.6552">
        <ele>167.41</ele>
        <time>2014-05-18T07:56:14Z</time>
      </trkpt>
      <trkpt lat="44.60016" lon="0.65491">
        <ele>166.45</ele>
        <time>2014-05-18T07:56:23Z</time>
      </trkpt>
      <trkpt lat="44.60022" lon="0.65483">
        <ele>165.96</ele>
        <time>2014-05-18T07:56:25Z</time>
      </trkpt>
      <trkpt lat="44.60084" lon="0.65433">
        <ele>161.16</ele>
        <time>2014-05-18T07:56:38Z</time>
      </trkpt>
      <trkpt lat="44.60092" lon="0.65422">
        <ele>159.72</ele>
        <time>2014-05-18T07:56:43Z</time>
      </trkpt>
      <trkpt lat="44.60101" lon="0.65426">
        <ele>158.27</ele>
        <time>2014-05-18T07:56:47Z</time>
      </trkpt>
      <trkpt lat="44.60143" lon="0.65488">
        <ele>152.99</ele>
        <time>2014-05-18T07:56:58Z</time>
      </trkpt>
      <trkpt lat="44.60147" lon="0.65493">
        <ele>152.99</ele>
        <time>2014-05-18T07:56:59Z</time>
      </trkpt>
      <trkpt lat="44.60151" lon="0.65495">
        <ele>153.95</ele>
        <time>2014-05-18T07:57:00Z</time>
      </trkpt>
      <trkpt lat="44.60155" lon="0.65497">
        <ele>153.95</ele>
        <time>2014-05-18T07:57:01Z</time>
      </trkpt>
      <trkpt lat="44.60158" lon="0.65498">
        <ele>154.43</ele>
        <time>2014-05-18T07:57:02Z</time>
      </trkpt>
      <trkpt lat="44.60165" lon="0.65497">
        <ele>154.43</ele>
        <time>2014-05-18T07:57:04Z</time>
      </trkpt>
      <trkpt lat="44.60215" lon="0.65479">
        <ele>152.99</ele>
        <time>2014-05-18T07:57:19Z</time>
      </trkpt>
      <trkpt lat="44.60261" lon="0.65477">
        <ele>153.95</ele>
        <time>2014-05-18T07:57:33Z</time>
      </trkpt>
      <trkpt lat="44.60299" lon="0.65506">
        <ele>153.95</ele>
        <time>2014-05-18T07:57:46Z</time>
      </trkpt>
      <trkpt lat="44.60337" lon="0.65537">
        <ele>152.51</ele>
        <time>2014-05-18T07:57:57Z</time>
      </trkpt>
      <trkpt lat="44.60353" lon="0.65557">
        <ele>151.06</ele>
        <time>2014-05-18T07:58:01Z</time>
      </trkpt>
      <trkpt lat="44.60394" lon="0.65618">
        <ele>143.85</ele>
        <time>2014-05-18T07:58:09Z</time>
      </trkpt>
      <trkpt lat="44.60411" lon="0.65649">
        <ele>140.01</ele>
        <time>2014-05-18T07:58:13Z</time>
      </trkpt>
      <trkpt lat="44.60419" lon="0.65689">
        <ele>136.16</ele>
        <time>2014-05-18T07:58:19Z</time>
      </trkpt>
      <trkpt lat="44.60437" lon="0.6571">
        <ele>136.16</ele>
        <time>2014-05-18T07:58:25Z</time>
      </trkpt>
      <trkpt lat="44.60448" lon="0.65709">
        <ele>137.61</ele>
        <time>2014-05-18T07:58:28Z</time>
      </trkpt>
      <trkpt lat="44.60468" lon="0.65701">
        <ele>139.05</ele>
        <time>2014-05-18T07:58:32Z</time>
      </trkpt>
      <trkpt lat="44.60493" lon="0.65693">
        <ele>141.45</ele>
        <time>2014-05-18T07:58:36Z</time>
      </trkpt>
      <trkpt lat="44.60504" lon="0.65688">
        <ele>142.89</ele>
        <time>2014-05-18T07:58:38Z</time>
      </trkpt>
      <trkpt lat="44.60562" lon="0.65666">
        <ele>148.18</ele>
        <time>2014-05-18T07:58:51Z</time>
      </trkpt>
      <trkpt lat="44.60595" lon="0.65649">
        <ele>151.06</ele>
        <time>2014-05-18T07:59:04Z</time>
      </trkpt>
      <trkpt lat="44.60634" lon="0.65636">
        <ele>152.99</ele>
        <time>2014-05-18T07:59:21Z</time>
      </trkpt>
      <trkpt lat="44.60663" lon="0.65621">
        <ele>156.35</ele>
        <time>2014-05-18T07:59:35Z</time>
      </trkpt>
      <trkpt lat="44.60673" lon="0.65607">
        <ele>155.87</ele>
        <time>2014-05-18T07:59:48Z</time>
      </trkpt>
      <trkpt lat="44.60674" lon="0.65606">
        <ele>154.91</ele>
        <time>2014-05-18T08:00:19Z</time>
      </trkpt>
      <trkpt lat="44.60674" lon="0.65604">
        <ele>154.91</ele>
        <time>2014-05-18T08:00:20Z</time>
      </trkpt>
      <trkpt lat="44.60679" lon="0.6559">
        <ele>155.87</ele>
        <time>2014-05-18T08:00:25Z</time>
      </trkpt>
      <trkpt lat="44.60712" lon="0.65525">
        <ele>155.87</ele>
        <time>2014-05-18T08:00:39Z</time>
      </trkpt>
      <trkpt lat="44.60721" lon="0.65508">
        <ele>155.39</ele>
        <time>2014-05-18T08:00:41Z</time>
      </trkpt>
      <trkpt lat="44.60761" lon="0.6548">
        <ele>153.95</ele>
        <time>2014-05-18T08:00:48Z</time>
      </trkpt>
      <trkpt lat="44.60768" lon="0.65496">
        <ele>154.91</ele>
        <time>2014-05-18T08:00:54Z</time>
      </trkpt>
      <trkpt lat="44.60765" lon="0.65511">
        <ele>155.39</ele>
        <time>2014-05-18T08:01:00Z</time>
      </trkpt>
      <trkpt lat="44.60775" lon="0.65519">
        <ele>152.51</ele>
        <time>2014-05-18T08:01:04Z</time>
      </trkpt>
      <trkpt lat="44.60804" lon="0.65541">
        <ele>145.78</ele>
        <time>2014-05-18T08:01:10Z</time>
      </trkpt>
      <trkpt lat="44.60825" lon="0.65555">
        <ele>140.01</ele>
        <time>2014-05-18T08:01:14Z</time>
      </trkpt>
      <trkpt lat="44.60883" lon="0.65598">
        <ele>127.03</ele>
        <time>2014-05-18T08:01:22Z</time>
      </trkpt>
      <trkpt lat="44.60908" lon="0.65604">
        <ele>122.71</ele>
        <time>2014-05-18T08:01:26Z</time>
      </trkpt>
      <trkpt lat="44.60958" lon="0.65603">
        <ele>117.42</ele>
        <time>2014-05-18T08:01:34Z</time>
      </trkpt>
      <trkpt lat="44.60973" lon="0.65601">
        <ele>116.46</ele>
        <time>2014-05-18T08:01:37Z</time>
      </trkpt>
      <trkpt lat="44.60991" lon="0.65601">
        <ele>115.98</ele>
        <time>2014-05-18T08:01:41Z</time>
      </trkpt>
      <trkpt lat="44.61055" lon="0.65588">
        <ele>115.5</ele>
        <time>2014-05-18T08:01:56Z</time>
      </trkpt>
      <trkpt lat="44.61083" lon="0.65598">
        <ele>115.5</ele>
        <time>2014-05-18T08:02:06Z</time>
      </trkpt>
      <trkpt lat="44.61088" lon="0.65599">
        <ele>114.53</ele>
        <time>2014-05-18T08:02:16Z</time>
      </trkpt>
      <trkpt lat="44.61088" lon="0.65599">
        <ele>115.98</ele>
        <time>2014-05-18T08:02:37Z</time>
      </trkpt>
      <trkpt lat="44.61089" lon="0.65598">
        <ele>116.94</ele>
        <time>2014-05-18T08:02:49Z</time>
      </trkpt>
      <trkpt lat="44.6111" lon="0.65572">
        <ele>116.46</ele>
        <time>2014-05-18T08:03:00Z</time>
      </trkpt>
      <trkpt lat="44.61151" lon="0.65521">
        <ele>113.57</ele>
        <time>2014-05-18T08:03:14Z</time>
      </trkpt>
      <trkpt lat="44.61158" lon="0.65512">
        <ele>113.57</ele>
        <time>2014-05-18T08:03:16Z</time>
      </trkpt>
      <trkpt lat="44.61199" lon="0.65456">
        <ele>114.05</ele>
        <time>2014-05-18T08:03:28Z</time>
      </trkpt>
      <trkpt lat="44.61227" lon="0.65421">
        <ele>116.46</ele>
        <time>2014-05-18T08:03:36Z</time>
      </trkpt>
      <trkpt lat="44.61242" lon="0.6541">
        <ele>115.5</ele>
        <time>2014-05-18T08:03:40Z</time>
      </trkpt>
      <trkpt lat="44.61246" lon="0.65412">
        <ele>115.01</ele>
        <time>2014-05-18T08:03:41Z</time>
      </trkpt>
      <trkpt lat="44.61249" lon="0.65415">
        <ele>114.53</ele>
        <time>2014-05-18T08:03:42Z</time>
      </trkpt>
      <trkpt lat="44.61252" lon="0.6542">
        <ele>114.53</ele>
        <time>2014-05-18T08:03:43Z</time>
      </trkpt>
      <trkpt lat="44.61254" lon="0.65426">
        <ele>114.53</ele>
        <time>2014-05-18T08:03:44Z</time>
      </trkpt>
      <trkpt lat="44.61257" lon="0.65433">
        <ele>114.53</ele>
        <time>2014-05-18T08:03:45Z</time>
      </trkpt>
      <trkpt lat="44.61276" lon="0.65485">
        <ele>115.01</ele>
        <time>2014-05-18T08:03:56Z</time>
      </trkpt>
      <trkpt lat="44.61276" lon="0.65489">
        <ele>115.5</ele>
        <time>2014-05-18T08:03:57Z</time>
      </trkpt>
      <trkpt lat="44.6128" lon="0.65532">
        <ele>116.46</ele>
        <time>2014-05-18T08:04:07Z</time>
      </trkpt>
      <trkpt lat="44.61283" lon="0.65601">
        <ele>113.57</ele>
        <time>2014-05-18T08:04:19Z</time>
      </trkpt>
      <trkpt lat="44.61284" lon="0.65626">
        <ele>112.61</ele>
        <time>2014-05-18T08:04:23Z</time>
      </trkpt>
      <trkpt lat="44.61287" lon="0.65685">
        <ele>109.73</ele>
        <time>2014-05-18T08:04:36Z</time>
      </trkpt>
      <trkpt lat="44.61289" lon="0.65751">
        <ele>104.92</ele>
        <time>2014-05-18T08:04:49Z</time>
      </trkpt>
      <trkpt lat="44.61289" lon="0.65758">
        <ele>104.44</ele>
        <time>2014-05-18T08:04:50Z</time>
      </trkpt>
      <trkpt lat="44.61286" lon="0.65779">
        <ele>104.44</ele>
        <time>2014-05-18T08:04:53Z</time>
      </trkpt>
      <trkpt lat="44.61298" lon="0.65872">
        <ele>104.44</ele>
        <time>2014-05-18T08:05:04Z</time>
      </trkpt>
      <trkpt lat="44.61308" lon="0.65946">
        <ele>104.92</ele>
        <time>2014-05-18T08:05:14Z</time>
      </trkpt>
      <trkpt lat="44.61314" lon="0.66014">
        <ele>106.84</ele>
        <time>2014-05-18T08:05:26Z</time>
      </trkpt>
      <trkpt lat="44.61314" lon="0.66044">
        <ele>108.77</ele>
        <time>2014-05-18T08:05:37Z</time>
      </trkpt>
      <trkpt lat="44.61314" lon="0.66057">
        <ele>109.25</ele>
        <time>2014-05-18T08:05:49Z</time>
      </trkpt>
      <trkpt lat="44.61317" lon="0.66084">
        <ele>110.21</ele>
        <time>2014-05-18T08:06:03Z</time>
      </trkpt>
      <trkpt lat="44.61317" lon="0.66086">
        <ele>110.21</ele>
        <time>2014-05-18T08:06:11Z</time>
      </trkpt>
      <trkpt lat="44.61317" lon="0.66104">
        <ele>110.69</ele>
        <time>2014-05-18T08:06:23Z</time>
      </trkpt>
      <trkpt lat="44.61318" lon="0.66119">
        <ele>111.17</ele>
        <time>2014-05-18T08:06:36Z</time>
      </trkpt>
      <trkpt lat="44.61318" lon="0.6613">
        <ele>112.13</ele>
        <time>2014-05-18T08:06:43Z</time>
      </trkpt>
      <trkpt lat="44.6132" lon="0.66145">
        <ele>117.42</ele>
        <time>2014-05-18T08:06:58Z</time>
      </trkpt>
      <trkpt lat="44.61322" lon="0.6616">
        <ele>119.34</ele>
        <time>2014-05-18T08:07:11Z</time>
      </trkpt>
      <trkpt lat="44.61326" lon="0.6618">
        <ele>120.78</ele>
        <time>2014-05-18T08:07:25Z</time>
      </trkpt>
      <trkpt lat="44.61332" lon="0.66198">
        <ele>123.19</ele>
        <time>2014-05-18T08:07:40Z</time>
      </trkpt>
      <trkpt lat="44.61338" lon="0.66213">
        <ele>126.07</ele>
        <time>2014-05-18T08:07:55Z</time>
      </trkpt>
      <trkpt lat="44.61341" lon="0.6622">
        <ele>124.63</ele>
        <time>2014-05-18T08:08:08Z</time>
      </trkpt>
      <trkpt lat="44.61345" lon="0.66229">
        <ele>126.07</ele>
        <time>2014-05-18T08:08:20Z</time>
      </trkpt>
      <trkpt lat="44.61352" lon="0.66248">
        <ele>125.59</ele>
        <time>2014-05-18T08:08:33Z</time>
      </trkpt>
      <trkpt lat="44.61362" lon="0.66271">
        <ele>126.07</ele>
        <time>2014-05-18T08:08:44Z</time>
      </trkpt>
      <trkpt lat="44.61369" lon="0.66291">
        <ele>126.55</ele>
        <time>2014-05-18T08:08:51Z</time>
      </trkpt>
      <trkpt lat="44.61369" lon="0.66301">
        <ele>127.03</ele>
        <time>2014-05-18T08:08:54Z</time>
      </trkpt>
      <trkpt lat="44.61366" lon="0.66322">
        <ele>129.43</ele>
        <time>2014-05-18T08:09:07Z</time>
      </trkpt>
      <trkpt lat="44.61365" lon="0.66339">
        <ele>131.36</ele>
        <time>2014-05-18T08:09:17Z</time>
      </trkpt>
      <trkpt lat="44.61365" lon="0.66345">
        <ele>131.36</ele>
        <time>2014-05-18T08:09:19Z</time>
      </trkpt>
      <trkpt lat="44.61364" lon="0.66357">
        <ele>131.84</ele>
        <time>2014-05-18T08:09:29Z</time>
      </trkpt>
      <trkpt lat="44.61362" lon="0.66373">
        <ele>134.24</ele>
        <time>2014-05-18T08:09:42Z</time>
      </trkpt>
      <trkpt lat="44.61359" lon="0.66379">
        <ele>137.61</ele>
        <time>2014-05-18T08:09:54Z</time>
      </trkpt>
      <trkpt lat="44.61353" lon="0.66395">
        <ele>141.93</ele>
        <time>2014-05-18T08:10:07Z</time>
      </trkpt>
      <trkpt lat="44.61351" lon="0.66404">
        <ele>142.89</ele>
        <time>2014-05-18T08:10:19Z</time>
      </trkpt>
      <trkpt lat="44.61346" lon="0.66414">
        <ele>144.34</ele>
        <time>2014-05-18T08:10:31Z</time>
      </trkpt>
      <trkpt lat="44.61341" lon="0.66428">
        <ele>145.78</ele>
        <time>2014-05-18T08:10:38Z</time>
      </trkpt>
      <trkpt lat="44.61335" lon="0.66441">
        <ele>146.74</ele>
        <time>2014-05-18T08:10:44Z</time>
      </trkpt>
      <trkpt lat="44.61329" lon="0.66454">
        <ele>148.18</ele>
        <time>2014-05-18T08:10:49Z</time>
      </trkpt>
      <trkpt lat="44.61324" lon="0.66466">
        <ele>151.06</ele>
        <time>2014-05-18T08:10:55Z</time>
      </trkpt>
      <trkpt lat="44.61318" lon="0.66488">
        <ele>155.87</ele>
        <time>2014-05-18T08:11:05Z</time>
      </trkpt>
      <trkpt lat="44.61312" lon="0.66504">
        <ele>158.27</ele>
        <time>2014-05-18T08:11:13Z</time>
      </trkpt>
      <trkpt lat="44.61305" lon="0.66544">
        <ele>161.64</ele>
        <time>2014-05-18T08:11:30Z</time>
      </trkpt>
      <trkpt lat="44.61299" lon="0.66594">
        <ele>163.08</ele>
        <time>2014-05-18T08:11:45Z</time>
      </trkpt>
      <trkpt lat="44.61299" lon="0.66609">
        <ele>162.12</ele>
        <time>2014-05-18T08:11:49Z</time>
      </trkpt>
      <trkpt lat="44.613" lon="0.6662">
        <ele>159.24</ele>
        <time>2014-05-18T08:12:01Z</time>
      </trkpt>
      <trkpt lat="44.61298" lon="0.66622">
        <ele>157.31</ele>
        <time>2014-05-18T08:12:24Z</time>
      </trkpt>
      <trkpt lat="44.61298" lon="0.66624">
        <ele>158.27</ele>
        <time>2014-05-18T08:12:41Z</time>
      </trkpt>
      <trkpt lat="44.61297" lon="0.66622">
        <ele>157.79</ele>
        <time>2014-05-18T08:13:07Z</time>
      </trkpt>
      <trkpt lat="44.61297" lon="0.66623">
        <ele>159.24</ele>
        <time>2014-05-18T08:13:33Z</time>
      </trkpt>
      <trkpt lat="44.61297" lon="0.66622">
        <ele>160.2</ele>
        <time>2014-05-18T08:13:59Z</time>
      </trkpt>
      <trkpt lat="44.61298" lon="0.66624">
        <ele>160.2</ele>
        <time>2014-05-18T08:14:18Z</time>
      </trkpt>
      <trkpt lat="44.61298" lon="0.66623">
        <ele>158.75</ele>
        <time>2014-05-18T08:14:40Z</time>
      </trkpt>
      <trkpt lat="44.61298" lon="0.66648">
        <ele>157.31</ele>
        <time>2014-05-18T08:14:59Z</time>
      </trkpt>
      <trkpt lat="44.61293" lon="0.66713">
        <ele>155.39</ele>
        <time>2014-05-18T08:15:11Z</time>
      </trkpt>
      <trkpt lat="44.6129" lon="0.6673">
        <ele>155.87</ele>
        <time>2014-05-18T08:15:14Z</time>
      </trkpt>
      <trkpt lat="44.61287" lon="0.66755">
        <ele>156.35</ele>
        <time>2014-05-18T08:15:18Z</time>
      </trkpt>
      <trkpt lat="44.61284" lon="0.66767">
        <ele>156.35</ele>
        <time>2014-05-18T08:15:20Z</time>
      </trkpt>
      <trkpt lat="44.61283" lon="0.66772">
        <ele>156.35</ele>
        <time>2014-05-18T08:15:21Z</time>
      </trkpt>
      <trkpt lat="44.61266" lon="0.66807">
        <ele>156.83</ele>
        <time>2014-05-18T08:15:28Z</time>
      </trkpt>
      <trkpt lat="44.61256" lon="0.66822">
        <ele>156.35</ele>
        <time>2014-05-18T08:15:31Z</time>
      </trkpt>
      <trkpt lat="44.61248" lon="0.6683">
        <ele>156.35</ele>
        <time>2014-05-18T08:15:33Z</time>
      </trkpt>
      <trkpt lat="44.61213" lon="0.66862">
        <ele>155.87</ele>
        <time>2014-05-18T08:15:41Z</time>
      </trkpt>
      <trkpt lat="44.6121" lon="0.66867">
        <ele>155.87</ele>
        <time>2014-05-18T08:15:42Z</time>
      </trkpt>
      <trkpt lat="44.61208" lon="0.66873">
        <ele>156.35</ele>
        <time>2014-05-18T08:15:43Z</time>
      </trkpt>
      <trkpt lat="44.61207" lon="0.6688">
        <ele>156.35</ele>
        <time>2014-05-18T08:15:44Z</time>
      </trkpt>
      <trkpt lat="44.61207" lon="0.66887">
        <ele>156.35</ele>
        <time>2014-05-18T08:15:45Z</time>
      </trkpt>
      <trkpt lat="44.61207" lon="0.66893">
        <ele>156.35</ele>
        <time>2014-05-18T08:15:46Z</time>
      </trkpt>
      <trkpt lat="44.61207" lon="0.66899">
        <ele>156.83</ele>
        <time>2014-05-18T08:15:47Z</time>
      </trkpt>
      <trkpt lat="44.61214" lon="0.66998">
        <ele>158.75</ele>
        <time>2014-05-18T08:16:04Z</time>
      </trkpt>
      <trkpt lat="44.61216" lon="0.67001">
        <ele>158.75</ele>
        <time>2014-05-18T08:16:05Z</time>
      </trkpt>
      <trkpt lat="44.61218" lon="0.67002">
        <ele>158.75</ele>
        <time>2014-05-18T08:16:06Z</time>
      </trkpt>
      <trkpt lat="44.61221" lon="0.67002">
        <ele>158.75</ele>
        <time>2014-05-18T08:16:07Z</time>
      </trkpt>
      <trkpt lat="44.61225" lon="0.67001">
        <ele>158.75</ele>
        <time>2014-05-18T08:16:08Z</time>
      </trkpt>
      <trkpt lat="44.61229" lon="0.67">
        <ele>159.24</ele>
        <time>2014-05-18T08:16:09Z</time>
      </trkpt>
      <trkpt lat="44.61238" lon="0.66994">
        <ele>160.2</ele>
        <time>2014-05-18T08:16:11Z</time>
      </trkpt>
      <trkpt lat="44.61242" lon="0.66991">
        <ele>160.68</ele>
        <time>2014-05-18T08:16:12Z</time>
      </trkpt>
      <trkpt lat="44.61256" lon="0.66984">
        <ele>161.64</ele>
        <time>2014-05-18T08:16:15Z</time>
      </trkpt>
      <trkpt lat="44.6131" lon="0.66947">
        <ele>165.96</ele>
        <time>2014-05-18T08:16:28Z</time>
      </trkpt>
      <trkpt lat="44.61314" lon="0.66943">
        <ele>165.96</ele>
        <time>2014-05-18T08:16:29Z</time>
      </trkpt>
      <trkpt lat="44.61317" lon="0.66939">
        <ele>166.45</ele>
        <time>2014-05-18T08:16:30Z</time>
      </trkpt>
      <trkpt lat="44.61337" lon="0.66915">
        <ele>166.93</ele>
        <time>2014-05-18T08:16:39Z</time>
      </trkpt>
      <trkpt lat="44.61386" lon="0.66885">
        <ele>165</ele>
        <time>2014-05-18T08:16:52Z</time>
      </trkpt>
      <trkpt lat="44.61409" lon="0.66872">
        <ele>164.04</ele>
        <time>2014-05-18T08:16:58Z</time>
      </trkpt>
      <trkpt lat="44.61412" lon="0.6687">
        <ele>164.04</ele>
        <time>2014-05-18T08:16:59Z</time>
      </trkpt>
      <trkpt lat="44.61416" lon="0.66867">
        <ele>164.04</ele>
        <time>2014-05-18T08:17:00Z</time>
      </trkpt>
      <trkpt lat="44.61419" lon="0.66864">
        <ele>164.04</ele>
        <time>2014-05-18T08:17:01Z</time>
      </trkpt>
      <trkpt lat="44.61423" lon="0.66862">
        <ele>163.56</ele>
        <time>2014-05-18T08:17:02Z</time>
      </trkpt>
      <trkpt lat="44.61426" lon="0.6686">
        <ele>163.56</ele>
        <time>2014-05-18T08:17:03Z</time>
      </trkpt>
      <trkpt lat="44.6143" lon="0.66857">
        <ele>163.08</ele>
        <time>2014-05-18T08:17:04Z</time>
      </trkpt>
      <trkpt lat="44.61433" lon="0.66853">
        <ele>163.08</ele>
        <time>2014-05-18T08:17:05Z</time>
      </trkpt>
      <trkpt lat="44.61436" lon="0.66849">
        <ele>163.08</ele>
        <time>2014-05-18T08:17:06Z</time>
      </trkpt>
      <trkpt lat="44.6144" lon="0.66846">
        <ele>163.08</ele>
        <time>2014-05-18T08:17:07Z</time>
      </trkpt>
      <trkpt lat="44.61444" lon="0.66843">
        <ele>163.08</ele>
        <time>2014-05-18T08:17:08Z</time>
      </trkpt>
      <trkpt lat="44.61448" lon="0.6684">
        <ele>163.08</ele>
        <time>2014-05-18T08:17:09Z</time>
      </trkpt>
      <trkpt lat="44.61453" lon="0.66837">
        <ele>162.6</ele>
        <time>2014-05-18T08:17:10Z</time>
      </trkpt>
      <trkpt lat="44.61457" lon="0.66835">
        <ele>162.6</ele>
        <time>2014-05-18T08:17:11Z</time>
      </trkpt>
      <trkpt lat="44.61462" lon="0.66833">
        <ele>162.6</ele>
        <time>2014-05-18T08:17:12Z</time>
      </trkpt>
      <trkpt lat="44.61517" lon="0.66798">
        <ele>162.6</ele>
        <time>2014-05-18T08:17:25Z</time>
      </trkpt>
      <trkpt lat="44.61583" lon="0.66764">
        <ele>161.64</ele>
        <time>2014-05-18T08:17:40Z</time>
      </trkpt>
      <trkpt lat="44.61625" lon="0.66748">
        <ele>159.72</ele>
        <time>2014-05-18T08:17:49Z</time>
      </trkpt>
      <trkpt lat="44.61634" lon="0.66746">
        <ele>159.72</ele>
        <time>2014-05-18T08:17:51Z</time>
      </trkpt>
      <trkpt lat="44.61691" lon="0.66735">
        <ele>158.75</ele>
        <time>2014-05-18T08:18:04Z</time>
      </trkpt>
      <trkpt lat="44.61745" lon="0.66717">
        <ele>159.24</ele>
        <time>2014-05-18T08:18:19Z</time>
      </trkpt>
      <trkpt lat="44.61751" lon="0.66715">
        <ele>159.24</ele>
        <time>2014-05-18T08:18:21Z</time>
      </trkpt>
      <trkpt lat="44.61753" lon="0.66715">
        <ele>159.24</ele>
        <time>2014-05-18T08:18:22Z</time>
      </trkpt>
      <trkpt lat="44.61755" lon="0.66717">
        <ele>159.24</ele>
        <time>2014-05-18T08:18:23Z</time>
      </trkpt>
      <trkpt lat="44.61757" lon="0.6672">
        <ele>159.24</ele>
        <time>2014-05-18T08:18:24Z</time>
      </trkpt>
      <trkpt lat="44.61759" lon="0.66724">
        <ele>158.75</ele>
        <time>2014-05-18T08:18:25Z</time>
      </trkpt>
      <trkpt lat="44.61763" lon="0.66732">
        <ele>158.27</ele>
        <time>2014-05-18T08:18:27Z</time>
      </trkpt>
      <trkpt lat="44.61767" lon="0.66736">
        <ele>158.27</ele>
        <time>2014-05-18T08:18:28Z</time>
      </trkpt>
      <trkpt lat="44.61787" lon="0.6675">
        <ele>158.27</ele>
        <time>2014-05-18T08:18:33Z</time>
      </trkpt>
      <trkpt lat="44.61807" lon="0.6677">
        <ele>157.79</ele>
        <time>2014-05-18T08:18:38Z</time>
      </trkpt>
      <trkpt lat="44.61826" lon="0.66784">
        <ele>154.91</ele>
        <time>2014-05-18T08:18:42Z</time>
      </trkpt>
      <trkpt lat="44.61875" lon="0.66808">
        <ele>144.34</ele>
        <time>2014-05-18T08:18:51Z</time>
      </trkpt>
      <trkpt lat="44.61899" lon="0.66823">
        <ele>138.57</ele>
        <time>2014-05-18T08:18:56Z</time>
      </trkpt>
      <trkpt lat="44.61911" lon="0.66836">
        <ele>134.72</ele>
        <time>2014-05-18T08:18:59Z</time>
      </trkpt>
      <trkpt lat="44.61928" lon="0.6688">
        <ele>126.07</ele>
        <time>2014-05-18T08:19:08Z</time>
      </trkpt>
      <trkpt lat="44.6194" lon="0.66954">
        <ele>117.42</ele>
        <time>2014-05-18T08:19:18Z</time>
      </trkpt>
      <trkpt lat="44.61952" lon="0.67054">
        <ele>111.65</ele>
        <time>2014-05-18T08:19:31Z</time>
      </trkpt>
      <trkpt lat="44.61954" lon="0.67073">
        <ele>111.17</ele>
        <time>2014-05-18T08:19:36Z</time>
      </trkpt>
      <trkpt lat="44.61955" lon="0.67076">
        <ele>111.65</ele>
        <time>2014-05-18T08:19:37Z</time>
      </trkpt>
      <trkpt lat="44.61956" lon="0.67078">
        <ele>111.65</ele>
        <time>2014-05-18T08:19:38Z</time>
      </trkpt>
      <trkpt lat="44.61961" lon="0.67089">
        <ele>112.61</ele>
        <time>2014-05-18T08:19:52Z</time>
      </trkpt>
      <trkpt lat="44.61962" lon="0.6709">
        <ele>113.09</ele>
        <time>2014-05-18T08:20:12Z</time>
      </trkpt>
      <trkpt lat="44.61961" lon="0.6709">
        <ele>112.61</ele>
        <time>2014-05-18T08:20:30Z</time>
      </trkpt>
      <trkpt lat="44.61961" lon="0.6709">
        <ele>112.61</ele>
        <time>2014-05-18T08:20:54Z</time>
      </trkpt>
      <trkpt lat="44.61961" lon="0.67091">
        <ele>112.13</ele>
        <time>2014-05-18T08:21:13Z</time>
      </trkpt>
      <trkpt lat="44.61961" lon="0.67091">
        <ele>111.17</ele>
        <time>2014-05-18T08:21:34Z</time>
      </trkpt>
      <trkpt lat="44.61962" lon="0.67091">
        <ele>112.61</ele>
        <time>2014-05-18T08:21:54Z</time>
      </trkpt>
      <trkpt lat="44.61962" lon="0.67091">
        <ele>112.61</ele>
        <time>2014-05-18T08:22:10Z</time>
      </trkpt>
      <trkpt lat="44.61961" lon="0.6709">
        <ele>113.09</ele>
        <time>2014-05-18T08:22:29Z</time>
      </trkpt>
      <trkpt lat="44.61962" lon="0.6709">
        <ele>115.5</ele>
        <time>2014-05-18T08:22:55Z</time>
      </trkpt>
      <trkpt lat="44.61961" lon="0.67091">
        <ele>114.05</ele>
        <time>2014-05-18T08:23:17Z</time>
      </trkpt>
      <trkpt lat="44.61962" lon="0.6709">
        <ele>112.61</ele>
        <time>2014-05-18T08:23:36Z</time>
      </trkpt>
      <trkpt lat="44.61962" lon="0.6709">
        <ele>112.61</ele>
        <time>2014-05-18T08:23:59Z</time>
      </trkpt>
      <trkpt lat="44.61962" lon="0.6709">
        <ele>113.09</ele>
        <time>2014-05-18T08:24:20Z</time>
      </trkpt>
      <trkpt lat="44.61961" lon="0.67091">
        <ele>112.61</ele>
        <time>2014-05-18T08:24:40Z</time>
      </trkpt>
      <trkpt lat="44.6196" lon="0.67091">
        <ele>112.61</ele>
        <time>2014-05-18T08:24:55Z</time>
      </trkpt>
      <trkpt lat="44.6196" lon="0.6709">
        <ele>112.61</ele>
        <time>2014-05-18T08:25:11Z</time>
      </trkpt>
      <trkpt lat="44.61962" lon="0.67091">
        <ele>112.61</ele>
        <time>2014-05-18T08:25:13Z</time>
      </trkpt>
      <trkpt lat="44.61963" lon="0.67092">
        <ele>112.61</ele>
        <time>2014-05-18T08:25:14Z</time>
      </trkpt>
      <trkpt lat="44.61965" lon="0.67093">
        <ele>112.61</ele>
        <time>2014-05-18T08:25:15Z</time>
      </trkpt>
      <trkpt lat="44.61966" lon="0.67095">
        <ele>112.61</ele>
        <time>2014-05-18T08:25:16Z</time>
      </trkpt>
      <trkpt lat="44.61968" lon="0.67098">
        <ele>112.61</ele>
        <time>2014-05-18T08:25:17Z</time>
      </trkpt>
      <trkpt lat="44.61971" lon="0.67101">
        <ele>112.61</ele>
        <time>2014-05-18T08:25:18Z</time>
      </trkpt>
      <trkpt lat="44.62016" lon="0.67147">
        <ele>108.77</ele>
        <time>2014-05-18T08:25:28Z</time>
      </trkpt>
      <trkpt lat="44.62051" lon="0.67182">
        <ele>106.84</ele>
        <time>2014-05-18T08:25:36Z</time>
      </trkpt>
      <trkpt lat="44.62054" lon="0.67187">
        <ele>106.36</ele>
        <time>2014-05-18T08:25:37Z</time>
      </trkpt>
      <trkpt lat="44.62102" lon="0.67281">
        <ele>105.4</ele>
        <time>2014-05-18T08:25:55Z</time>
      </trkpt>
      <trkpt lat="44.62141" lon="0.67355">
        <ele>104.44</ele>
        <time>2014-05-18T08:26:10Z</time>
      </trkpt>
      <trkpt lat="44.62159" lon="0.67397">
        <ele>105.4</ele>
        <time>2014-05-18T08:26:19Z</time>
      </trkpt>
      <trkpt lat="44.62159" lon="0.67402">
        <ele>105.4</ele>
        <time>2014-05-18T08:26:20Z</time>
      </trkpt>
      <trkpt lat="44.6215" lon="0.67416">
        <ele>104.44</ele>
        <time>2014-05-18T08:26:24Z</time>
      </trkpt>
      <trkpt lat="44.62121" lon="0.67476">
        <ele>102.52</ele>
        <time>2014-05-18T08:26:38Z</time>
      </trkpt>
      <trkpt lat="44.62087" lon="0.67546">
        <ele>101.08</ele>
        <time>2014-05-18T08:26:53Z</time>
      </trkpt>
      <trkpt lat="44.62072" lon="0.67571">
        <ele>100.11</ele>
        <time>2014-05-18T08:26:59Z</time>
      </trkpt>
      <trkpt lat="44.62064" lon="0.67593">
        <ele>99.15</ele>
        <time>2014-05-18T08:27:03Z</time>
      </trkpt>
      <trkpt lat="44.62058" lon="0.67626">
        <ele>97.23</ele>
        <time>2014-05-18T08:27:09Z</time>
      </trkpt>
      <trkpt lat="44.62062" lon="0.67726">
        <ele>94.83</ele>
        <time>2014-05-18T08:27:24Z</time>
      </trkpt>
      <trkpt lat="44.62068" lon="0.6784">
        <ele>95.31</ele>
        <time>2014-05-18T08:27:41Z</time>
      </trkpt>
      <trkpt lat="44.62072" lon="0.67932">
        <ele>95.31</ele>
        <time>2014-05-18T08:27:56Z</time>
      </trkpt>
      <trkpt lat="44.62073" lon="0.67968">
        <ele>95.31</ele>
        <time>2014-05-18T08:28:02Z</time>
      </trkpt>
      <trkpt lat="44.62069" lon="0.68064">
        <ele>96.75</ele>
        <time>2014-05-18T08:28:20Z</time>
      </trkpt>
      <trkpt lat="44.62073" lon="0.68149">
        <ele>99.63</ele>
        <time>2014-05-18T08:28:35Z</time>
      </trkpt>
      <trkpt lat="44.62086" lon="0.68215">
        <ele>100.6</ele>
        <time>2014-05-18T08:28:50Z</time>
      </trkpt>
      <trkpt lat="44.62104" lon="0.68277">
        <ele>102.52</ele>
        <time>2014-05-18T08:29:03Z</time>
      </trkpt>
      <trkpt lat="44.6212" lon="0.68334">
        <ele>105.88</ele>
        <time>2014-05-18T08:29:16Z</time>
      </trkpt>
      <trkpt lat="44.62126" lon="0.68374">
        <ele>108.29</ele>
        <time>2014-05-18T08:29:28Z</time>
      </trkpt>
      <trkpt lat="44.62136" lon="0.68429">
        <ele>111.17</ele>
        <time>2014-05-18T08:29:42Z</time>
      </trkpt>
      <trkpt lat="44.62142" lon="0.68488">
        <ele>113.09</ele>
        <time>2014-05-18T08:29:57Z</time>
      </trkpt>
      <trkpt lat="44.62145" lon="0.68506">
        <ele>115.01</ele>
        <time>2014-05-18T08:30:10Z</time>
      </trkpt>
      <trkpt lat="44.62146" lon="0.68506">
        <ele>115.5</ele>
        <time>2014-05-18T08:30:30Z</time>
      </trkpt>
      <trkpt lat="44.62147" lon="0.68523">
        <ele>114.05</ele>
        <time>2014-05-18T08:30:50Z</time>
      </trkpt>
      <trkpt lat="44.62148" lon="0.68587">
        <ele>113.09</ele>
        <time>2014-05-18T08:31:03Z</time>
      </trkpt>
      <trkpt lat="44.62147" lon="0.686">
        <ele>113.09</ele>
        <time>2014-05-18T08:31:05Z</time>
      </trkpt>
      <trkpt lat="44.6215" lon="0.68689">
        <ele>110.69</ele>
        <time>2014-05-18T08:31:19Z</time>
      </trkpt>
      <trkpt lat="44.62155" lon="0.68707">
        <ele>109.73</ele>
        <time>2014-05-18T08:31:22Z</time>
      </trkpt>
      <trkpt lat="44.62188" lon="0.68779">
        <ele>109.25</ele>
        <time>2014-05-18T08:31:36Z</time>
      </trkpt>
      <trkpt lat="44.62189" lon="0.68802">
        <ele>109.25</ele>
        <time>2014-05-18T08:31:41Z</time>
      </trkpt>
      <trkpt lat="44.62168" lon="0.68841">
        <ele>110.21</ele>
        <time>2014-05-18T08:31:51Z</time>
      </trkpt>
      <trkpt lat="44.62137" lon="0.68894">
        <ele>115.5</ele>
        <time>2014-05-18T08:32:04Z</time>
      </trkpt>
      <trkpt lat="44.62118" lon="0.68931">
        <ele>118.38</ele>
        <time>2014-05-18T08:32:14Z</time>
      </trkpt>
      <trkpt lat="44.62106" lon="0.68963">
        <ele>117.42</ele>
        <time>2014-05-18T08:32:26Z</time>
      </trkpt>
      <trkpt lat="44.62087" lon="0.6901">
        <ele>117.42</ele>
        <time>2014-05-18T08:32:37Z</time>
      </trkpt>
      <trkpt lat="44.62066" lon="0.69061">
        <ele>117.9</ele>
        <time>2014-05-18T08:32:50Z</time>
      </trkpt>
      <trkpt lat="44.62047" lon="0.69109">
        <ele>120.3</ele>
        <time>2014-05-18T08:33:04Z</time>
      </trkpt>
      <trkpt lat="44.62033" lon="0.69122">
        <ele>120.78</ele>
        <time>2014-05-18T08:33:10Z</time>
      </trkpt>
      <trkpt lat="44.6203" lon="0.69122">
        <ele>120.78</ele>
        <time>2014-05-18T08:33:11Z</time>
      </trkpt>
      <trkpt lat="44.62026" lon="0.69122">
        <ele>120.78</ele>
        <time>2014-05-18T08:33:12Z</time>
      </trkpt>
      <trkpt lat="44.61968" lon="0.69098">
        <ele>115.5</ele>
        <time>2014-05-18T08:33:24Z</time>
      </trkpt>
      <trkpt lat="44.61942" lon="0.69089">
        <ele>115.5</ele>
        <time>2014-05-18T08:33:29Z</time>
      </trkpt>
      <trkpt lat="44.61927" lon="0.69086">
        <ele>115.98</ele>
        <time>2014-05-18T08:33:32Z</time>
      </trkpt>
      <trkpt lat="44.61922" lon="0.69086">
        <ele>115.98</ele>
        <time>2014-05-18T08:33:33Z</time>
      </trkpt>
      <trkpt lat="44.61917" lon="0.69087">
        <ele>115.98</ele>
        <time>2014-05-18T08:33:34Z</time>
      </trkpt>
      <trkpt lat="44.61911" lon="0.69087">
        <ele>115.98</ele>
        <time>2014-05-18T08:33:35Z</time>
      </trkpt>
      <trkpt lat="44.61906" lon="0.69087">
        <ele>115.98</ele>
        <time>2014-05-18T08:33:36Z</time>
      </trkpt>
      <trkpt lat="44.61868" lon="0.69089">
        <ele>115.5</ele>
        <time>2014-05-18T08:33:43Z</time>
      </trkpt>
      <trkpt lat="44.61859" lon="0.69088">
        <ele>115.5</ele>
        <time>2014-05-18T08:33:45Z</time>
      </trkpt>
      <trkpt lat="44.61855" lon="0.69086">
        <ele>115.5</ele>
        <time>2014-05-18T08:33:46Z</time>
      </trkpt>
      <trkpt lat="44.61852" lon="0.69082">
        <ele>115.5</ele>
        <time>2014-05-18T08:33:47Z</time>
      </trkpt>
      <trkpt lat="44.61849" lon="0.69077">
        <ele>115.5</ele>
        <time>2014-05-18T08:33:48Z</time>
      </trkpt>
      <trkpt lat="44.61847" lon="0.69072">
        <ele>115.5</ele>
        <time>2014-05-18T08:33:49Z</time>
      </trkpt>
      <trkpt lat="44.6184" lon="0.69057">
        <ele>115.98</ele>
        <time>2014-05-18T08:33:52Z</time>
      </trkpt>
      <trkpt lat="44.61837" lon="0.69052">
        <ele>115.98</ele>
        <time>2014-05-18T08:33:53Z</time>
      </trkpt>
      <trkpt lat="44.61835" lon="0.69048">
        <ele>116.46</ele>
        <time>2014-05-18T08:33:54Z</time>
      </trkpt>
      <trkpt lat="44.6178" lon="0.68973">
        <ele>116.46</ele>
        <time>2014-05-18T08:34:10Z</time>
      </trkpt>
      <trkpt lat="44.61723" lon="0.68902">
        <ele>114.53</ele>
        <time>2014-05-18T08:34:26Z</time>
      </trkpt>
      <trkpt lat="44.61691" lon="0.6886">
        <ele>110.69</ele>
        <time>2014-05-18T08:34:33Z</time>
      </trkpt>
      <trkpt lat="44.61613" lon="0.68779">
        <ele>106.84</ele>
        <time>2014-05-18T08:34:47Z</time>
      </trkpt>
      <trkpt lat="44.6159" lon="0.68759">
        <ele>107.81</ele>
        <time>2014-05-18T08:34:52Z</time>
      </trkpt>
      <trkpt lat="44.61568" lon="0.68741">
        <ele>108.77</ele>
        <time>2014-05-18T08:34:58Z</time>
      </trkpt>
      <trkpt lat="44.61565" lon="0.68737">
        <ele>108.77</ele>
        <time>2014-05-18T08:34:59Z</time>
      </trkpt>
      <trkpt lat="44.61531" lon="0.68686">
        <ele>110.21</ele>
        <time>2014-05-18T08:35:12Z</time>
      </trkpt>
      <trkpt lat="44.61507" lon="0.6865">
        <ele>113.57</ele>
        <time>2014-05-18T08:35:25Z</time>
      </trkpt>
      <trkpt lat="44.61481" lon="0.68616">
        <ele>120.78</ele>
        <time>2014-05-18T08:35:40Z</time>
      </trkpt>
      <trkpt lat="44.61467" lon="0.68591">
        <ele>124.15</ele>
        <time>2014-05-18T08:35:53Z</time>
      </trkpt>
      <trkpt lat="44.61459" lon="0.68579">
        <ele>127.51</ele>
        <time>2014-05-18T08:36:00Z</time>
      </trkpt>
      <trkpt lat="44.61458" lon="0.68578">
        <ele>127.99</ele>
        <time>2014-05-18T08:36:01Z</time>
      </trkpt>
      <trkpt lat="44.61458" lon="0.68576">
        <ele>127.99</ele>
        <time>2014-05-18T08:36:02Z</time>
      </trkpt>
      <trkpt lat="44.61457" lon="0.68575">
        <ele>128.47</ele>
        <time>2014-05-18T08:36:03Z</time>
      </trkpt>
      <trkpt lat="44.61455" lon="0.68573">
        <ele>128.95</ele>
        <time>2014-05-18T08:36:04Z</time>
      </trkpt>
      <trkpt lat="44.61447" lon="0.6856">
        <ele>133.28</ele>
        <time>2014-05-18T08:36:14Z</time>
      </trkpt>
      <trkpt lat="44.61447" lon="0.68558">
        <ele>133.76</ele>
        <time>2014-05-18T08:36:15Z</time>
      </trkpt>
      <trkpt lat="44.61446" lon="0.68557">
        <ele>133.76</ele>
        <time>2014-05-18T08:36:16Z</time>
      </trkpt>
      <trkpt lat="44.61446" lon="0.68555">
        <ele>134.24</ele>
        <time>2014-05-18T08:36:17Z</time>
      </trkpt>
      <trkpt lat="44.61445" lon="0.68552">
        <ele>134.72</ele>
        <time>2014-05-18T08:36:19Z</time>
      </trkpt>
      <trkpt lat="44.61435" lon="0.68532">
        <ele>134.72</ele>
        <time>2014-05-18T08:36:33Z</time>
      </trkpt>
      <trkpt lat="44.61421" lon="0.68509">
        <ele>140.01</ele>
        <time>2014-05-18T08:36:47Z</time>
      </trkpt>
      <trkpt lat="44.61408" lon="0.68492">
        <ele>141.93</ele>
        <time>2014-05-18T08:36:58Z</time>
      </trkpt>
      <trkpt lat="44.61395" lon="0.68474">
        <ele>143.37</ele>
        <time>2014-05-18T08:37:12Z</time>
      </trkpt>
      <trkpt lat="44.61393" lon="0.68471">
        <ele>143.85</ele>
        <time>2014-05-18T08:37:14Z</time>
      </trkpt>
      <trkpt lat="44.61377" lon="0.6845">
        <ele>145.78</ele>
        <time>2014-05-18T08:37:28Z</time>
      </trkpt>
      <trkpt lat="44.61373" lon="0.68443">
        <ele>147.7</ele>
        <time>2014-05-18T08:37:32Z</time>
      </trkpt>
      <trkpt lat="44.61379" lon="0.68424">
        <ele>150.1</ele>
        <time>2014-05-18T08:37:41Z</time>
      </trkpt>
      <trkpt lat="44.61391" lon="0.68396">
        <ele>150.1</ele>
        <time>2014-05-18T08:37:52Z</time>
      </trkpt>
      <trkpt lat="44.61404" lon="0.68346">
        <ele>148.18</ele>
        <time>2014-05-18T08:38:03Z</time>
      </trkpt>
      <trkpt lat="44.61382" lon="0.68306">
        <ele>149.62</ele>
        <time>2014-05-18T08:38:13Z</time>
      </trkpt>
      <trkpt lat="44.61362" lon="0.68272">
        <ele>149.62</ele>
        <time>2014-05-18T08:38:25Z</time>
      </trkpt>
      <trkpt lat="44.61344" lon="0.68273">
        <ele>151.06</ele>
        <time>2014-05-18T08:38:34Z</time>
      </trkpt>
      <trkpt lat="44.61316" lon="0.68284">
        <ele>154.43</ele>
        <time>2014-05-18T08:38:47Z</time>
      </trkpt>
      <trkpt lat="44.61284" lon="0.68315">
        <ele>153.47</ele>
        <time>2014-05-18T08:39:01Z</time>
      </trkpt>
      <trkpt lat="44.61264" lon="0.68345">
        <ele>152.99</ele>
        <time>2014-05-18T08:39:14Z</time>
      </trkpt>
      <trkpt lat="44.61261" lon="0.68347">
        <ele>152.51</ele>
        <time>2014-05-18T08:39:17Z</time>
      </trkpt>
      <trkpt lat="44.61259" lon="0.68347">
        <ele>152.51</ele>
        <time>2014-05-18T08:39:19Z</time>
      </trkpt>
      <trkpt lat="44.61254" lon="0.68347">
        <ele>151.54</ele>
        <time>2014-05-18T08:39:23Z</time>
      </trkpt>
      <trkpt lat="44.61252" lon="0.68348">
        <ele>151.54</ele>
        <time>2014-05-18T08:39:24Z</time>
      </trkpt>
      <trkpt lat="44.6125" lon="0.68348">
        <ele>151.06</ele>
        <time>2014-05-18T08:39:25Z</time>
      </trkpt>
      <trkpt lat="44.61249" lon="0.68354">
        <ele>151.06</ele>
        <time>2014-05-18T08:39:34Z</time>
      </trkpt>
      <trkpt lat="44.61249" lon="0.68355">
        <ele>150.58</ele>
        <time>2014-05-18T08:39:58Z</time>
      </trkpt>
      <trkpt lat="44.61249" lon="0.68354">
        <ele>149.62</ele>
        <time>2014-05-18T08:40:23Z</time>
      </trkpt>
      <trkpt lat="44.61249" lon="0.68353">
        <ele>151.06</ele>
        <time>2014-05-18T08:40:48Z</time>
      </trkpt>
      <trkpt lat="44.6125" lon="0.68354">
        <ele>150.58</ele>
        <time>2014-05-18T08:41:09Z</time>
      </trkpt>
      <trkpt lat="44.61251" lon="0.68357">
        <ele>150.1</ele>
        <time>2014-05-18T08:41:11Z</time>
      </trkpt>
      <trkpt lat="44.61249" lon="0.68383">
        <ele>146.26</ele>
        <time>2014-05-18T08:41:17Z</time>
      </trkpt>
      <trkpt lat="44.61248" lon="0.68413">
        <ele>141.45</ele>
        <time>2014-05-18T08:41:22Z</time>
      </trkpt>
      <trkpt lat="44.61247" lon="0.68428">
        <ele>138.09</ele>
        <time>2014-05-18T08:41:25Z</time>
      </trkpt>
      <trkpt lat="44.61217" lon="0.68435">
        <ele>130.88</ele>
        <time>2014-05-18T08:41:32Z</time>
      </trkpt>
      <trkpt lat="44.61198" lon="0.68434">
        <ele>128.47</ele>
        <time>2014-05-18T08:41:35Z</time>
      </trkpt>
      <trkpt lat="44.61189" lon="0.68436">
        <ele>127.03</ele>
        <time>2014-05-18T08:41:37Z</time>
      </trkpt>
      <trkpt lat="44.61161" lon="0.68457">
        <ele>122.71</ele>
        <time>2014-05-18T08:41:45Z</time>
      </trkpt>
      <trkpt lat="44.61155" lon="0.68463">
        <ele>121.74</ele>
        <time>2014-05-18T08:41:46Z</time>
      </trkpt>
      <trkpt lat="44.61085" lon="0.68547">
        <ele>112.61</ele>
        <time>2014-05-18T08:41:56Z</time>
      </trkpt>
      <trkpt lat="44.61043" lon="0.6859">
        <ele>108.77</ele>
        <time>2014-05-18T08:42:01Z</time>
      </trkpt>
      <trkpt lat="44.61034" lon="0.68594">
        <ele>108.29</ele>
        <time>2014-05-18T08:42:02Z</time>
      </trkpt>
      <trkpt lat="44.61026" lon="0.68595">
        <ele>108.29</ele>
        <time>2014-05-18T08:42:03Z</time>
      </trkpt>
      <trkpt lat="44.61018" lon="0.68595">
        <ele>108.29</ele>
        <time>2014-05-18T08:42:04Z</time>
      </trkpt>
      <trkpt lat="44.61011" lon="0.68593">
        <ele>107.81</ele>
        <time>2014-05-18T08:42:05Z</time>
      </trkpt>
      <trkpt lat="44.61005" lon="0.68592">
        <ele>107.81</ele>
        <time>2014-05-18T08:42:06Z</time>
      </trkpt>
      <trkpt lat="44.60953" lon="0.68581">
        <ele>114.53</ele>
        <time>2014-05-18T08:42:18Z</time>
      </trkpt>
      <trkpt lat="44.60928" lon="0.68566">
        <ele>116.46</ele>
        <time>2014-05-18T08:42:29Z</time>
      </trkpt>
      <trkpt lat="44.60882" lon="0.68528">
        <ele>115.01</ele>
        <time>2014-05-18T08:42:44Z</time>
      </trkpt>
      <trkpt lat="44.6087" lon="0.6852">
        <ele>115.5</ele>
        <time>2014-05-18T08:42:47Z</time>
      </trkpt>
      <trkpt lat="44.60813" lon="0.68496">
        <ele>118.86</ele>
        <time>2014-05-18T08:43:01Z</time>
      </trkpt>
      <trkpt lat="44.60801" lon="0.6849">
        <ele>119.34</ele>
        <time>2014-05-18T08:43:04Z</time>
      </trkpt>
      <trkpt lat="44.60797" lon="0.68488">
        <ele>119.34</ele>
        <time>2014-05-18T08:43:05Z</time>
      </trkpt>
      <trkpt lat="44.60769" lon="0.68472">
        <ele>121.74</ele>
        <time>2014-05-18T08:43:15Z</time>
      </trkpt>
      <trkpt lat="44.60741" lon="0.68456">
        <ele>126.55</ele>
        <time>2014-05-18T08:43:26Z</time>
      </trkpt>
      <trkpt lat="44.60712" lon="0.68437">
        <ele>128.95</ele>
        <time>2014-05-18T08:43:38Z</time>
      </trkpt>
      <trkpt lat="44.6068" lon="0.68417">
        <ele>130.88</ele>
        <time>2014-05-18T08:43:52Z</time>
      </trkpt>
      <trkpt lat="44.60652" lon="0.68396">
        <ele>132.8</ele>
        <time>2014-05-18T08:44:06Z</time>
      </trkpt>
      <trkpt lat="44.60632" lon="0.68378">
        <ele>135.68</ele>
        <time>2014-05-18T08:44:18Z</time>
      </trkpt>
      <trkpt lat="44.60613" lon="0.68363">
        <ele>139.53</ele>
        <time>2014-05-18T08:44:32Z</time>
      </trkpt>
      <trkpt lat="44.60596" lon="0.68356">
        <ele>142.41</ele>
        <time>2014-05-18T08:44:43Z</time>
      </trkpt>
      <trkpt lat="44.60572" lon="0.68349">
        <ele>144.34</ele>
        <time>2014-05-18T08:44:57Z</time>
      </trkpt>
      <trkpt lat="44.60551" lon="0.6834">
        <ele>146.26</ele>
        <time>2014-05-18T08:45:10Z</time>
      </trkpt>
      <trkpt lat="44.60529" lon="0.68336">
        <ele>147.7</ele>
        <time>2014-05-18T08:45:22Z</time>
      </trkpt>
      <trkpt lat="44.60506" lon="0.68341">
        <ele>150.58</ele>
        <time>2014-05-18T08:45:35Z</time>
      </trkpt>
      <trkpt lat="44.60502" lon="0.68342">
        <ele>151.06</ele>
        <time>2014-05-18T08:45:37Z</time>
      </trkpt>
      <trkpt lat="44.60492" lon="0.68344">
        <ele>152.03</ele>
        <time>2014-05-18T08:45:43Z</time>
      </trkpt>
      <trkpt lat="44.60463" lon="0.68339">
        <ele>154.43</ele>
        <time>2014-05-18T08:45:58Z</time>
      </trkpt>
      <trkpt lat="44.6043" lon="0.68329">
        <ele>154.43</ele>
        <time>2014-05-18T08:46:15Z</time>
      </trkpt>
      <trkpt lat="44.60399" lon="0.68321">
        <ele>157.31</ele>
        <time>2014-05-18T08:46:32Z</time>
      </trkpt>
      <trkpt lat="44.60365" lon="0.6831">
        <ele>163.08</ele>
        <time>2014-05-18T08:46:52Z</time>
      </trkpt>
      <trkpt lat="44.60327" lon="0.68299">
        <ele>165</ele>
        <time>2014-05-18T08:47:09Z</time>
      </trkpt>
      <trkpt lat="44.60285" lon="0.68289">
        <ele>169.81</ele>
        <time>2014-05-18T08:47:25Z</time>
      </trkpt>
      <trkpt lat="44.60243" lon="0.68276">
        <ele>172.69</ele>
        <time>2014-05-18T08:47:39Z</time>
      </trkpt>
      <trkpt lat="44.60196" lon="0.6826">
        <ele>173.17</ele>
        <time>2014-05-18T08:47:53Z</time>
      </trkpt>
      <trkpt lat="44.6019" lon="0.68256">
        <ele>168.85</ele>
        <time>2014-05-18T08:48:05Z</time>
      </trkpt>
      <trkpt lat="44.6019" lon="0.68253">
        <ele>166.45</ele>
        <time>2014-05-18T08:48:34Z</time>
      </trkpt>
      <trkpt lat="44.6019" lon="0.68252">
        <ele>166.93</ele>
        <time>2014-05-18T08:48:55Z</time>
      </trkpt>
      <trkpt lat="44.6019" lon="0.68254">
        <ele>167.89</ele>
        <time>2014-05-18T08:49:12Z</time>
      </trkpt>
      <trkpt lat="44.6019" lon="0.68253">
        <ele>168.85</ele>
        <time>2014-05-18T08:49:41Z</time>
      </trkpt>
      <trkpt lat="44.60187" lon="0.68253">
        <ele>168.85</ele>
        <time>2014-05-18T08:49:59Z</time>
      </trkpt>
      <trkpt lat="44.6018" lon="0.6825">
        <ele>168.85</ele>
        <time>2014-05-18T08:50:04Z</time>
      </trkpt>
      <trkpt lat="44.60178" lon="0.68249">
        <ele>168.37</ele>
        <time>2014-05-18T08:50:05Z</time>
      </trkpt>
      <trkpt lat="44.60139" lon="0.68232">
        <ele>168.37</ele>
        <time>2014-05-18T08:50:20Z</time>
      </trkpt>
      <trkpt lat="44.60119" lon="0.68222">
        <ele>170.77</ele>
        <time>2014-05-18T08:50:27Z</time>
      </trkpt>
      <trkpt lat="44.60075" lon="0.68208">
        <ele>177.02</ele>
        <time>2014-05-18T08:50:40Z</time>
      </trkpt>
      <trkpt lat="44.60053" lon="0.68198">
        <ele>177.5</ele>
        <time>2014-05-18T08:50:50Z</time>
      </trkpt>
      <trkpt lat="44.60046" lon="0.68195">
        <ele>177.98</ele>
        <time>2014-05-18T08:51:01Z</time>
      </trkpt>
      <trkpt lat="44.60015" lon="0.68193">
        <ele>180.38</ele>
        <time>2014-05-18T08:51:10Z</time>
      </trkpt>
      <trkpt lat="44.59994" lon="0.68211">
        <ele>179.9</ele>
        <time>2014-05-18T08:51:16Z</time>
      </trkpt>
      <trkpt lat="44.59965" lon="0.68235">
        <ele>177.5</ele>
        <time>2014-05-18T08:51:23Z</time>
      </trkpt>
      <trkpt lat="44.59949" lon="0.68243">
        <ele>176.06</ele>
        <time>2014-05-18T08:51:27Z</time>
      </trkpt>
      <trkpt lat="44.59946" lon="0.68243">
        <ele>176.06</ele>
        <time>2014-05-18T08:51:28Z</time>
      </trkpt>
      <trkpt lat="44.59943" lon="0.68241">
        <ele>176.06</ele>
        <time>2014-05-18T08:51:29Z</time>
      </trkpt>
      <trkpt lat="44.59941" lon="0.68238">
        <ele>175.58</ele>
        <time>2014-05-18T08:51:30Z</time>
      </trkpt>
      <trkpt lat="44.59909" lon="0.68189">
        <ele>174.14</ele>
        <time>2014-05-18T08:51:43Z</time>
      </trkpt>
      <trkpt lat="44.59873" lon="0.68168">
        <ele>174.14</ele>
        <time>2014-05-18T08:51:55Z</time>
      </trkpt>
      <trkpt lat="44.59833" lon="0.68186">
        <ele>173.17</ele>
        <time>2014-05-18T08:52:05Z</time>
      </trkpt>
      <trkpt lat="44.59822" lon="0.6819">
        <ele>172.21</ele>
        <time>2014-05-18T08:52:07Z</time>
      </trkpt>
      <trkpt lat="44.59786" lon="0.68203">
        <ele>170.77</ele>
        <time>2014-05-18T08:52:14Z</time>
      </trkpt>
      <trkpt lat="44.59742" lon="0.68228">
        <ele>172.69</ele>
        <time>2014-05-18T08:52:27Z</time>
      </trkpt>
      <trkpt lat="44.59715" lon="0.68245">
        <ele>173.66</ele>
        <time>2014-05-18T08:52:39Z</time>
      </trkpt>
      <trkpt lat="44.59691" lon="0.68282">
        <ele>172.21</ele>
        <time>2014-05-18T08:52:52Z</time>
      </trkpt>
      <trkpt lat="44.59684" lon="0.68304">
        <ele>171.73</ele>
        <time>2014-05-18T08:52:57Z</time>
      </trkpt>
      <trkpt lat="44.59674" lon="0.68337">
        <ele>170.77</ele>
        <time>2014-05-18T08:53:03Z</time>
      </trkpt>
      <trkpt lat="44.59671" lon="0.68349">
        <ele>170.29</ele>
        <time>2014-05-18T08:53:05Z</time>
      </trkpt>
      <trkpt lat="44.59659" lon="0.68415">
        <ele>169.33</ele>
        <time>2014-05-18T08:53:17Z</time>
      </trkpt>
      <trkpt lat="44.59652" lon="0.68437">
        <ele>169.81</ele>
        <time>2014-05-18T08:53:23Z</time>
      </trkpt>
      <trkpt lat="44.59648" lon="0.68455">
        <ele>171.25</ele>
        <time>2014-05-18T08:53:30Z</time>
      </trkpt>
      <trkpt lat="44.59641" lon="0.68499">
        <ele>175.58</ele>
        <time>2014-05-18T08:53:40Z</time>
      </trkpt>
      <trkpt lat="44.59636" lon="0.68519">
        <ele>176.54</ele>
        <time>2014-05-18T08:53:43Z</time>
      </trkpt>
      <trkpt lat="44.59641" lon="0.68548">
        <ele>177.98</ele>
        <time>2014-05-18T08:53:48Z</time>
      </trkpt>
      <trkpt lat="44.59676" lon="0.68575">
        <ele>178.46</ele>
        <time>2014-05-18T08:53:55Z</time>
      </trkpt>
      <trkpt lat="44.59686" lon="0.68585">
        <ele>178.94</ele>
        <time>2014-05-18T08:53:57Z</time>
      </trkpt>
      <trkpt lat="44.59714" lon="0.68614">
        <ele>176.54</ele>
        <time>2014-05-18T08:54:04Z</time>
      </trkpt>
      <trkpt lat="44.59713" lon="0.6862">
        <ele>176.06</ele>
        <time>2014-05-18T08:54:05Z</time>
      </trkpt>
      <trkpt lat="44.59713" lon="0.68632">
        <ele>174.62</ele>
        <time>2014-05-18T08:54:07Z</time>
      </trkpt>
      <trkpt lat="44.59711" lon="0.68652">
        <ele>169.81</ele>
        <time>2014-05-18T08:54:11Z</time>
      </trkpt>
      <trkpt lat="44.59715" lon="0.68709">
        <ele>164.52</ele>
        <time>2014-05-18T08:54:20Z</time>
      </trkpt>
      <trkpt lat="44.59733" lon="0.68741">
        <ele>163.08</ele>
        <time>2014-05-18T08:54:25Z</time>
      </trkpt>
      <trkpt lat="44.59754" lon="0.6878">
        <ele>161.64</ele>
        <time>2014-05-18T08:54:32Z</time>
      </trkpt>
      <trkpt lat="44.59793" lon="0.68878">
        <ele>154.91</ele>
        <time>2014-05-18T08:54:46Z</time>
      </trkpt>
      <trkpt lat="44.59816" lon="0.68945">
        <ele>152.51</ele>
        <time>2014-05-18T08:54:55Z</time>
      </trkpt>
      <trkpt lat="44.59819" lon="0.6895">
        <ele>152.51</ele>
        <time>2014-05-18T08:54:56Z</time>
      </trkpt>
      <trkpt lat="44.59834" lon="0.68966">
        <ele>151.06</ele>
        <time>2014-05-18T08:55:05Z</time>
      </trkpt>
      <trkpt lat="44.5987" lon="0.68983">
        <ele>150.1</ele>
        <time>2014-05-18T08:55:17Z</time>
      </trkpt>
      <trkpt lat="44.59924" lon="0.69019">
        <ele>149.62</ele>
        <time>2014-05-18T08:55:31Z</time>
      </trkpt>
      <trkpt lat="44.59982" lon="0.69058">
        <ele>150.1</ele>
        <time>2014-05-18T08:55:47Z</time>
      </trkpt>
      <trkpt lat="44.60056" lon="0.69107">
        <ele>152.99</ele>
        <time>2014-05-18T08:56:06Z</time>
      </trkpt>
      <trkpt lat="44.60117" lon="0.69162">
        <ele>152.99</ele>
        <time>2014-05-18T08:56:22Z</time>
      </trkpt>
      <trkpt lat="44.6019" lon="0.69233">
        <ele>152.03</ele>
        <time>2014-05-18T08:56:37Z</time>
      </trkpt>
      <trkpt lat="44.60261" lon="0.69307">
        <ele>151.06</ele>
        <time>2014-05-18T08:56:54Z</time>
      </trkpt>
      <trkpt lat="44.60332" lon="0.69385">
        <ele>149.62</ele>
        <time>2014-05-18T08:57:10Z</time>
      </trkpt>
      <trkpt lat="44.60368" lon="0.69423">
        <ele>148.18</ele>
        <time>2014-05-18T08:57:21Z</time>
      </trkpt>
      <trkpt lat="44.60365" lon="0.69459">
        <ele>146.26</ele>
        <time>2014-05-18T08:57:31Z</time>
      </trkpt>
      <trkpt lat="44.60356" lon="0.69502">
        <ele>143.85</ele>
        <time>2014-05-18T08:57:38Z</time>
      </trkpt>
      <trkpt lat="44.60342" lon="0.69531">
        <ele>142.41</ele>
        <time>2014-05-18T08:57:43Z</time>
      </trkpt>
      <trkpt lat="44.60356" lon="0.69575">
        <ele>141.93</ele>
        <time>2014-05-18T08:57:50Z</time>
      </trkpt>
      <trkpt lat="44.60378" lon="0.69607">
        <ele>142.41</ele>
        <time>2014-05-18T08:57:55Z</time>
      </trkpt>
      <trkpt lat="44.60396" lon="0.69644">
        <ele>142.89</ele>
        <time>2014-05-18T08:58:01Z</time>
      </trkpt>
      <trkpt lat="44.60406" lon="0.6966">
        <ele>142.89</ele>
        <time>2014-05-18T08:58:04Z</time>
      </trkpt>
      <trkpt lat="44.60415" lon="0.69669">
        <ele>142.89</ele>
        <time>2014-05-18T08:58:06Z</time>
      </trkpt>
      <trkpt lat="44.6049" lon="0.69735">
        <ele>134.72</ele>
        <time>2014-05-18T08:58:18Z</time>
      </trkpt>
      <trkpt lat="44.60542" lon="0.69776">
        <ele>127.99</ele>
        <time>2014-05-18T08:58:28Z</time>
      </trkpt>
      <trkpt lat="44.60544" lon="0.69798">
        <ele>126.55</ele>
        <time>2014-05-18T08:58:32Z</time>
      </trkpt>
      <trkpt lat="44.60538" lon="0.69849">
        <ele>127.03</ele>
        <time>2014-05-18T08:58:44Z</time>
      </trkpt>
      <trkpt lat="44.60538" lon="0.69869">
        <ele>128.47</ele>
        <time>2014-05-18T08:58:50Z</time>
      </trkpt>
      <trkpt lat="44.6055" lon="0.69875">
        <ele>128.47</ele>
        <time>2014-05-18T08:58:55Z</time>
      </trkpt>
      <trkpt lat="44.60593" lon="0.69899">
        <ele>129.92</ele>
        <time>2014-05-18T08:59:10Z</time>
      </trkpt>
      <trkpt lat="44.60622" lon="0.69929">
        <ele>131.36</ele>
        <time>2014-05-18T08:59:24Z</time>
      </trkpt>
      <trkpt lat="44.6064" lon="0.6994">
        <ele>131.84</ele>
        <time>2014-05-18T08:59:34Z</time>
      </trkpt>
      <trkpt lat="44.60648" lon="0.69957">
        <ele>130.4</ele>
        <time>2014-05-18T08:59:39Z</time>
      </trkpt>
      <trkpt lat="44.60652" lon="0.70004">
        <ele>129.43</ele>
        <time>2014-05-18T08:59:50Z</time>
      </trkpt>
      <trkpt lat="44.60651" lon="0.70026">
        <ele>127.99</ele>
        <time>2014-05-18T08:59:55Z</time>
      </trkpt>
      <trkpt lat="44.60643" lon="0.70038">
        <ele>127.51</ele>
        <time>2014-05-18T09:00:01Z</time>
      </trkpt>
      <trkpt lat="44.60637" lon="0.70046">
        <ele>127.51</ele>
        <time>2014-05-18T09:00:04Z</time>
      </trkpt>
      <trkpt lat="44.60635" lon="0.70046">
        <ele>127.51</ele>
        <time>2014-05-18T09:00:05Z</time>
      </trkpt>
      <trkpt lat="44.60632" lon="0.70045">
        <ele>127.99</ele>
        <time>2014-05-18T09:00:06Z</time>
      </trkpt>
      <trkpt lat="44.60629" lon="0.70044">
        <ele>127.99</ele>
        <time>2014-05-18T09:00:07Z</time>
      </trkpt>
      <trkpt lat="44.60626" lon="0.70044">
        <ele>127.99</ele>
        <time>2014-05-18T09:00:08Z</time>
      </trkpt>
      <trkpt lat="44.60623" lon="0.70043">
        <ele>128.47</ele>
        <time>2014-05-18T09:00:09Z</time>
      </trkpt>
      <trkpt lat="44.60621" lon="0.70044">
        <ele>128.47</ele>
        <time>2014-05-18T09:00:10Z</time>
      </trkpt>
      <trkpt lat="44.60619" lon="0.70047">
        <ele>127.51</ele>
        <time>2014-05-18T09:00:14Z</time>
      </trkpt>
      <trkpt lat="44.60611" lon="0.70043">
        <ele>126.55</ele>
        <time>2014-05-18T09:00:23Z</time>
      </trkpt>
      <trkpt lat="44.60609" lon="0.70043">
        <ele>126.55</ele>
        <time>2014-05-18T09:00:24Z</time>
      </trkpt>
      <trkpt lat="44.60606" lon="0.70043">
        <ele>126.55</ele>
        <time>2014-05-18T09:00:25Z</time>
      </trkpt>
      <trkpt lat="44.60604" lon="0.70043">
        <ele>126.55</ele>
        <time>2014-05-18T09:00:26Z</time>
      </trkpt>
      <trkpt lat="44.60602" lon="0.70043">
        <ele>127.03</ele>
        <time>2014-05-18T09:00:27Z</time>
      </trkpt>
      <trkpt lat="44.606" lon="0.70043">
        <ele>127.03</ele>
        <time>2014-05-18T09:00:28Z</time>
      </trkpt>
      <trkpt lat="44.60597" lon="0.70043">
        <ele>127.51</ele>
        <time>2014-05-18T09:00:29Z</time>
      </trkpt>
      <trkpt lat="44.60595" lon="0.70042">
        <ele>127.51</ele>
        <time>2014-05-18T09:00:30Z</time>
      </trkpt>
      <trkpt lat="44.60558" lon="0.70043">
        <ele>133.28</ele>
        <time>2014-05-18T09:00:46Z</time>
      </trkpt>
      <trkpt lat="44.60519" lon="0.70048">
        <ele>138.09</ele>
        <time>2014-05-18T09:01:01Z</time>
      </trkpt>
      <trkpt lat="44.60479" lon="0.70055">
        <ele>142.89</ele>
        <time>2014-05-18T09:01:16Z</time>
      </trkpt>
      <trkpt lat="44.6043" lon="0.7006">
        <ele>147.7</ele>
        <time>2014-05-18T09:01:30Z</time>
      </trkpt>
      <trkpt lat="44.60365" lon="0.70061">
        <ele>147.22</ele>
        <time>2014-05-18T09:01:48Z</time>
      </trkpt>
      <trkpt lat="44.60288" lon="0.70059">
        <ele>147.22</ele>
        <time>2014-05-18T09:02:07Z</time>
      </trkpt>
      <trkpt lat="44.60202" lon="0.70056">
        <ele>147.22</ele>
        <time>2014-05-18T09:02:26Z</time>
      </trkpt>
      <trkpt lat="44.60193" lon="0.70053">
        <ele>147.22</ele>
        <time>2014-05-18T09:02:28Z</time>
      </trkpt>
      <trkpt lat="44.60149" lon="0.70027">
        <ele>146.74</ele>
        <time>2014-05-18T09:02:38Z</time>
      </trkpt>
      <trkpt lat="44.60146" lon="0.70023">
        <ele>146.74</ele>
        <time>2014-05-18T09:02:39Z</time>
      </trkpt>
      <trkpt lat="44.60135" lon="0.70009">
        <ele>146.26</ele>
        <time>2014-05-18T09:02:42Z</time>
      </trkpt>
      <trkpt lat="44.60132" lon="0.70004">
        <ele>146.26</ele>
        <time>2014-05-18T09:02:43Z</time>
      </trkpt>
      <trkpt lat="44.6009" lon="0.69923">
        <ele>145.78</ele>
        <time>2014-05-18T09:02:59Z</time>
      </trkpt>
      <trkpt lat="44.60042" lon="0.6983">
        <ele>148.66</ele>
        <time>2014-05-18T09:03:18Z</time>
      </trkpt>
      <trkpt lat="44.60011" lon="0.69768">
        <ele>151.54</ele>
        <time>2014-05-18T09:03:30Z</time>
      </trkpt>
      <trkpt lat="44.59974" lon="0.69707">
        <ele>153.95</ele>
        <time>2014-05-18T09:03:45Z</time>
      </trkpt>
      <trkpt lat="44.5997" lon="0.69708">
        <ele>153.95</ele>
        <time>2014-05-18T09:03:46Z</time>
      </trkpt>
      <trkpt lat="44.59966" lon="0.69709">
        <ele>153.95</ele>
        <time>2014-05-18T09:03:47Z</time>
      </trkpt>
      <trkpt lat="44.59962" lon="0.69712">
        <ele>154.43</ele>
        <time>2014-05-18T09:03:48Z</time>
      </trkpt>
      <trkpt lat="44.59958" lon="0.69715">
        <ele>154.43</ele>
        <time>2014-05-18T09:03:49Z</time>
      </trkpt>
      <trkpt lat="44.59955" lon="0.69719">
        <ele>154.43</ele>
        <time>2014-05-18T09:03:50Z</time>
      </trkpt>
      <trkpt lat="44.59951" lon="0.69722">
        <ele>154.43</ele>
        <time>2014-05-18T09:03:51Z</time>
      </trkpt>
      <trkpt lat="44.59894" lon="0.69757">
        <ele>154.43</ele>
        <time>2014-05-18T09:04:06Z</time>
      </trkpt>
      <trkpt lat="44.59819" lon="0.69791">
        <ele>152.99</ele>
        <time>2014-05-18T09:04:21Z</time>
      </trkpt>
      <trkpt lat="44.59722" lon="0.69824">
        <ele>148.66</ele>
        <time>2014-05-18T09:04:39Z</time>
      </trkpt>
      <trkpt lat="44.59639" lon="0.69901">
        <ele>145.3</ele>
        <time>2014-05-18T09:04:54Z</time>
      </trkpt>
      <trkpt lat="44.59552" lon="0.69985">
        <ele>144.34</ele>
        <time>2014-05-18T09:05:12Z</time>
      </trkpt>
      <trkpt lat="44.59535" lon="0.69997">
        <ele>143.85</ele>
        <time>2014-05-18T09:05:15Z</time>
      </trkpt>
      <trkpt lat="44.5945" lon="0.70027">
        <ele>142.41</ele>
        <time>2014-05-18T09:05:30Z</time>
      </trkpt>
      <trkpt lat="44.59421" lon="0.70029">
        <ele>141.45</ele>
        <time>2014-05-18T09:05:35Z</time>
      </trkpt>
      <trkpt lat="44.59415" lon="0.7003">
        <ele>141.45</ele>
        <time>2014-05-18T09:05:36Z</time>
      </trkpt>
      <trkpt lat="44.59409" lon="0.70032">
        <ele>141.45</ele>
        <time>2014-05-18T09:05:37Z</time>
      </trkpt>
      <trkpt lat="44.59403" lon="0.70034">
        <ele>140.97</ele>
        <time>2014-05-18T09:05:38Z</time>
      </trkpt>
      <trkpt lat="44.59397" lon="0.70037">
        <ele>140.97</ele>
        <time>2014-05-18T09:05:39Z</time>
      </trkpt>
      <trkpt lat="44.59392" lon="0.7004">
        <ele>140.97</ele>
        <time>2014-05-18T09:05:40Z</time>
      </trkpt>
      <trkpt lat="44.59357" lon="0.70064">
        <ele>141.93</ele>
        <time>2014-05-18T09:05:48Z</time>
      </trkpt>
      <trkpt lat="44.59352" lon="0.70066">
        <ele>141.93</ele>
        <time>2014-05-18T09:05:49Z</time>
      </trkpt>
      <trkpt lat="44.59348" lon="0.70069">
        <ele>142.41</ele>
        <time>2014-05-18T09:05:50Z</time>
      </trkpt>
      <trkpt lat="44.59272" lon="0.70121">
        <ele>140.49</ele>
        <time>2014-05-18T09:06:06Z</time>
      </trkpt>
      <trkpt lat="44.59205" lon="0.70175">
        <ele>141.45</ele>
        <time>2014-05-18T09:06:20Z</time>
      </trkpt>
      <trkpt lat="44.59152" lon="0.70252">
        <ele>141.93</ele>
        <time>2014-05-18T09:06:34Z</time>
      </trkpt>
      <trkpt lat="44.59121" lon="0.70318">
        <ele>140.97</ele>
        <time>2014-05-18T09:06:46Z</time>
      </trkpt>
      <trkpt lat="44.59104" lon="0.70344">
        <ele>140.01</ele>
        <time>2014-05-18T09:06:54Z</time>
      </trkpt>
      <trkpt lat="44.59085" lon="0.70338">
        <ele>139.53</ele>
        <time>2014-05-18T09:07:00Z</time>
      </trkpt>
      <trkpt lat="44.5908" lon="0.7035">
        <ele>139.53</ele>
        <time>2014-05-18T09:07:03Z</time>
      </trkpt>
      <trkpt lat="44.59062" lon="0.70433">
        <ele>138.57</ele>
        <time>2014-05-18T09:07:18Z</time>
      </trkpt>
      <trkpt lat="44.59061" lon="0.70439">
        <ele>138.57</ele>
        <time>2014-05-18T09:07:19Z</time>
      </trkpt>
      <trkpt lat="44.59021" lon="0.70522">
        <ele>137.61</ele>
        <time>2014-05-18T09:07:34Z</time>
      </trkpt>
      <trkpt lat="44.58994" lon="0.70538">
        <ele>135.68</ele>
        <time>2014-05-18T09:07:40Z</time>
      </trkpt>
      <trkpt lat="44.5896" lon="0.70531">
        <ele>134.72</ele>
        <time>2014-05-18T09:07:48Z</time>
      </trkpt>
      <trkpt lat="44.58943" lon="0.7053">
        <ele>135.2</ele>
        <time>2014-05-18T09:07:52Z</time>
      </trkpt>
      <trkpt lat="44.5893" lon="0.70531">
        <ele>135.2</ele>
        <time>2014-05-18T09:07:55Z</time>
      </trkpt>
      <trkpt lat="44.5892" lon="0.70531">
        <ele>135.68</ele>
        <time>2014-05-18T09:07:57Z</time>
      </trkpt>
      <trkpt lat="44.58904" lon="0.70528">
        <ele>135.68</ele>
        <time>2014-05-18T09:08:00Z</time>
      </trkpt>
      <trkpt lat="44.58881" lon="0.70547">
        <ele>135.2</ele>
        <time>2014-05-18T09:08:05Z</time>
      </trkpt>
      <trkpt lat="44.5886" lon="0.70562">
        <ele>133.76</ele>
        <time>2014-05-18T09:08:09Z</time>
      </trkpt>
      <trkpt lat="44.58845" lon="0.70578">
        <ele>131.84</ele>
        <time>2014-05-18T09:08:13Z</time>
      </trkpt>
      <trkpt lat="44.58834" lon="0.70601">
        <ele>131.36</ele>
        <time>2014-05-18T09:08:17Z</time>
      </trkpt>
      <trkpt lat="44.58832" lon="0.70629">
        <ele>131.36</ele>
        <time>2014-05-18T09:08:22Z</time>
      </trkpt>
      <trkpt lat="44.58832" lon="0.70649">
        <ele>132.32</ele>
        <time>2014-05-18T09:08:25Z</time>
      </trkpt>
      <trkpt lat="44.58833" lon="0.70684">
        <ele>135.2</ele>
        <time>2014-05-18T09:08:30Z</time>
      </trkpt>
      <trkpt lat="44.5883" lon="0.70697">
        <ele>135.68</ele>
        <time>2014-05-18T09:08:32Z</time>
      </trkpt>
      <trkpt lat="44.58809" lon="0.70752">
        <ele>136.16</ele>
        <time>2014-05-18T09:08:44Z</time>
      </trkpt>
      <trkpt lat="44.58776" lon="0.70793">
        <ele>136.16</ele>
        <time>2014-05-18T09:08:58Z</time>
      </trkpt>
      <trkpt lat="44.58737" lon="0.70828">
        <ele>135.2</ele>
        <time>2014-05-18T09:09:09Z</time>
      </trkpt>
      <trkpt lat="44.587" lon="0.70859">
        <ele>134.24</ele>
        <time>2014-05-18T09:09:17Z</time>
      </trkpt>
      <trkpt lat="44.58678" lon="0.70862">
        <ele>133.28</ele>
        <time>2014-05-18T09:09:22Z</time>
      </trkpt>
      <trkpt lat="44.58606" lon="0.70808">
        <ele>132.8</ele>
        <time>2014-05-18T09:09:37Z</time>
      </trkpt>
      <trkpt lat="44.58534" lon="0.70757">
        <ele>133.76</ele>
        <time>2014-05-18T09:09:53Z</time>
      </trkpt>
      <trkpt lat="44.58506" lon="0.70736">
        <ele>133.28</ele>
        <time>2014-05-18T09:10:00Z</time>
      </trkpt>
      <trkpt lat="44.58472" lon="0.70673">
        <ele>132.8</ele>
        <time>2014-05-18T09:10:12Z</time>
      </trkpt>
      <trkpt lat="44.5847" lon="0.70667">
        <ele>132.32</ele>
        <time>2014-05-18T09:10:13Z</time>
      </trkpt>
      <trkpt lat="44.5846" lon="0.70644">
        <ele>132.32</ele>
        <time>2014-05-18T09:10:17Z</time>
      </trkpt>
      <trkpt lat="44.5845" lon="0.7062">
        <ele>132.32</ele>
        <time>2014-05-18T09:10:21Z</time>
      </trkpt>
      <trkpt lat="44.58444" lon="0.7061">
        <ele>131.84</ele>
        <time>2014-05-18T09:10:23Z</time>
      </trkpt>
      <trkpt lat="44.58429" lon="0.70603">
        <ele>131.36</ele>
        <time>2014-05-18T09:10:26Z</time>
      </trkpt>
      <trkpt lat="44.58399" lon="0.7059">
        <ele>128.95</ele>
        <time>2014-05-18T09:10:32Z</time>
      </trkpt>
      <trkpt lat="44.58333" lon="0.70476">
        <ele>116.94</ele>
        <time>2014-05-18T09:10:44Z</time>
      </trkpt>
      <trkpt lat="44.58329" lon="0.70468">
        <ele>115.98</ele>
        <time>2014-05-18T09:10:45Z</time>
      </trkpt>
      <trkpt lat="44.58327" lon="0.70461">
        <ele>115.01</ele>
        <time>2014-05-18T09:10:46Z</time>
      </trkpt>
      <trkpt lat="44.58325" lon="0.70457">
        <ele>114.53</ele>
        <time>2014-05-18T09:10:47Z</time>
      </trkpt>
      <trkpt lat="44.58324" lon="0.70455">
        <ele>114.53</ele>
        <time>2014-05-18T09:10:48Z</time>
      </trkpt>
      <trkpt lat="44.58322" lon="0.70453">
        <ele>114.05</ele>
        <time>2014-05-18T09:10:49Z</time>
      </trkpt>
      <trkpt lat="44.5832" lon="0.70453">
        <ele>113.57</ele>
        <time>2014-05-18T09:10:50Z</time>
      </trkpt>
      <trkpt lat="44.58318" lon="0.70454">
        <ele>113.09</ele>
        <time>2014-05-18T09:10:51Z</time>
      </trkpt>
      <trkpt lat="44.58317" lon="0.70453">
        <ele>113.09</ele>
        <time>2014-05-18T09:10:52Z</time>
      </trkpt>
      <trkpt lat="44.58316" lon="0.70451">
        <ele>112.61</ele>
        <time>2014-05-18T09:10:53Z</time>
      </trkpt>
      <trkpt lat="44.58315" lon="0.70446">
        <ele>111.17</ele>
        <time>2014-05-18T09:11:04Z</time>
      </trkpt>
      <trkpt lat="44.58315" lon="0.70445">
        <ele>111.17</ele>
        <time>2014-05-18T09:11:05Z</time>
      </trkpt>
      <trkpt lat="44.58313" lon="0.7044">
        <ele>109.73</ele>
        <time>2014-05-18T09:11:14Z</time>
      </trkpt>
      <trkpt lat="44.58312" lon="0.70439">
        <ele>109.73</ele>
        <time>2014-05-18T09:11:42Z</time>
      </trkpt>
      <trkpt lat="44.58312" lon="0.70438">
        <ele>110.69</ele>
        <time>2014-05-18T09:12:09Z</time>
      </trkpt>
      <trkpt lat="44.58312" lon="0.7044">
        <ele>113.09</ele>
        <time>2014-05-18T09:12:37Z</time>
      </trkpt>
      <trkpt lat="44.5831" lon="0.70446">
        <ele>117.42</ele>
        <time>2014-05-18T09:13:07Z</time>
      </trkpt>
      <trkpt lat="44.5831" lon="0.70445">
        <ele>119.34</ele>
        <time>2014-05-18T09:13:37Z</time>
      </trkpt>
      <trkpt lat="44.58311" lon="0.70444">
        <ele>117.9</ele>
        <time>2014-05-18T09:14:06Z</time>
      </trkpt>
      <trkpt lat="44.58309" lon="0.7044">
        <ele>114.05</ele>
        <time>2014-05-18T09:14:35Z</time>
      </trkpt>
      <trkpt lat="44.58311" lon="0.70439">
        <ele>113.09</ele>
        <time>2014-05-18T09:14:53Z</time>
      </trkpt>
      <trkpt lat="44.58312" lon="0.7044">
        <ele>110.21</ele>
        <time>2014-05-18T09:15:20Z</time>
      </trkpt>
      <trkpt lat="44.58311" lon="0.70439">
        <ele>111.17</ele>
        <time>2014-05-18T09:15:39Z</time>
      </trkpt>
      <trkpt lat="44.58312" lon="0.70439">
        <ele>111.65</ele>
        <time>2014-05-18T09:16:13Z</time>
      </trkpt>
      <trkpt lat="44.58311" lon="0.70439">
        <ele>111.17</ele>
        <time>2014-05-18T09:16:38Z</time>
      </trkpt>
      <trkpt lat="44.58311" lon="0.70438">
        <ele>111.17</ele>
        <time>2014-05-18T09:16:40Z</time>
      </trkpt>
      <trkpt lat="44.5831" lon="0.70436">
        <ele>111.17</ele>
        <time>2014-05-18T09:16:41Z</time>
      </trkpt>
      <trkpt lat="44.5831" lon="0.70433">
        <ele>110.69</ele>
        <time>2014-05-18T09:16:42Z</time>
      </trkpt>
      <trkpt lat="44.5831" lon="0.7043">
        <ele>110.69</ele>
        <time>2014-05-18T09:16:43Z</time>
      </trkpt>
      <trkpt lat="44.58309" lon="0.70428">
        <ele>110.69</ele>
        <time>2014-05-18T09:16:44Z</time>
      </trkpt>
      <trkpt lat="44.58308" lon="0.70426">
        <ele>110.69</ele>
        <time>2014-05-18T09:16:45Z</time>
      </trkpt>
      <trkpt lat="44.58308" lon="0.70423">
        <ele>110.69</ele>
        <time>2014-05-18T09:16:46Z</time>
      </trkpt>
      <trkpt lat="44.58307" lon="0.7042">
        <ele>110.69</ele>
        <time>2014-05-18T09:16:47Z</time>
      </trkpt>
      <trkpt lat="44.58307" lon="0.70416">
        <ele>111.17</ele>
        <time>2014-05-18T09:16:48Z</time>
      </trkpt>
      <trkpt lat="44.58304" lon="0.70378">
        <ele>113.57</ele>
        <time>2014-05-18T09:17:01Z</time>
      </trkpt>
      <trkpt lat="44.58306" lon="0.70354">
        <ele>112.13</ele>
        <time>2014-05-18T09:17:10Z</time>
      </trkpt>
      <trkpt lat="44.58307" lon="0.70352">
        <ele>112.13</ele>
        <time>2014-05-18T09:17:11Z</time>
      </trkpt>
      <trkpt lat="44.58307" lon="0.7035">
        <ele>112.13</ele>
        <time>2014-05-18T09:17:12Z</time>
      </trkpt>
      <trkpt lat="44.58308" lon="0.70348">
        <ele>112.13</ele>
        <time>2014-05-18T09:17:13Z</time>
      </trkpt>
      <trkpt lat="44.58308" lon="0.70346">
        <ele>112.13</ele>
        <time>2014-05-18T09:17:14Z</time>
      </trkpt>
      <trkpt lat="44.58309" lon="0.70344">
        <ele>111.65</ele>
        <time>2014-05-18T09:17:15Z</time>
      </trkpt>
      <trkpt lat="44.58317" lon="0.7031">
        <ele>112.13</ele>
        <time>2014-05-18T09:17:31Z</time>
      </trkpt>
      <trkpt lat="44.58319" lon="0.70269">
        <ele>112.13</ele>
        <time>2014-05-18T09:17:47Z</time>
      </trkpt>
      <trkpt lat="44.58305" lon="0.70208">
        <ele>113.09</ele>
        <time>2014-05-18T09:18:03Z</time>
      </trkpt>
      <trkpt lat="44.58304" lon="0.70153">
        <ele>115.5</ele>
        <time>2014-05-18T09:18:19Z</time>
      </trkpt>
      <trkpt lat="44.58303" lon="0.70149">
        <ele>115.98</ele>
        <time>2014-05-18T09:18:20Z</time>
      </trkpt>
      <trkpt lat="44.58303" lon="0.70145">
        <ele>115.98</ele>
        <time>2014-05-18T09:18:21Z</time>
      </trkpt>
      <trkpt lat="44.58301" lon="0.70142">
        <ele>115.98</ele>
        <time>2014-05-18T09:18:22Z</time>
      </trkpt>
      <trkpt lat="44.583" lon="0.70138">
        <ele>115.98</ele>
        <time>2014-05-18T09:18:23Z</time>
      </trkpt>
      <trkpt lat="44.58278" lon="0.7007">
        <ele>117.42</ele>
        <time>2014-05-18T09:18:40Z</time>
      </trkpt>
      <trkpt lat="44.58254" lon="0.69999">
        <ele>118.86</ele>
        <time>2014-05-18T09:18:56Z</time>
      </trkpt>
      <trkpt lat="44.5823" lon="0.69927">
        <ele>121.26</ele>
        <time>2014-05-18T09:19:12Z</time>
      </trkpt>
      <trkpt lat="44.58205" lon="0.69846">
        <ele>123.19</ele>
        <time>2014-05-18T09:19:30Z</time>
      </trkpt>
      <trkpt lat="44.58189" lon="0.69774">
        <ele>126.07</ele>
        <time>2014-05-18T09:19:46Z</time>
      </trkpt>
      <trkpt lat="44.58203" lon="0.69704">
        <ele>128.95</ele>
        <time>2014-05-18T09:20:01Z</time>
      </trkpt>
      <trkpt lat="44.58227" lon="0.69686">
        <ele>129.92</ele>
        <time>2014-05-18T09:20:11Z</time>
      </trkpt>
      <trkpt lat="44.58263" lon="0.69667">
        <ele>131.84</ele>
        <time>2014-05-18T09:20:25Z</time>
      </trkpt>
      <trkpt lat="44.58295" lon="0.69642">
        <ele>136.64</ele>
        <time>2014-05-18T09:20:38Z</time>
      </trkpt>
      <trkpt lat="44.58325" lon="0.6962">
        <ele>142.41</ele>
        <time>2014-05-18T09:20:50Z</time>
      </trkpt>
      <trkpt lat="44.58353" lon="0.69599">
        <ele>148.66</ele>
        <time>2014-05-18T09:21:02Z</time>
      </trkpt>
      <trkpt lat="44.58377" lon="0.6958">
        <ele>152.03</ele>
        <time>2014-05-18T09:21:11Z</time>
      </trkpt>
      <trkpt lat="44.58403" lon="0.69554">
        <ele>154.43</ele>
        <time>2014-05-18T09:21:21Z</time>
      </trkpt>
      <trkpt lat="44.58435" lon="0.69515">
        <ele>156.35</ele>
        <time>2014-05-18T09:21:34Z</time>
      </trkpt>
      <trkpt lat="44.58449" lon="0.69494">
        <ele>156.35</ele>
        <time>2014-05-18T09:21:40Z</time>
      </trkpt>
      <trkpt lat="44.58444" lon="0.69469">
        <ele>150.58</ele>
        <time>2014-05-18T09:21:48Z</time>
      </trkpt>
      <trkpt lat="44.58423" lon="0.69451">
        <ele>148.18</ele>
        <time>2014-05-18T09:21:59Z</time>
      </trkpt>
      <trkpt lat="44.5842" lon="0.69439">
        <ele>147.22</ele>
        <time>2014-05-18T09:22:03Z</time>
      </trkpt>
      <trkpt lat="44.5843" lon="0.69413">
        <ele>146.26</ele>
        <time>2014-05-18T09:22:10Z</time>
      </trkpt>
      <trkpt lat="44.58427" lon="0.69399">
        <ele>144.34</ele>
        <time>2014-05-18T09:22:14Z</time>
      </trkpt>
      <trkpt lat="44.58387" lon="0.69391">
        <ele>144.82</ele>
        <time>2014-05-18T09:22:26Z</time>
      </trkpt>
      <trkpt lat="44.58356" lon="0.69395">
        <ele>148.18</ele>
        <time>2014-05-18T09:22:37Z</time>
      </trkpt>
      <trkpt lat="44.58345" lon="0.6938">
        <ele>150.58</ele>
        <time>2014-05-18T09:22:45Z</time>
      </trkpt>
      <trkpt lat="44.5833" lon="0.69338">
        <ele>153.95</ele>
        <time>2014-05-18T09:22:57Z</time>
      </trkpt>
      <trkpt lat="44.58326" lon="0.69284">
        <ele>154.91</ele>
        <time>2014-05-18T09:23:08Z</time>
      </trkpt>
      <trkpt lat="44.58335" lon="0.69221">
        <ele>156.83</ele>
        <time>2014-05-18T09:23:22Z</time>
      </trkpt>
      <trkpt lat="44.58347" lon="0.69149">
        <ele>158.27</ele>
        <time>2014-05-18T09:23:38Z</time>
      </trkpt>
      <trkpt lat="44.58341" lon="0.69091">
        <ele>160.2</ele>
        <time>2014-05-18T09:23:51Z</time>
      </trkpt>
      <trkpt lat="44.58328" lon="0.69062">
        <ele>159.24</ele>
        <time>2014-05-18T09:23:59Z</time>
      </trkpt>
      <trkpt lat="44.58323" lon="0.69052">
        <ele>158.75</ele>
        <time>2014-05-18T09:24:01Z</time>
      </trkpt>
      <trkpt lat="44.58317" lon="0.69041">
        <ele>157.79</ele>
        <time>2014-05-18T09:24:03Z</time>
      </trkpt>
      <trkpt lat="44.58309" lon="0.69026">
        <ele>157.31</ele>
        <time>2014-05-18T09:24:06Z</time>
      </trkpt>
      <trkpt lat="44.58273" lon="0.68992">
        <ele>157.79</ele>
        <time>2014-05-18T09:24:17Z</time>
      </trkpt>
      <trkpt lat="44.58266" lon="0.68967">
        <ele>155.87</ele>
        <time>2014-05-18T09:24:24Z</time>
      </trkpt>
      <trkpt lat="44.58262" lon="0.68953">
        <ele>154.91</ele>
        <time>2014-05-18T09:24:26Z</time>
      </trkpt>
      <trkpt lat="44.58237" lon="0.68887">
        <ele>146.74</ele>
        <time>2014-05-18T09:24:37Z</time>
      </trkpt>
      <trkpt lat="44.58211" lon="0.68818">
        <ele>142.41</ele>
        <time>2014-05-18T09:24:48Z</time>
      </trkpt>
      <trkpt lat="44.58206" lon="0.68807">
        <ele>141.93</ele>
        <time>2014-05-18T09:24:50Z</time>
      </trkpt>
      <trkpt lat="44.58191" lon="0.68779">
        <ele>141.93</ele>
        <time>2014-05-18T09:24:55Z</time>
      </trkpt>
      <trkpt lat="44.58174" lon="0.68756">
        <ele>142.89</ele>
        <time>2014-05-18T09:25:00Z</time>
      </trkpt>
      <trkpt lat="44.58142" lon="0.68712">
        <ele>150.1</ele>
        <time>2014-05-18T09:25:12Z</time>
      </trkpt>
      <trkpt lat="44.5812" lon="0.68685">
        <ele>157.79</ele>
        <time>2014-05-18T09:25:24Z</time>
      </trkpt>
      <trkpt lat="44.58121" lon="0.68683">
        <ele>160.2</ele>
        <time>2014-05-18T09:25:30Z</time>
      </trkpt>
      <trkpt lat="44.58124" lon="0.68687">
        <ele>160.68</ele>
        <time>2014-05-18T09:25:34Z</time>
      </trkpt>
      <trkpt lat="44.58125" lon="0.68688">
        <ele>160.68</ele>
        <time>2014-05-18T09:25:35Z</time>
      </trkpt>
      <trkpt lat="44.58126" lon="0.6869">
        <ele>160.68</ele>
        <time>2014-05-18T09:25:36Z</time>
      </trkpt>
      <trkpt lat="44.58134" lon="0.687">
        <ele>160.68</ele>
        <time>2014-05-18T09:25:50Z</time>
      </trkpt>
      <trkpt lat="44.58136" lon="0.68698">
        <ele>158.27</ele>
        <time>2014-05-18T09:26:11Z</time>
      </trkpt>
      <trkpt lat="44.58134" lon="0.68699">
        <ele>160.2</ele>
        <time>2014-05-18T09:26:36Z</time>
      </trkpt>
      <trkpt lat="44.58135" lon="0.68703">
        <ele>159.72</ele>
        <time>2014-05-18T09:26:44Z</time>
      </trkpt>
      <trkpt lat="44.58134" lon="0.68706">
        <ele>160.2</ele>
        <time>2014-05-18T09:26:45Z</time>
      </trkpt>
      <trkpt lat="44.58114" lon="0.68735">
        <ele>159.72</ele>
        <time>2014-05-18T09:26:54Z</time>
      </trkpt>
      <trkpt lat="44.58087" lon="0.68776">
        <ele>157.31</ele>
        <time>2014-05-18T09:27:05Z</time>
      </trkpt>
      <trkpt lat="44.58084" lon="0.68786">
        <ele>157.31</ele>
        <time>2014-05-18T09:27:07Z</time>
      </trkpt>
      <trkpt lat="44.58089" lon="0.68798">
        <ele>156.83</ele>
        <time>2014-05-18T09:27:10Z</time>
      </trkpt>
      <trkpt lat="44.58102" lon="0.68849">
        <ele>159.24</ele>
        <time>2014-05-18T09:27:23Z</time>
      </trkpt>
      <trkpt lat="44.58076" lon="0.68885">
        <ele>160.2</ele>
        <time>2014-05-18T09:27:34Z</time>
      </trkpt>
      <trkpt lat="44.58061" lon="0.68907">
        <ele>159.72</ele>
        <time>2014-05-18T09:27:44Z</time>
      </trkpt>
      <trkpt lat="44.58061" lon="0.68908">
        <ele>161.16</ele>
        <time>2014-05-18T09:27:51Z</time>
      </trkpt>
      <trkpt lat="44.58048" lon="0.6891">
        <ele>157.79</ele>
        <time>2014-05-18T09:27:58Z</time>
      </trkpt>
      <trkpt lat="44.58037" lon="0.68919">
        <ele>156.35</ele>
        <time>2014-05-18T09:28:03Z</time>
      </trkpt>
      <trkpt lat="44.58016" lon="0.68977">
        <ele>157.79</ele>
        <time>2014-05-18T09:28:17Z</time>
      </trkpt>
      <trkpt lat="44.58009" lon="0.68987">
        <ele>157.79</ele>
        <time>2014-05-18T09:28:21Z</time>
      </trkpt>
      <trkpt lat="44.58007" lon="0.68986">
        <ele>157.31</ele>
        <time>2014-05-18T09:28:22Z</time>
      </trkpt>
      <trkpt lat="44.58002" lon="0.68984">
        <ele>156.83</ele>
        <time>2014-05-18T09:28:26Z</time>
      </trkpt>
      <trkpt lat="44.58001" lon="0.68984">
        <ele>156.83</ele>
        <time>2014-05-18T09:28:27Z</time>
      </trkpt>
      <trkpt lat="44.57999" lon="0.68983">
        <ele>156.35</ele>
        <time>2014-05-18T09:28:28Z</time>
      </trkpt>
      <trkpt lat="44.57988" lon="0.68978">
        <ele>156.35</ele>
        <time>2014-05-18T09:28:34Z</time>
      </trkpt>
      <trkpt lat="44.57985" lon="0.68979">
        <ele>155.87</ele>
        <time>2014-05-18T09:28:35Z</time>
      </trkpt>
      <trkpt lat="44.57973" lon="0.68991">
        <ele>154.91</ele>
        <time>2014-05-18T09:28:46Z</time>
      </trkpt>
      <trkpt lat="44.57972" lon="0.68991">
        <ele>154.91</ele>
        <time>2014-05-18T09:28:55Z</time>
      </trkpt>
      <trkpt lat="44.5797" lon="0.68991">
        <ele>154.91</ele>
        <time>2014-05-18T09:28:56Z</time>
      </trkpt>
      <trkpt lat="44.57942" lon="0.69019">
        <ele>154.43</ele>
        <time>2014-05-18T09:29:07Z</time>
      </trkpt>
      <trkpt lat="44.57939" lon="0.69023">
        <ele>154.43</ele>
        <time>2014-05-18T09:29:08Z</time>
      </trkpt>
      <trkpt lat="44.5793" lon="0.69037">
        <ele>153.95</ele>
        <time>2014-05-18T09:29:11Z</time>
      </trkpt>
      <trkpt lat="44.57874" lon="0.6912">
        <ele>153.47</ele>
        <time>2014-05-18T09:29:27Z</time>
      </trkpt>
      <trkpt lat="44.57868" lon="0.69135">
        <ele>152.03</ele>
        <time>2014-05-18T09:29:36Z</time>
      </trkpt>
      <trkpt lat="44.57862" lon="0.69157">
        <ele>152.51</ele>
        <time>2014-05-18T09:29:46Z</time>
      </trkpt>
      <trkpt lat="44.57845" lon="0.69208">
        <ele>152.03</ele>
        <time>2014-05-18T09:29:56Z</time>
      </trkpt>
      <trkpt lat="44.57843" lon="0.69215">
        <ele>152.03</ele>
        <time>2014-05-18T09:29:57Z</time>
      </trkpt>
      <trkpt lat="44.57842" lon="0.69221">
        <ele>152.03</ele>
        <time>2014-05-18T09:29:58Z</time>
      </trkpt>
      <trkpt lat="44.57839" lon="0.69228">
        <ele>152.03</ele>
        <time>2014-05-18T09:29:59Z</time>
      </trkpt>
      <trkpt lat="44.57837" lon="0.69233">
        <ele>152.03</ele>
        <time>2014-05-18T09:30:00Z</time>
      </trkpt>
      <trkpt lat="44.57834" lon="0.69239">
        <ele>152.03</ele>
        <time>2014-05-18T09:30:01Z</time>
      </trkpt>
      <trkpt lat="44.57826" lon="0.69254">
        <ele>151.54</ele>
        <time>2014-05-18T09:30:04Z</time>
      </trkpt>
      <trkpt lat="44.57781" lon="0.69352">
        <ele>152.51</ele>
        <time>2014-05-18T09:30:23Z</time>
      </trkpt>
      <trkpt lat="44.57764" lon="0.69387">
        <ele>152.51</ele>
        <time>2014-05-18T09:30:30Z</time>
      </trkpt>
      <trkpt lat="44.57762" lon="0.69392">
        <ele>152.51</ele>
        <time>2014-05-18T09:30:31Z</time>
      </trkpt>
      <trkpt lat="44.57738" lon="0.6944">
        <ele>153.95</ele>
        <time>2014-05-18T09:30:43Z</time>
      </trkpt>
      <trkpt lat="44.57736" lon="0.6944">
        <ele>153.95</ele>
        <time>2014-05-18T09:30:44Z</time>
      </trkpt>
      <trkpt lat="44.57734" lon="0.69438">
        <ele>153.95</ele>
        <time>2014-05-18T09:30:45Z</time>
      </trkpt>
      <trkpt lat="44.57732" lon="0.69434">
        <ele>153.47</ele>
        <time>2014-05-18T09:30:46Z</time>
      </trkpt>
      <trkpt lat="44.5773" lon="0.69429">
        <ele>153.47</ele>
        <time>2014-05-18T09:30:47Z</time>
      </trkpt>
      <trkpt lat="44.57728" lon="0.69423">
        <ele>152.99</ele>
        <time>2014-05-18T09:30:48Z</time>
      </trkpt>
      <trkpt lat="44.5768" lon="0.6936">
        <ele>147.22</ele>
        <time>2014-05-18T09:30:57Z</time>
      </trkpt>
      <trkpt lat="44.57663" lon="0.69339">
        <ele>143.85</ele>
        <time>2014-05-18T09:31:00Z</time>
      </trkpt>
      <trkpt lat="44.57643" lon="0.69319">
        <ele>140.97</ele>
        <time>2014-05-18T09:31:04Z</time>
      </trkpt>
      <trkpt lat="44.57628" lon="0.69271">
        <ele>135.68</ele>
        <time>2014-05-18T09:31:13Z</time>
      </trkpt>
      <trkpt lat="44.5762" lon="0.69222">
        <ele>130.88</ele>
        <time>2014-05-18T09:31:23Z</time>
      </trkpt>
      <trkpt lat="44.57606" lon="0.69161">
        <ele>127.03</ele>
        <time>2014-05-18T09:31:35Z</time>
      </trkpt>
      <trkpt lat="44.57603" lon="0.69151">
        <ele>127.03</ele>
        <time>2014-05-18T09:31:37Z</time>
      </trkpt>
      <trkpt lat="44.57587" lon="0.69107">
        <ele>126.55</ele>
        <time>2014-05-18T09:31:46Z</time>
      </trkpt>
      <trkpt lat="44.5757" lon="0.69055">
        <ele>124.63</ele>
        <time>2014-05-18T09:31:58Z</time>
      </trkpt>
      <trkpt lat="44.57553" lon="0.69005">
        <ele>123.19</ele>
        <time>2014-05-18T09:32:10Z</time>
      </trkpt>
      <trkpt lat="44.57548" lon="0.68991">
        <ele>123.19</ele>
        <time>2014-05-18T09:32:13Z</time>
      </trkpt>
      <trkpt lat="44.57546" lon="0.68987">
        <ele>123.67</ele>
        <time>2014-05-18T09:32:14Z</time>
      </trkpt>
      <trkpt lat="44.57544" lon="0.68983">
        <ele>123.67</ele>
        <time>2014-05-18T09:32:15Z</time>
      </trkpt>
      <trkpt lat="44.57542" lon="0.68979">
        <ele>123.67</ele>
        <time>2014-05-18T09:32:16Z</time>
      </trkpt>
      <trkpt lat="44.57541" lon="0.68976">
        <ele>124.15</ele>
        <time>2014-05-18T09:32:17Z</time>
      </trkpt>
      <trkpt lat="44.57539" lon="0.68972">
        <ele>124.63</ele>
        <time>2014-05-18T09:32:18Z</time>
      </trkpt>
      <trkpt lat="44.57539" lon="0.68968">
        <ele>125.11</ele>
        <time>2014-05-18T09:32:19Z</time>
      </trkpt>
      <trkpt lat="44.57522" lon="0.68949">
        <ele>129.92</ele>
        <time>2014-05-18T09:32:27Z</time>
      </trkpt>
      <trkpt lat="44.57516" lon="0.68951">
        <ele>130.4</ele>
        <time>2014-05-18T09:32:29Z</time>
      </trkpt>
      <trkpt lat="44.57484" lon="0.68947">
        <ele>132.32</ele>
        <time>2014-05-18T09:32:40Z</time>
      </trkpt>
      <trkpt lat="44.57456" lon="0.68932">
        <ele>133.76</ele>
        <time>2014-05-18T09:32:47Z</time>
      </trkpt>
      <trkpt lat="44.57438" lon="0.68926">
        <ele>133.76</ele>
        <time>2014-05-18T09:32:51Z</time>
      </trkpt>
      <trkpt lat="44.57433" lon="0.68923">
        <ele>133.28</ele>
        <time>2014-05-18T09:32:52Z</time>
      </trkpt>
      <trkpt lat="44.5743" lon="0.68919">
        <ele>132.8</ele>
        <time>2014-05-18T09:32:53Z</time>
      </trkpt>
      <trkpt lat="44.57427" lon="0.68913">
        <ele>131.84</ele>
        <time>2014-05-18T09:32:54Z</time>
      </trkpt>
      <trkpt lat="44.57423" lon="0.68908">
        <ele>131.36</ele>
        <time>2014-05-18T09:32:55Z</time>
      </trkpt>
      <trkpt lat="44.57418" lon="0.68902">
        <ele>130.88</ele>
        <time>2014-05-18T09:32:56Z</time>
      </trkpt>
      <trkpt lat="44.57411" lon="0.68895">
        <ele>129.92</ele>
        <time>2014-05-18T09:32:57Z</time>
      </trkpt>
      <trkpt lat="44.57402" lon="0.68888">
        <ele>129.43</ele>
        <time>2014-05-18T09:32:58Z</time>
      </trkpt>
      <trkpt lat="44.57358" lon="0.68857">
        <ele>123.67</ele>
        <time>2014-05-18T09:33:03Z</time>
      </trkpt>
      <trkpt lat="44.5735" lon="0.68854">
        <ele>122.71</ele>
        <time>2014-05-18T09:33:04Z</time>
      </trkpt>
      <trkpt lat="44.57325" lon="0.68848">
        <ele>120.78</ele>
        <time>2014-05-18T09:33:07Z</time>
      </trkpt>
      <trkpt lat="44.57299" lon="0.68853">
        <ele>118.86</ele>
        <time>2014-05-18T09:33:11Z</time>
      </trkpt>
      <trkpt lat="44.57293" lon="0.68852">
        <ele>118.38</ele>
        <time>2014-05-18T09:33:12Z</time>
      </trkpt>
      <trkpt lat="44.57288" lon="0.6885">
        <ele>117.9</ele>
        <time>2014-05-18T09:33:13Z</time>
      </trkpt>
      <trkpt lat="44.57284" lon="0.68847">
        <ele>117.42</ele>
        <time>2014-05-18T09:33:14Z</time>
      </trkpt>
      <trkpt lat="44.5728" lon="0.68844">
        <ele>116.94</ele>
        <time>2014-05-18T09:33:15Z</time>
      </trkpt>
      <trkpt lat="44.5723" lon="0.68813">
        <ele>116.94</ele>
        <time>2014-05-18T09:33:27Z</time>
      </trkpt>
      <trkpt lat="44.57188" lon="0.68783">
        <ele>119.34</ele>
        <time>2014-05-18T09:33:43Z</time>
      </trkpt>
      <trkpt lat="44.57163" lon="0.68768">
        <ele>122.71</ele>
        <time>2014-05-18T09:33:56Z</time>
      </trkpt>
      <trkpt lat="44.57148" lon="0.68771">
        <ele>125.11</ele>
        <time>2014-05-18T09:34:07Z</time>
      </trkpt>
      <trkpt lat="44.57126" lon="0.68776">
        <ele>128.95</ele>
        <time>2014-05-18T09:34:20Z</time>
      </trkpt>
      <trkpt lat="44.57115" lon="0.68775">
        <ele>130.88</ele>
        <time>2014-05-18T09:34:26Z</time>
      </trkpt>
      <trkpt lat="44.57113" lon="0.68773">
        <ele>130.88</ele>
        <time>2014-05-18T09:34:27Z</time>
      </trkpt>
      <trkpt lat="44.57111" lon="0.68772">
        <ele>130.88</ele>
        <time>2014-05-18T09:34:28Z</time>
      </trkpt>
      <trkpt lat="44.5711" lon="0.68771">
        <ele>130.88</ele>
        <time>2014-05-18T09:34:29Z</time>
      </trkpt>
      <trkpt lat="44.57108" lon="0.6877">
        <ele>131.36</ele>
        <time>2014-05-18T09:34:30Z</time>
      </trkpt>
      <trkpt lat="44.57107" lon="0.68768">
        <ele>131.36</ele>
        <time>2014-05-18T09:34:31Z</time>
      </trkpt>
      <trkpt lat="44.57105" lon="0.68767">
        <ele>131.36</ele>
        <time>2014-05-18T09:34:32Z</time>
      </trkpt>
      <trkpt lat="44.57103" lon="0.68767">
        <ele>131.84</ele>
        <time>2014-05-18T09:34:33Z</time>
      </trkpt>
      <trkpt lat="44.57102" lon="0.68766">
        <ele>131.84</ele>
        <time>2014-05-18T09:34:34Z</time>
      </trkpt>
      <trkpt lat="44.57082" lon="0.6876">
        <ele>135.2</ele>
        <time>2014-05-18T09:34:45Z</time>
      </trkpt>
      <trkpt lat="44.57081" lon="0.68759">
        <ele>135.68</ele>
        <time>2014-05-18T09:34:46Z</time>
      </trkpt>
      <trkpt lat="44.57065" lon="0.6875">
        <ele>136.16</ele>
        <time>2014-05-18T09:34:55Z</time>
      </trkpt>
      <trkpt lat="44.57056" lon="0.68743">
        <ele>137.13</ele>
        <time>2014-05-18T09:35:08Z</time>
      </trkpt>
      <trkpt lat="44.57054" lon="0.68743">
        <ele>138.09</ele>
        <time>2014-05-18T09:35:26Z</time>
      </trkpt>
      <trkpt lat="44.57055" lon="0.68743">
        <ele>137.13</ele>
        <time>2014-05-18T09:35:44Z</time>
      </trkpt>
      <trkpt lat="44.57054" lon="0.68743">
        <ele>137.13</ele>
        <time>2014-05-18T09:36:17Z</time>
      </trkpt>
      <trkpt lat="44.57052" lon="0.68743">
        <ele>137.61</ele>
        <time>2014-05-18T09:36:37Z</time>
      </trkpt>
      <trkpt lat="44.5704" lon="0.68788">
        <ele>135.68</ele>
        <time>2014-05-18T09:36:50Z</time>
      </trkpt>
      <trkpt lat="44.57012" lon="0.68895">
        <ele>131.36</ele>
        <time>2014-05-18T09:37:06Z</time>
      </trkpt>
      <trkpt lat="44.56994" lon="0.6895">
        <ele>128.95</ele>
        <time>2014-05-18T09:37:15Z</time>
      </trkpt>
      <trkpt lat="44.56992" lon="0.68952">
        <ele>128.95</ele>
        <time>2014-05-18T09:37:16Z</time>
      </trkpt>
      <trkpt lat="44.5699" lon="0.68953">
        <ele>128.95</ele>
        <time>2014-05-18T09:37:17Z</time>
      </trkpt>
      <trkpt lat="44.56987" lon="0.68954">
        <ele>128.95</ele>
        <time>2014-05-18T09:37:18Z</time>
      </trkpt>
      <trkpt lat="44.56983" lon="0.68953">
        <ele>128.95</ele>
        <time>2014-05-18T09:37:19Z</time>
      </trkpt>
      <trkpt lat="44.5698" lon="0.68952">
        <ele>128.95</ele>
        <time>2014-05-18T09:37:20Z</time>
      </trkpt>
      <trkpt lat="44.5692" lon="0.68914">
        <ele>127.03</ele>
        <time>2014-05-18T09:37:34Z</time>
      </trkpt>
      <trkpt lat="44.56898" lon="0.68899">
        <ele>125.59</ele>
        <time>2014-05-18T09:37:39Z</time>
      </trkpt>
      <trkpt lat="44.56878" lon="0.68887">
        <ele>124.63</ele>
        <time>2014-05-18T09:37:43Z</time>
      </trkpt>
      <trkpt lat="44.56873" lon="0.68887">
        <ele>124.15</ele>
        <time>2014-05-18T09:37:44Z</time>
      </trkpt>
      <trkpt lat="44.56867" lon="0.6889">
        <ele>123.19</ele>
        <time>2014-05-18T09:37:45Z</time>
      </trkpt>
      <trkpt lat="44.56864" lon="0.68896">
        <ele>122.71</ele>
        <time>2014-05-18T09:37:46Z</time>
      </trkpt>
      <trkpt lat="44.56861" lon="0.68903">
        <ele>121.74</ele>
        <time>2014-05-18T09:37:47Z</time>
      </trkpt>
      <trkpt lat="44.56858" lon="0.68911">
        <ele>120.78</ele>
        <time>2014-05-18T09:37:48Z</time>
      </trkpt>
      <trkpt lat="44.56852" lon="0.68925">
        <ele>119.34</ele>
        <time>2014-05-18T09:37:50Z</time>
      </trkpt>
      <trkpt lat="44.56848" lon="0.6893">
        <ele>118.38</ele>
        <time>2014-05-18T09:37:51Z</time>
      </trkpt>
      <trkpt lat="44.56842" lon="0.68934">
        <ele>117.9</ele>
        <time>2014-05-18T09:37:52Z</time>
      </trkpt>
      <trkpt lat="44.56836" lon="0.68935">
        <ele>116.94</ele>
        <time>2014-05-18T09:37:53Z</time>
      </trkpt>
      <trkpt lat="44.56829" lon="0.68935">
        <ele>115.98</ele>
        <time>2014-05-18T09:37:54Z</time>
      </trkpt>
      <trkpt lat="44.56822" lon="0.68934">
        <ele>115.5</ele>
        <time>2014-05-18T09:37:55Z</time>
      </trkpt>
      <trkpt lat="44.56723" lon="0.68909">
        <ele>104.92</ele>
        <time>2014-05-18T09:38:06Z</time>
      </trkpt>
      <trkpt lat="44.56683" lon="0.68889">
        <ele>102.04</ele>
        <time>2014-05-18T09:38:11Z</time>
      </trkpt>
      <trkpt lat="44.56655" lon="0.6888">
        <ele>101.56</ele>
        <time>2014-05-18T09:38:15Z</time>
      </trkpt>
      <trkpt lat="44.56648" lon="0.68876">
        <ele>101.56</ele>
        <time>2014-05-18T09:38:16Z</time>
      </trkpt>
      <trkpt lat="44.56633" lon="0.68864">
        <ele>101.56</ele>
        <time>2014-05-18T09:38:19Z</time>
      </trkpt>
      <trkpt lat="44.5663" lon="0.68859">
        <ele>102.04</ele>
        <time>2014-05-18T09:38:20Z</time>
      </trkpt>
      <trkpt lat="44.5663" lon="0.68853">
        <ele>102.04</ele>
        <time>2014-05-18T09:38:21Z</time>
      </trkpt>
      <trkpt lat="44.56635" lon="0.68823">
        <ele>103.48</ele>
        <time>2014-05-18T09:38:26Z</time>
      </trkpt>
      <trkpt lat="44.56637" lon="0.68799">
        <ele>104.44</ele>
        <time>2014-05-18T09:38:30Z</time>
      </trkpt>
      <trkpt lat="44.56641" lon="0.68744">
        <ele>106.84</ele>
        <time>2014-05-18T09:38:39Z</time>
      </trkpt>
      <trkpt lat="44.56647" lon="0.68723">
        <ele>108.29</ele>
        <time>2014-05-18T09:38:43Z</time>
      </trkpt>
      <trkpt lat="44.56653" lon="0.68675">
        <ele>107.32</ele>
        <time>2014-05-18T09:38:53Z</time>
      </trkpt>
      <trkpt lat="44.56645" lon="0.68589">
        <ele>106.36</ele>
        <time>2014-05-18T09:39:11Z</time>
      </trkpt>
      <trkpt lat="44.56665" lon="0.68545">
        <ele>106.84</ele>
        <time>2014-05-18T09:39:20Z</time>
      </trkpt>
      <trkpt lat="44.56682" lon="0.68532">
        <ele>107.32</ele>
        <time>2014-05-18T09:39:25Z</time>
      </trkpt>
      <trkpt lat="44.56715" lon="0.6852">
        <ele>106.84</ele>
        <time>2014-05-18T09:39:35Z</time>
      </trkpt>
      <trkpt lat="44.56716" lon="0.68509">
        <ele>106.84</ele>
        <time>2014-05-18T09:39:37Z</time>
      </trkpt>
      <trkpt lat="44.56722" lon="0.68433">
        <ele>108.77</ele>
        <time>2014-05-18T09:39:52Z</time>
      </trkpt>
      <trkpt lat="44.56715" lon="0.68418">
        <ele>109.73</ele>
        <time>2014-05-18T09:39:56Z</time>
      </trkpt>
      <trkpt lat="44.56715" lon="0.684">
        <ele>111.65</ele>
        <time>2014-05-18T09:40:05Z</time>
      </trkpt>
      <trkpt lat="44.56691" lon="0.68377">
        <ele>114.53</ele>
        <time>2014-05-18T09:40:20Z</time>
      </trkpt>
      <trkpt lat="44.56672" lon="0.68358">
        <ele>115.98</ele>
        <time>2014-05-18T09:40:33Z</time>
      </trkpt>
      <trkpt lat="44.56662" lon="0.68352">
        <ele>117.9</ele>
        <time>2014-05-18T09:40:38Z</time>
      </trkpt>
      <trkpt lat="44.56645" lon="0.68333">
        <ele>118.86</ele>
        <time>2014-05-18T09:40:52Z</time>
      </trkpt>
      <trkpt lat="44.56637" lon="0.68324">
        <ele>119.82</ele>
        <time>2014-05-18T09:40:59Z</time>
      </trkpt>
      <trkpt lat="44.56631" lon="0.68319">
        <ele>120.3</ele>
        <time>2014-05-18T09:41:02Z</time>
      </trkpt>
      <trkpt lat="44.56621" lon="0.68313">
        <ele>120.3</ele>
        <time>2014-05-18T09:41:07Z</time>
      </trkpt>
      <trkpt lat="44.56618" lon="0.6831">
        <ele>119.82</ele>
        <time>2014-05-18T09:41:09Z</time>
      </trkpt>
      <trkpt lat="44.56599" lon="0.68298">
        <ele>122.71</ele>
        <time>2014-05-18T09:41:23Z</time>
      </trkpt>
      <trkpt lat="44.56581" lon="0.68298">
        <ele>126.55</ele>
        <time>2014-05-18T09:41:38Z</time>
      </trkpt>
      <trkpt lat="44.56573" lon="0.68297">
        <ele>129.92</ele>
        <time>2014-05-18T09:41:51Z</time>
      </trkpt>
      <trkpt lat="44.56566" lon="0.683">
        <ele>132.8</ele>
        <time>2014-05-18T09:42:05Z</time>
      </trkpt>
      <trkpt lat="44.56563" lon="0.68291">
        <ele>133.76</ele>
        <time>2014-05-18T09:42:19Z</time>
      </trkpt>
      <trkpt lat="44.56561" lon="0.6829">
        <ele>133.76</ele>
        <time>2014-05-18T09:42:29Z</time>
      </trkpt>
      <trkpt lat="44.5656" lon="0.68287">
        <ele>134.24</ele>
        <time>2014-05-18T09:42:32Z</time>
      </trkpt>
      <trkpt lat="44.56558" lon="0.6828">
        <ele>133.76</ele>
        <time>2014-05-18T09:42:36Z</time>
      </trkpt>
      <trkpt lat="44.56535" lon="0.68266">
        <ele>137.13</ele>
        <time>2014-05-18T09:42:49Z</time>
      </trkpt>
      <trkpt lat="44.56502" lon="0.68243">
        <ele>140.01</ele>
        <time>2014-05-18T09:43:03Z</time>
      </trkpt>
      <trkpt lat="44.56452" lon="0.68203">
        <ele>140.49</ele>
        <time>2014-05-18T09:43:21Z</time>
      </trkpt>
      <trkpt lat="44.56393" lon="0.68156">
        <ele>140.01</ele>
        <time>2014-05-18T09:43:39Z</time>
      </trkpt>
      <trkpt lat="44.56346" lon="0.68108">
        <ele>138.09</ele>
        <time>2014-05-18T09:43:54Z</time>
      </trkpt>
      <trkpt lat="44.56304" lon="0.68084">
        <ele>136.16</ele>
        <time>2014-05-18T09:44:07Z</time>
      </trkpt>
      <trkpt lat="44.56301" lon="0.68084">
        <ele>136.16</ele>
        <time>2014-05-18T09:44:09Z</time>
      </trkpt>
      <trkpt lat="44.56301" lon="0.68084">
        <ele>136.64</ele>
        <time>2014-05-18T09:44:20Z</time>
      </trkpt>
      <trkpt lat="44.56301" lon="0.68086">
        <ele>137.13</ele>
        <time>2014-05-18T09:44:39Z</time>
      </trkpt>
      <trkpt lat="44.563" lon="0.68088">
        <ele>138.57</ele>
        <time>2014-05-18T09:45:03Z</time>
      </trkpt>
      <trkpt lat="44.563" lon="0.68086">
        <ele>138.09</ele>
        <time>2014-05-18T09:45:19Z</time>
      </trkpt>
      <trkpt lat="44.563" lon="0.68086">
        <ele>134.24</ele>
        <time>2014-05-18T09:45:42Z</time>
      </trkpt>
      <trkpt lat="44.56291" lon="0.68091">
        <ele>134.24</ele>
        <time>2014-05-18T09:45:58Z</time>
      </trkpt>
      <trkpt lat="44.56266" lon="0.68092">
        <ele>133.28</ele>
        <time>2014-05-18T09:46:05Z</time>
      </trkpt>
      <trkpt lat="44.56261" lon="0.6809">
        <ele>132.8</ele>
        <time>2014-05-18T09:46:06Z</time>
      </trkpt>
      <trkpt lat="44.56256" lon="0.68088">
        <ele>132.32</ele>
        <time>2014-05-18T09:46:07Z</time>
      </trkpt>
      <trkpt lat="44.5625" lon="0.68086">
        <ele>131.84</ele>
        <time>2014-05-18T09:46:08Z</time>
      </trkpt>
      <trkpt lat="44.56244" lon="0.68084">
        <ele>131.36</ele>
        <time>2014-05-18T09:46:09Z</time>
      </trkpt>
      <trkpt lat="44.56237" lon="0.68082">
        <ele>130.4</ele>
        <time>2014-05-18T09:46:10Z</time>
      </trkpt>
      <trkpt lat="44.56229" lon="0.68081">
        <ele>129.43</ele>
        <time>2014-05-18T09:46:11Z</time>
      </trkpt>
      <trkpt lat="44.56221" lon="0.68082">
        <ele>128.95</ele>
        <time>2014-05-18T09:46:12Z</time>
      </trkpt>
      <trkpt lat="44.56213" lon="0.68084">
        <ele>127.99</ele>
        <time>2014-05-18T09:46:13Z</time>
      </trkpt>
      <trkpt lat="44.56204" lon="0.68088">
        <ele>127.51</ele>
        <time>2014-05-18T09:46:14Z</time>
      </trkpt>
      <trkpt lat="44.56197" lon="0.68093">
        <ele>127.03</ele>
        <time>2014-05-18T09:46:15Z</time>
      </trkpt>
      <trkpt lat="44.5619" lon="0.68101">
        <ele>126.55</ele>
        <time>2014-05-18T09:46:16Z</time>
      </trkpt>
      <trkpt lat="44.56185" lon="0.6811">
        <ele>126.07</ele>
        <time>2014-05-18T09:46:17Z</time>
      </trkpt>
      <trkpt lat="44.5618" lon="0.68119">
        <ele>126.07</ele>
        <time>2014-05-18T09:46:18Z</time>
      </trkpt>
      <trkpt lat="44.56171" lon="0.68136">
        <ele>126.07</ele>
        <time>2014-05-18T09:46:20Z</time>
      </trkpt>
      <trkpt lat="44.56165" lon="0.68142">
        <ele>126.07</ele>
        <time>2014-05-18T09:46:21Z</time>
      </trkpt>
      <trkpt lat="44.56159" lon="0.68146">
        <ele>126.55</ele>
        <time>2014-05-18T09:46:22Z</time>
      </trkpt>
      <trkpt lat="44.56148" lon="0.68153">
        <ele>127.03</ele>
        <time>2014-05-18T09:46:24Z</time>
      </trkpt>
      <trkpt lat="44.56144" lon="0.68154">
        <ele>127.03</ele>
        <time>2014-05-18T09:46:25Z</time>
      </trkpt>
      <trkpt lat="44.5614" lon="0.68154">
        <ele>127.03</ele>
        <time>2014-05-18T09:46:26Z</time>
      </trkpt>
      <trkpt lat="44.56137" lon="0.68153">
        <ele>127.03</ele>
        <time>2014-05-18T09:46:27Z</time>
      </trkpt>
      <trkpt lat="44.56135" lon="0.68149">
        <ele>126.55</ele>
        <time>2014-05-18T09:46:28Z</time>
      </trkpt>
      <trkpt lat="44.56135" lon="0.68144">
        <ele>126.07</ele>
        <time>2014-05-18T09:46:29Z</time>
      </trkpt>
      <trkpt lat="44.56136" lon="0.68138">
        <ele>125.59</ele>
        <time>2014-05-18T09:46:30Z</time>
      </trkpt>
      <trkpt lat="44.56138" lon="0.68131">
        <ele>125.59</ele>
        <time>2014-05-18T09:46:31Z</time>
      </trkpt>
      <trkpt lat="44.5614" lon="0.68123">
        <ele>125.11</ele>
        <time>2014-05-18T09:46:32Z</time>
      </trkpt>
      <trkpt lat="44.56151" lon="0.68058">
        <ele>121.26</ele>
        <time>2014-05-18T09:46:39Z</time>
      </trkpt>
      <trkpt lat="44.56151" lon="0.68047">
        <ele>120.78</ele>
        <time>2014-05-18T09:46:40Z</time>
      </trkpt>
      <trkpt lat="44.56151" lon="0.68036">
        <ele>120.3</ele>
        <time>2014-05-18T09:46:41Z</time>
      </trkpt>
      <trkpt lat="44.5615" lon="0.68025">
        <ele>119.34</ele>
        <time>2014-05-18T09:46:42Z</time>
      </trkpt>
      <trkpt lat="44.56147" lon="0.68013">
        <ele>118.86</ele>
        <time>2014-05-18T09:46:43Z</time>
      </trkpt>
      <trkpt lat="44.56143" lon="0.68002">
        <ele>118.38</ele>
        <time>2014-05-18T09:46:44Z</time>
      </trkpt>
      <trkpt lat="44.56139" lon="0.67991">
        <ele>117.9</ele>
        <time>2014-05-18T09:46:45Z</time>
      </trkpt>
      <trkpt lat="44.56134" lon="0.6798">
        <ele>117.42</ele>
        <time>2014-05-18T09:46:46Z</time>
      </trkpt>
      <trkpt lat="44.56128" lon="0.67971">
        <ele>116.94</ele>
        <time>2014-05-18T09:46:47Z</time>
      </trkpt>
      <trkpt lat="44.56101" lon="0.67934">
        <ele>116.94</ele>
        <time>2014-05-18T09:46:52Z</time>
      </trkpt>
      <trkpt lat="44.56078" lon="0.67899">
        <ele>119.34</ele>
        <time>2014-05-18T09:46:57Z</time>
      </trkpt>
      <trkpt lat="44.56073" lon="0.67895">
        <ele>119.82</ele>
        <time>2014-05-18T09:46:58Z</time>
      </trkpt>
      <trkpt lat="44.56069" lon="0.67893">
        <ele>120.3</ele>
        <time>2014-05-18T09:46:59Z</time>
      </trkpt>
      <trkpt lat="44.56064" lon="0.67893">
        <ele>120.78</ele>
        <time>2014-05-18T09:47:00Z</time>
      </trkpt>
      <trkpt lat="44.56059" lon="0.67894">
        <ele>121.26</ele>
        <time>2014-05-18T09:47:01Z</time>
      </trkpt>
      <trkpt lat="44.56055" lon="0.67897">
        <ele>121.74</ele>
        <time>2014-05-18T09:47:02Z</time>
      </trkpt>
      <trkpt lat="44.56027" lon="0.67907">
        <ele>120.78</ele>
        <time>2014-05-18T09:47:08Z</time>
      </trkpt>
      <trkpt lat="44.56022" lon="0.67907">
        <ele>120.3</ele>
        <time>2014-05-18T09:47:09Z</time>
      </trkpt>
      <trkpt lat="44.56017" lon="0.67903">
        <ele>119.82</ele>
        <time>2014-05-18T09:47:10Z</time>
      </trkpt>
      <trkpt lat="44.56013" lon="0.67899">
        <ele>119.82</ele>
        <time>2014-05-18T09:47:11Z</time>
      </trkpt>
      <trkpt lat="44.55986" lon="0.6787">
        <ele>115.5</ele>
        <time>2014-05-18T09:47:18Z</time>
      </trkpt>
      <trkpt lat="44.55986" lon="0.67868">
        <ele>115.01</ele>
        <time>2014-05-18T09:47:30Z</time>
      </trkpt>
      <trkpt lat="44.55986" lon="0.6787">
        <ele>115.01</ele>
        <time>2014-05-18T09:47:51Z</time>
      </trkpt>
      <trkpt lat="44.55985" lon="0.6787">
        <ele>115.01</ele>
        <time>2014-05-18T09:47:53Z</time>
      </trkpt>
      <trkpt lat="44.55982" lon="0.67867">
        <ele>115.01</ele>
        <time>2014-05-18T09:48:05Z</time>
      </trkpt>
      <trkpt lat="44.5597" lon="0.67854">
        <ele>115.01</ele>
        <time>2014-05-18T09:48:16Z</time>
      </trkpt>
      <trkpt lat="44.55932" lon="0.6781">
        <ele>112.13</ele>
        <time>2014-05-18T09:48:27Z</time>
      </trkpt>
      <trkpt lat="44.55893" lon="0.67768">
        <ele>111.65</ele>
        <time>2014-05-18T09:48:37Z</time>
      </trkpt>
      <trkpt lat="44.55844" lon="0.67715">
        <ele>110.69</ele>
        <time>2014-05-18T09:48:53Z</time>
      </trkpt>
      <trkpt lat="44.55816" lon="0.67692">
        <ele>111.17</ele>
        <time>2014-05-18T09:49:05Z</time>
      </trkpt>
      <trkpt lat="44.55784" lon="0.67664">
        <ele>112.61</ele>
        <time>2014-05-18T09:49:17Z</time>
      </trkpt>
      <trkpt lat="44.55755" lon="0.6764">
        <ele>115.5</ele>
        <time>2014-05-18T09:49:31Z</time>
      </trkpt>
      <trkpt lat="44.55729" lon="0.67619">
        <ele>118.38</ele>
        <time>2014-05-18T09:49:45Z</time>
      </trkpt>
      <trkpt lat="44.5572" lon="0.67613">
        <ele>119.82</ele>
        <time>2014-05-18T09:49:51Z</time>
      </trkpt>
      <trkpt lat="44.55711" lon="0.67607">
        <ele>121.26</ele>
        <time>2014-05-18T09:49:56Z</time>
      </trkpt>
      <trkpt lat="44.55685" lon="0.67591">
        <ele>126.07</ele>
        <time>2014-05-18T09:50:11Z</time>
      </trkpt>
      <trkpt lat="44.55673" lon="0.67581">
        <ele>127.51</ele>
        <time>2014-05-18T09:50:21Z</time>
      </trkpt>
      <trkpt lat="44.55665" lon="0.67577">
        <ele>128.95</ele>
        <time>2014-05-18T09:50:25Z</time>
      </trkpt>
      <trkpt lat="44.55656" lon="0.67566">
        <ele>129.92</ele>
        <time>2014-05-18T09:50:33Z</time>
      </trkpt>
      <trkpt lat="44.55654" lon="0.67552">
        <ele>133.28</ele>
        <time>2014-05-18T09:50:46Z</time>
      </trkpt>
      <trkpt lat="44.55653" lon="0.67542">
        <ele>135.68</ele>
        <time>2014-05-18T09:50:58Z</time>
      </trkpt>
      <trkpt lat="44.5565" lon="0.67524">
        <ele>133.76</ele>
        <time>2014-05-18T09:51:13Z</time>
      </trkpt>
      <trkpt lat="44.55648" lon="0.6752">
        <ele>133.28</ele>
        <time>2014-05-18T09:51:15Z</time>
      </trkpt>
      <trkpt lat="44.55646" lon="0.6751">
        <ele>132.8</ele>
        <time>2014-05-18T09:51:19Z</time>
      </trkpt>
      <trkpt lat="44.55642" lon="0.67501">
        <ele>133.76</ele>
        <time>2014-05-18T09:51:23Z</time>
      </trkpt>
      <trkpt lat="44.55635" lon="0.67491">
        <ele>135.2</ele>
        <time>2014-05-18T09:51:28Z</time>
      </trkpt>
      <trkpt lat="44.55632" lon="0.67482">
        <ele>135.68</ele>
        <time>2014-05-18T09:51:41Z</time>
      </trkpt>
      <trkpt lat="44.5563" lon="0.67479">
        <ele>137.61</ele>
        <time>2014-05-18T09:52:03Z</time>
      </trkpt>
      <trkpt lat="44.55629" lon="0.67473">
        <ele>138.57</ele>
        <time>2014-05-18T09:52:30Z</time>
      </trkpt>
      <trkpt lat="44.5563" lon="0.67471">
        <ele>144.82</ele>
        <time>2014-05-18T09:52:57Z</time>
      </trkpt>
      <trkpt lat="44.5564" lon="0.67452">
        <ele>142.89</ele>
        <time>2014-05-18T09:53:08Z</time>
      </trkpt>
      <trkpt lat="44.55659" lon="0.67422">
        <ele>140.01</ele>
        <time>2014-05-18T09:53:20Z</time>
      </trkpt>
      <trkpt lat="44.55668" lon="0.67404">
        <ele>139.05</ele>
        <time>2014-05-18T09:53:24Z</time>
      </trkpt>
      <trkpt lat="44.55699" lon="0.6733">
        <ele>135.2</ele>
        <time>2014-05-18T09:53:37Z</time>
      </trkpt>
      <trkpt lat="44.55707" lon="0.67305">
        <ele>135.2</ele>
        <time>2014-05-18T09:53:46Z</time>
      </trkpt>
      <trkpt lat="44.55722" lon="0.67264">
        <ele>134.24</ele>
        <time>2014-05-18T09:54:00Z</time>
      </trkpt>
      <trkpt lat="44.55736" lon="0.67221">
        <ele>134.72</ele>
        <time>2014-05-18T09:54:13Z</time>
      </trkpt>
      <trkpt lat="44.55749" lon="0.67152">
        <ele>136.16</ele>
        <time>2014-05-18T09:54:27Z</time>
      </trkpt>
      <trkpt lat="44.55763" lon="0.67072">
        <ele>136.64</ele>
        <time>2014-05-18T09:54:44Z</time>
      </trkpt>
      <trkpt lat="44.55778" lon="0.67011">
        <ele>139.05</ele>
        <time>2014-05-18T09:54:58Z</time>
      </trkpt>
      <trkpt lat="44.55799" lon="0.66935">
        <ele>138.57</ele>
        <time>2014-05-18T09:55:13Z</time>
      </trkpt>
      <trkpt lat="44.55817" lon="0.66879">
        <ele>141.93</ele>
        <time>2014-05-18T09:55:26Z</time>
      </trkpt>
      <trkpt lat="44.55831" lon="0.66831">
        <ele>145.78</ele>
        <time>2014-05-18T09:55:40Z</time>
      </trkpt>
      <trkpt lat="44.55843" lon="0.66796">
        <ele>147.7</ele>
        <time>2014-05-18T09:55:50Z</time>
      </trkpt>
      <trkpt lat="44.55856" lon="0.66755">
        <ele>146.74</ele>
        <time>2014-05-18T09:56:02Z</time>
      </trkpt>
      <trkpt lat="44.55882" lon="0.66681">
        <ele>145.78</ele>
        <time>2014-05-18T09:56:17Z</time>
      </trkpt>
      <trkpt lat="44.55889" lon="0.66661">
        <ele>145.3</ele>
        <time>2014-05-18T09:56:21Z</time>
      </trkpt>
      <trkpt lat="44.55889" lon="0.66645">
        <ele>144.82</ele>
        <time>2014-05-18T09:56:30Z</time>
      </trkpt>
      <trkpt lat="44.55889" lon="0.66642">
        <ele>145.78</ele>
        <time>2014-05-18T09:56:48Z</time>
      </trkpt>
      <trkpt lat="44.55888" lon="0.6664">
        <ele>146.74</ele>
        <time>2014-05-18T09:56:59Z</time>
      </trkpt>
      <trkpt lat="44.55911" lon="0.66622">
        <ele>147.22</ele>
        <time>2014-05-18T09:57:09Z</time>
      </trkpt>
      <trkpt lat="44.55977" lon="0.66582">
        <ele>144.82</ele>
        <time>2014-05-18T09:57:22Z</time>
      </trkpt>
      <trkpt lat="44.56014" lon="0.66578">
        <ele>144.34</ele>
        <time>2014-05-18T09:57:28Z</time>
      </trkpt>
      <trkpt lat="44.56018" lon="0.66575">
        <ele>144.34</ele>
        <time>2014-05-18T09:57:29Z</time>
      </trkpt>
      <trkpt lat="44.56021" lon="0.6657">
        <ele>143.85</ele>
        <time>2014-05-18T09:57:30Z</time>
      </trkpt>
      <trkpt lat="44.56023" lon="0.66564">
        <ele>143.85</ele>
        <time>2014-05-18T09:57:31Z</time>
      </trkpt>
      <trkpt lat="44.56022" lon="0.66558">
        <ele>143.85</ele>
        <time>2014-05-18T09:57:32Z</time>
      </trkpt>
      <trkpt lat="44.56021" lon="0.66551">
        <ele>144.34</ele>
        <time>2014-05-18T09:57:33Z</time>
      </trkpt>
      <trkpt lat="44.56019" lon="0.66544">
        <ele>144.34</ele>
        <time>2014-05-18T09:57:34Z</time>
      </trkpt>
      <trkpt lat="44.56017" lon="0.66537">
        <ele>144.34</ele>
        <time>2014-05-18T09:57:35Z</time>
      </trkpt>
      <trkpt lat="44.55985" lon="0.66422">
        <ele>146.26</ele>
        <time>2014-05-18T09:57:50Z</time>
      </trkpt>
      <trkpt lat="44.55975" lon="0.66354">
        <ele>149.14</ele>
        <time>2014-05-18T09:57:59Z</time>
      </trkpt>
      <trkpt lat="44.55975" lon="0.66347">
        <ele>149.62</ele>
        <time>2014-05-18T09:58:00Z</time>
      </trkpt>
      <trkpt lat="44.55976" lon="0.66326">
        <ele>150.1</ele>
        <time>2014-05-18T09:58:03Z</time>
      </trkpt>
      <trkpt lat="44.55992" lon="0.66232">
        <ele>145.3</ele>
        <time>2014-05-18T09:58:15Z</time>
      </trkpt>
      <trkpt lat="44.56027" lon="0.66006">
        <ele>136.16</ele>
        <time>2014-05-18T09:58:32Z</time>
      </trkpt>
      <trkpt lat="44.56035" lon="0.65957">
        <ele>134.24</ele>
        <time>2014-05-18T09:58:36Z</time>
      </trkpt>
      <trkpt lat="44.56038" lon="0.65947">
        <ele>133.76</ele>
        <time>2014-05-18T09:58:37Z</time>
      </trkpt>
      <trkpt lat="44.56043" lon="0.65938">
        <ele>133.76</ele>
        <time>2014-05-18T09:58:38Z</time>
      </trkpt>
      <trkpt lat="44.56049" lon="0.65931">
        <ele>133.28</ele>
        <time>2014-05-18T09:58:39Z</time>
      </trkpt>
      <trkpt lat="44.56055" lon="0.65926">
        <ele>132.8</ele>
        <time>2014-05-18T09:58:40Z</time>
      </trkpt>
      <trkpt lat="44.56063" lon="0.65921">
        <ele>132.8</ele>
        <time>2014-05-18T09:58:41Z</time>
      </trkpt>
      <trkpt lat="44.5607" lon="0.65917">
        <ele>132.32</ele>
        <time>2014-05-18T09:58:42Z</time>
      </trkpt>
      <trkpt lat="44.56078" lon="0.65914">
        <ele>131.84</ele>
        <time>2014-05-18T09:58:43Z</time>
      </trkpt>
      <trkpt lat="44.561" lon="0.65903">
        <ele>130.88</ele>
        <time>2014-05-18T09:58:46Z</time>
      </trkpt>
      <trkpt lat="44.56107" lon="0.65897">
        <ele>130.4</ele>
        <time>2014-05-18T09:58:47Z</time>
      </trkpt>
      <trkpt lat="44.56113" lon="0.6589">
        <ele>129.92</ele>
        <time>2014-05-18T09:58:48Z</time>
      </trkpt>
      <trkpt lat="44.56119" lon="0.65881">
        <ele>129.92</ele>
        <time>2014-05-18T09:58:49Z</time>
      </trkpt>
      <trkpt lat="44.56124" lon="0.65872">
        <ele>129.92</ele>
        <time>2014-05-18T09:58:50Z</time>
      </trkpt>
      <trkpt lat="44.56128" lon="0.65863">
        <ele>129.92</ele>
        <time>2014-05-18T09:58:51Z</time>
      </trkpt>
      <trkpt lat="44.56159" lon="0.65794">
        <ele>129.92</ele>
        <time>2014-05-18T09:59:01Z</time>
      </trkpt>
      <trkpt lat="44.56159" lon="0.65789">
        <ele>129.92</ele>
        <time>2014-05-18T09:59:02Z</time>
      </trkpt>
      <trkpt lat="44.56159" lon="0.65784">
        <ele>129.92</ele>
        <time>2014-05-18T09:59:03Z</time>
      </trkpt>
      <trkpt lat="44.56159" lon="0.65779">
        <ele>129.43</ele>
        <time>2014-05-18T09:59:04Z</time>
      </trkpt>
      <trkpt lat="44.56163" lon="0.65751">
        <ele>128.95</ele>
        <time>2014-05-18T09:59:09Z</time>
      </trkpt>
      <trkpt lat="44.56176" lon="0.65671">
        <ele>130.4</ele>
        <time>2014-05-18T09:59:22Z</time>
      </trkpt>
      <trkpt lat="44.56183" lon="0.65647">
        <ele>130.88</ele>
        <time>2014-05-18T09:59:26Z</time>
      </trkpt>
      <trkpt lat="44.56189" lon="0.65631">
        <ele>130.88</ele>
        <time>2014-05-18T09:59:30Z</time>
      </trkpt>
      <trkpt lat="44.56193" lon="0.65625">
        <ele>130.4</ele>
        <time>2014-05-18T09:59:44Z</time>
      </trkpt>
      <trkpt lat="44.56193" lon="0.65626">
        <ele>130.4</ele>
        <time>2014-05-18T10:00:12Z</time>
      </trkpt>
      <trkpt lat="44.56198" lon="0.65616">
        <ele>130.4</ele>
        <time>2014-05-18T10:00:32Z</time>
      </trkpt>
      <trkpt lat="44.56201" lon="0.65612">
        <ele>130.4</ele>
        <time>2014-05-18T10:00:33Z</time>
      </trkpt>
      <trkpt lat="44.56214" lon="0.6558">
        <ele>128.95</ele>
        <time>2014-05-18T10:00:38Z</time>
      </trkpt>
      <trkpt lat="44.56232" lon="0.65553">
        <ele>126.55</ele>
        <time>2014-05-18T10:00:42Z</time>
      </trkpt>
      <trkpt lat="44.56274" lon="0.655">
        <ele>116.46</ele>
        <time>2014-05-18T10:00:53Z</time>
      </trkpt>
      <trkpt lat="44.56298" lon="0.65476">
        <ele>110.69</ele>
        <time>2014-05-18T10:01:03Z</time>
      </trkpt>
      <trkpt lat="44.56309" lon="0.65466">
        <ele>109.25</ele>
        <time>2014-05-18T10:01:07Z</time>
      </trkpt>
      <trkpt lat="44.56318" lon="0.65436">
        <ele>106.36</ele>
        <time>2014-05-18T10:01:12Z</time>
      </trkpt>
      <trkpt lat="44.56326" lon="0.6535">
        <ele>99.63</ele>
        <time>2014-05-18T10:01:22Z</time>
      </trkpt>
      <trkpt lat="44.56334" lon="0.65283">
        <ele>97.71</ele>
        <time>2014-05-18T10:01:34Z</time>
      </trkpt>
      <trkpt lat="44.56351" lon="0.6527">
        <ele>97.71</ele>
        <time>2014-05-18T10:01:43Z</time>
      </trkpt>
      <trkpt lat="44.56357" lon="0.65269">
        <ele>96.75</ele>
        <time>2014-05-18T10:01:55Z</time>
      </trkpt>
      <trkpt lat="44.56359" lon="0.65268">
        <ele>97.23</ele>
        <time>2014-05-18T10:02:15Z</time>
      </trkpt>
      <trkpt lat="44.56359" lon="0.65267">
        <ele>98.19</ele>
        <time>2014-05-18T10:02:29Z</time>
      </trkpt>
      <trkpt lat="44.56359" lon="0.65267">
        <ele>98.19</ele>
        <time>2014-05-18T10:02:37Z</time>
      </trkpt>
      <trkpt lat="44.56362" lon="0.65265">
        <ele>97.71</ele>
        <time>2014-05-18T10:02:51Z</time>
      </trkpt>
      <trkpt lat="44.56372" lon="0.65255">
        <ele>96.27</ele>
        <time>2014-05-18T10:03:02Z</time>
      </trkpt>
      <trkpt lat="44.56376" lon="0.65252">
        <ele>98.67</ele>
        <time>2014-05-18T10:03:15Z</time>
      </trkpt>
      <trkpt lat="44.56378" lon="0.65251">
        <ele>101.08</ele>
        <time>2014-05-18T10:03:36Z</time>
      </trkpt>
      <trkpt lat="44.56379" lon="0.6525">
        <ele>101.08</ele>
        <time>2014-05-18T10:03:59Z</time>
      </trkpt>
      <trkpt lat="44.5638" lon="0.65247">
        <ele>101.08</ele>
        <time>2014-05-18T10:04:26Z</time>
      </trkpt>
      <trkpt lat="44.56378" lon="0.65248">
        <ele>101.08</ele>
        <time>2014-05-18T10:04:44Z</time>
      </trkpt>
      <trkpt lat="44.56379" lon="0.65248">
        <ele>99.15</ele>
        <time>2014-05-18T10:05:14Z</time>
      </trkpt>
      <trkpt lat="44.5638" lon="0.65247">
        <ele>98.67</ele>
        <time>2014-05-18T10:05:25Z</time>
      </trkpt>
      <trkpt lat="44.56402" lon="0.65229">
        <ele>99.63</ele>
        <time>2014-05-18T10:05:36Z</time>
      </trkpt>
      <trkpt lat="44.56438" lon="0.65204">
        <ele>101.56</ele>
        <time>2014-05-18T10:05:48Z</time>
      </trkpt>
      <trkpt lat="44.56473" lon="0.65175">
        <ele>103.48</ele>
        <time>2014-05-18T10:06:03Z</time>
      </trkpt>
      <trkpt lat="44.56486" lon="0.65155">
        <ele>103.48</ele>
        <time>2014-05-18T10:06:14Z</time>
      </trkpt>
      <trkpt lat="44.56487" lon="0.65154">
        <ele>103.48</ele>
        <time>2014-05-18T10:06:15Z</time>
      </trkpt>
      <trkpt lat="44.56491" lon="0.65142">
        <ele>102.04</ele>
        <time>2014-05-18T10:06:26Z</time>
      </trkpt>
      <trkpt lat="44.565" lon="0.65117">
        <ele>103.96</ele>
        <time>2014-05-18T10:06:35Z</time>
      </trkpt>
      <trkpt lat="44.56514" lon="0.65088">
        <ele>107.32</ele>
        <time>2014-05-18T10:06:47Z</time>
      </trkpt>
      <trkpt lat="44.56527" lon="0.65046">
        <ele>110.69</ele>
        <time>2014-05-18T10:07:02Z</time>
      </trkpt>
      <trkpt lat="44.56544" lon="0.65">
        <ele>113.57</ele>
        <time>2014-05-18T10:07:18Z</time>
      </trkpt>
      <trkpt lat="44.56557" lon="0.64964">
        <ele>115.5</ele>
        <time>2014-05-18T10:07:32Z</time>
      </trkpt>
      <trkpt lat="44.56582" lon="0.64902">
        <ele>117.42</ele>
        <time>2014-05-18T10:07:51Z</time>
      </trkpt>
      <trkpt lat="44.56601" lon="0.64858">
        <ele>119.82</ele>
        <time>2014-05-18T10:08:07Z</time>
      </trkpt>
      <trkpt lat="44.56602" lon="0.64849">
        <ele>119.82</ele>
        <time>2014-05-18T10:08:10Z</time>
      </trkpt>
      <trkpt lat="44.56601" lon="0.64846">
        <ele>119.82</ele>
        <time>2014-05-18T10:08:11Z</time>
      </trkpt>
      <trkpt lat="44.566" lon="0.64844">
        <ele>119.34</ele>
        <time>2014-05-18T10:08:12Z</time>
      </trkpt>
      <trkpt lat="44.56598" lon="0.64843">
        <ele>119.34</ele>
        <time>2014-05-18T10:08:13Z</time>
      </trkpt>
      <trkpt lat="44.56595" lon="0.64842">
        <ele>119.82</ele>
        <time>2014-05-18T10:08:14Z</time>
      </trkpt>
      <trkpt lat="44.56564" lon="0.64819">
        <ele>120.78</ele>
        <time>2014-05-18T10:08:27Z</time>
      </trkpt>
      <trkpt lat="44.56536" lon="0.64806">
        <ele>119.82</ele>
        <time>2014-05-18T10:08:40Z</time>
      </trkpt>
      <trkpt lat="44.56533" lon="0.64802">
        <ele>117.9</ele>
        <time>2014-05-18T10:08:55Z</time>
      </trkpt>
      <trkpt lat="44.56526" lon="0.64796">
        <ele>117.9</ele>
        <time>2014-05-18T10:09:01Z</time>
      </trkpt>
      <trkpt lat="44.56524" lon="0.64795">
        <ele>117.42</ele>
        <time>2014-05-18T10:09:02Z</time>
      </trkpt>
      <trkpt lat="44.56523" lon="0.64793">
        <ele>117.42</ele>
        <time>2014-05-18T10:09:03Z</time>
      </trkpt>
      <trkpt lat="44.5652" lon="0.64791">
        <ele>117.42</ele>
        <time>2014-05-18T10:09:04Z</time>
      </trkpt>
      <trkpt lat="44.56517" lon="0.64789">
        <ele>116.94</ele>
        <time>2014-05-18T10:09:05Z</time>
      </trkpt>
      <trkpt lat="44.56514" lon="0.64787">
        <ele>116.46</ele>
        <time>2014-05-18T10:09:06Z</time>
      </trkpt>
      <trkpt lat="44.56482" lon="0.64761">
        <ele>110.21</ele>
        <time>2014-05-18T10:09:16Z</time>
      </trkpt>
      <trkpt lat="44.5644" lon="0.64715">
        <ele>100.11</ele>
        <time>2014-05-18T10:09:28Z</time>
      </trkpt>
      <trkpt lat="44.56436" lon="0.64712">
        <ele>100.6</ele>
        <time>2014-05-18T10:09:39Z</time>
      </trkpt>
      <trkpt lat="44.56432" lon="0.64707">
        <ele>104.44</ele>
        <time>2014-05-18T10:10:04Z</time>
      </trkpt>
      <trkpt lat="44.5642" lon="0.64695">
        <ele>103</ele>
        <time>2014-05-18T10:10:18Z</time>
      </trkpt>
      <trkpt lat="44.56407" lon="0.6468">
        <ele>101.08</ele>
        <time>2014-05-18T10:10:30Z</time>
      </trkpt>
      <trkpt lat="44.56374" lon="0.64644">
        <ele>101.56</ele>
        <time>2014-05-18T10:10:40Z</time>
      </trkpt>
      <trkpt lat="44.56346" lon="0.64591">
        <ele>103.96</ele>
        <time>2014-05-18T10:10:51Z</time>
      </trkpt>
      <trkpt lat="44.56325" lon="0.64556">
        <ele>108.77</ele>
        <time>2014-05-18T10:11:02Z</time>
      </trkpt>
      <trkpt lat="44.563" lon="0.64532">
        <ele>113.09</ele>
        <time>2014-05-18T10:11:17Z</time>
      </trkpt>
      <trkpt lat="44.56281" lon="0.64503">
        <ele>113.57</ele>
        <time>2014-05-18T10:11:31Z</time>
      </trkpt>
      <trkpt lat="44.56264" lon="0.64464">
        <ele>118.38</ele>
        <time>2014-05-18T10:11:48Z</time>
      </trkpt>
      <trkpt lat="44.56233" lon="0.6444">
        <ele>122.71</ele>
        <time>2014-05-18T10:12:01Z</time>
      </trkpt>
      <trkpt lat="44.56188" lon="0.64444">
        <ele>125.11</ele>
        <time>2014-05-18T10:12:14Z</time>
      </trkpt>
      <trkpt lat="44.56175" lon="0.64456">
        <ele>126.07</ele>
        <time>2014-05-18T10:12:18Z</time>
      </trkpt>
      <trkpt lat="44.56171" lon="0.6446">
        <ele>126.55</ele>
        <time>2014-05-18T10:12:19Z</time>
      </trkpt>
      <trkpt lat="44.56168" lon="0.64465">
        <ele>127.03</ele>
        <time>2014-05-18T10:12:20Z</time>
      </trkpt>
      <trkpt lat="44.56165" lon="0.64469">
        <ele>127.51</ele>
        <time>2014-05-18T10:12:21Z</time>
      </trkpt>
      <trkpt lat="44.56161" lon="0.64472">
        <ele>127.51</ele>
        <time>2014-05-18T10:12:22Z</time>
      </trkpt>
      <trkpt lat="44.56117" lon="0.64512">
        <ele>131.36</ele>
        <time>2014-05-18T10:12:35Z</time>
      </trkpt>
      <trkpt lat="44.56114" lon="0.64512">
        <ele>131.36</ele>
        <time>2014-05-18T10:12:36Z</time>
      </trkpt>
      <trkpt lat="44.56111" lon="0.64509">
        <ele>131.84</ele>
        <time>2014-05-18T10:12:37Z</time>
      </trkpt>
      <trkpt lat="44.56108" lon="0.64505">
        <ele>132.32</ele>
        <time>2014-05-18T10:12:38Z</time>
      </trkpt>
      <trkpt lat="44.56107" lon="0.64499">
        <ele>132.8</ele>
        <time>2014-05-18T10:12:39Z</time>
      </trkpt>
      <trkpt lat="44.56107" lon="0.64494">
        <ele>133.28</ele>
        <time>2014-05-18T10:12:40Z</time>
      </trkpt>
      <trkpt lat="44.56109" lon="0.64457">
        <ele>134.72</ele>
        <time>2014-05-18T10:12:50Z</time>
      </trkpt>
      <trkpt lat="44.56108" lon="0.64455">
        <ele>135.2</ele>
        <time>2014-05-18T10:13:01Z</time>
      </trkpt>
      <trkpt lat="44.56109" lon="0.64454">
        <ele>135.2</ele>
        <time>2014-05-18T10:13:20Z</time>
      </trkpt>
      <trkpt lat="44.56109" lon="0.64452">
        <ele>135.2</ele>
        <time>2014-05-18T10:13:21Z</time>
      </trkpt>
      <trkpt lat="44.5611" lon="0.6445">
        <ele>135.2</ele>
        <time>2014-05-18T10:13:22Z</time>
      </trkpt>
      <trkpt lat="44.5611" lon="0.64448">
        <ele>135.2</ele>
        <time>2014-05-18T10:13:23Z</time>
      </trkpt>
      <trkpt lat="44.56111" lon="0.64446">
        <ele>135.2</ele>
        <time>2014-05-18T10:13:24Z</time>
      </trkpt>
      <trkpt lat="44.56112" lon="0.64443">
        <ele>135.68</ele>
        <time>2014-05-18T10:13:25Z</time>
      </trkpt>
      <trkpt lat="44.56113" lon="0.64441">
        <ele>135.68</ele>
        <time>2014-05-18T10:13:26Z</time>
      </trkpt>
      <trkpt lat="44.56115" lon="0.64439">
        <ele>135.68</ele>
        <time>2014-05-18T10:13:27Z</time>
      </trkpt>
      <trkpt lat="44.56117" lon="0.64438">
        <ele>135.68</ele>
        <time>2014-05-18T10:13:28Z</time>
      </trkpt>
      <trkpt lat="44.56119" lon="0.64437">
        <ele>136.16</ele>
        <time>2014-05-18T10:13:29Z</time>
      </trkpt>
      <trkpt lat="44.56121" lon="0.64437">
        <ele>136.16</ele>
        <time>2014-05-18T10:13:30Z</time>
      </trkpt>
      <trkpt lat="44.56123" lon="0.64437">
        <ele>136.64</ele>
        <time>2014-05-18T10:13:31Z</time>
      </trkpt>
      <trkpt lat="44.56124" lon="0.64437">
        <ele>137.13</ele>
        <time>2014-05-18T10:13:32Z</time>
      </trkpt>
      <trkpt lat="44.56126" lon="0.64437">
        <ele>137.13</ele>
        <time>2014-05-18T10:13:33Z</time>
      </trkpt>
      <trkpt lat="44.56127" lon="0.64438">
        <ele>137.13</ele>
        <time>2014-05-18T10:13:34Z</time>
      </trkpt>
      <trkpt lat="44.56128" lon="0.64439">
        <ele>137.61</ele>
        <time>2014-05-18T10:13:35Z</time>
      </trkpt>
      <trkpt lat="44.56131" lon="0.64441">
        <ele>139.05</ele>
        <time>2014-05-18T10:13:47Z</time>
      </trkpt>
      <trkpt lat="44.56133" lon="0.64439">
        <ele>140.97</ele>
        <time>2014-05-18T10:14:26Z</time>
      </trkpt>
      <trkpt lat="44.56134" lon="0.64437">
        <ele>141.45</ele>
        <time>2014-05-18T10:14:57Z</time>
      </trkpt>
      <trkpt lat="44.56135" lon="0.6444">
        <ele>139.53</ele>
        <time>2014-05-18T10:15:21Z</time>
      </trkpt>
      <trkpt lat="44.56131" lon="0.64439">
        <ele>138.09</ele>
        <time>2014-05-18T10:15:39Z</time>
      </trkpt>
      <trkpt lat="44.56124" lon="0.64436">
        <ele>137.13</ele>
        <time>2014-05-18T10:15:54Z</time>
      </trkpt>
      <trkpt lat="44.56122" lon="0.64436">
        <ele>138.57</ele>
        <time>2014-05-18T10:16:13Z</time>
      </trkpt>
      <trkpt lat="44.56122" lon="0.64436">
        <ele>139.05</ele>
        <time>2014-05-18T10:16:33Z</time>
      </trkpt>
      <trkpt lat="44.5612" lon="0.64436">
        <ele>138.09</ele>
        <time>2014-05-18T10:16:54Z</time>
      </trkpt>
      <trkpt lat="44.56123" lon="0.64436">
        <ele>138.09</ele>
        <time>2014-05-18T10:17:18Z</time>
      </trkpt>
      <trkpt lat="44.56121" lon="0.64433">
        <ele>138.57</ele>
        <time>2014-05-18T10:17:42Z</time>
      </trkpt>
      <trkpt lat="44.5612" lon="0.64431">
        <ele>138.57</ele>
        <time>2014-05-18T10:17:44Z</time>
      </trkpt>
      <trkpt lat="44.56119" lon="0.64429">
        <ele>138.57</ele>
        <time>2014-05-18T10:17:45Z</time>
      </trkpt>
      <trkpt lat="44.56119" lon="0.64428">
        <ele>138.57</ele>
        <time>2014-05-18T10:17:46Z</time>
      </trkpt>
      <trkpt lat="44.56119" lon="0.64426">
        <ele>138.57</ele>
        <time>2014-05-18T10:17:47Z</time>
      </trkpt>
      <trkpt lat="44.56119" lon="0.64424">
        <ele>138.57</ele>
        <time>2014-05-18T10:17:48Z</time>
      </trkpt>
      <trkpt lat="44.56119" lon="0.64422">
        <ele>138.57</ele>
        <time>2014-05-18T10:17:49Z</time>
      </trkpt>
      <trkpt lat="44.56119" lon="0.64419">
        <ele>138.57</ele>
        <time>2014-05-18T10:17:50Z</time>
      </trkpt>
      <trkpt lat="44.56119" lon="0.64417">
        <ele>139.05</ele>
        <time>2014-05-18T10:17:51Z</time>
      </trkpt>
      <trkpt lat="44.56116" lon="0.64377">
        <ele>139.53</ele>
        <time>2014-05-18T10:18:04Z</time>
      </trkpt>
      <trkpt lat="44.56104" lon="0.64305">
        <ele>141.45</ele>
        <time>2014-05-18T10:18:21Z</time>
      </trkpt>
      <trkpt lat="44.56084" lon="0.64228">
        <ele>142.41</ele>
        <time>2014-05-18T10:18:37Z</time>
      </trkpt>
      <trkpt lat="44.56055" lon="0.64153">
        <ele>143.85</ele>
        <time>2014-05-18T10:18:53Z</time>
      </trkpt>
      <trkpt lat="44.56028" lon="0.64087">
        <ele>149.62</ele>
        <time>2014-05-18T10:19:07Z</time>
      </trkpt>
      <trkpt lat="44.56005" lon="0.64042">
        <ele>153.95</ele>
        <time>2014-05-18T10:19:20Z</time>
      </trkpt>
      <trkpt lat="44.55984" lon="0.64004">
        <ele>156.83</ele>
        <time>2014-05-18T10:19:32Z</time>
      </trkpt>
      <trkpt lat="44.55981" lon="0.64005">
        <ele>156.83</ele>
        <time>2014-05-18T10:19:33Z</time>
      </trkpt>
      <trkpt lat="44.55979" lon="0.64006">
        <ele>156.83</ele>
        <time>2014-05-18T10:19:34Z</time>
      </trkpt>
      <trkpt lat="44.55977" lon="0.64008">
        <ele>156.83</ele>
        <time>2014-05-18T10:19:35Z</time>
      </trkpt>
      <trkpt lat="44.55975" lon="0.6401">
        <ele>156.83</ele>
        <time>2014-05-18T10:19:36Z</time>
      </trkpt>
      <trkpt lat="44.55932" lon="0.64056">
        <ele>154.91</ele>
        <time>2014-05-18T10:19:52Z</time>
      </trkpt>
      <trkpt lat="44.55929" lon="0.6406">
        <ele>154.91</ele>
        <time>2014-05-18T10:19:53Z</time>
      </trkpt>
      <trkpt lat="44.55926" lon="0.64063">
        <ele>154.91</ele>
        <time>2014-05-18T10:19:54Z</time>
      </trkpt>
      <trkpt lat="44.55918" lon="0.64069">
        <ele>154.43</ele>
        <time>2014-05-18T10:19:56Z</time>
      </trkpt>
      <trkpt lat="44.5591" lon="0.64074">
        <ele>153.95</ele>
        <time>2014-05-18T10:19:58Z</time>
      </trkpt>
      <trkpt lat="44.55906" lon="0.64073">
        <ele>153.47</ele>
        <time>2014-05-18T10:19:59Z</time>
      </trkpt>
      <trkpt lat="44.55902" lon="0.6407">
        <ele>153.47</ele>
        <time>2014-05-18T10:20:00Z</time>
      </trkpt>
      <trkpt lat="44.55893" lon="0.64058">
        <ele>152.99</ele>
        <time>2014-05-18T10:20:03Z</time>
      </trkpt>
      <trkpt lat="44.5585" lon="0.64004">
        <ele>148.18</ele>
        <time>2014-05-18T10:20:14Z</time>
      </trkpt>
      <trkpt lat="44.55776" lon="0.63915">
        <ele>138.09</ele>
        <time>2014-05-18T10:20:25Z</time>
      </trkpt>
      <trkpt lat="44.55692" lon="0.63815">
        <ele>126.55</ele>
        <time>2014-05-18T10:20:36Z</time>
      </trkpt>
      <trkpt lat="44.5558" lon="0.63686">
        <ele>117.9</ele>
        <time>2014-05-18T10:20:51Z</time>
      </trkpt>
      <trkpt lat="44.55574" lon="0.63681">
        <ele>117.9</ele>
        <time>2014-05-18T10:20:52Z</time>
      </trkpt>
      <trkpt lat="44.55563" lon="0.63672">
        <ele>117.42</ele>
        <time>2014-05-18T10:20:54Z</time>
      </trkpt>
      <trkpt lat="44.55487" lon="0.63644">
        <ele>119.82</ele>
        <time>2014-05-18T10:21:05Z</time>
      </trkpt>
      <trkpt lat="44.55447" lon="0.63625">
        <ele>124.63</ele>
        <time>2014-05-18T10:21:16Z</time>
      </trkpt>
      <trkpt lat="44.55415" lon="0.63607">
        <ele>129.92</ele>
        <time>2014-05-18T10:21:31Z</time>
      </trkpt>
      <trkpt lat="44.5539" lon="0.63591">
        <ele>133.28</ele>
        <time>2014-05-18T10:21:46Z</time>
      </trkpt>
      <trkpt lat="44.55359" lon="0.63575">
        <ele>137.13</ele>
        <time>2014-05-18T10:22:04Z</time>
      </trkpt>
      <trkpt lat="44.55336" lon="0.63566">
        <ele>142.89</ele>
        <time>2014-05-18T10:22:17Z</time>
      </trkpt>
      <trkpt lat="44.55313" lon="0.63561">
        <ele>148.18</ele>
        <time>2014-05-18T10:22:31Z</time>
      </trkpt>
      <trkpt lat="44.5529" lon="0.63553">
        <ele>152.03</ele>
        <time>2014-05-18T10:22:45Z</time>
      </trkpt>
      <trkpt lat="44.55274" lon="0.63544">
        <ele>155.39</ele>
        <time>2014-05-18T10:22:56Z</time>
      </trkpt>
      <trkpt lat="44.55255" lon="0.63534">
        <ele>159.72</ele>
        <time>2014-05-18T10:23:07Z</time>
      </trkpt>
      <trkpt lat="44.55232" lon="0.63518">
        <ele>161.64</ele>
        <time>2014-05-18T10:23:23Z</time>
      </trkpt>
      <trkpt lat="44.5522" lon="0.635">
        <ele>161.64</ele>
        <time>2014-05-18T10:23:34Z</time>
      </trkpt>
      <trkpt lat="44.55219" lon="0.63497">
        <ele>163.56</ele>
        <time>2014-05-18T10:24:01Z</time>
      </trkpt>
      <trkpt lat="44.5522" lon="0.63498">
        <ele>164.04</ele>
        <time>2014-05-18T10:24:23Z</time>
      </trkpt>
      <trkpt lat="44.55219" lon="0.63499">
        <ele>161.64</ele>
        <time>2014-05-18T10:24:42Z</time>
      </trkpt>
      <trkpt lat="44.55215" lon="0.63498">
        <ele>161.16</ele>
        <time>2014-05-18T10:25:06Z</time>
      </trkpt>
      <trkpt lat="44.55219" lon="0.635">
        <ele>157.31</ele>
        <time>2014-05-18T10:25:27Z</time>
      </trkpt>
      <trkpt lat="44.55218" lon="0.63499">
        <ele>156.35</ele>
        <time>2014-05-18T10:25:51Z</time>
      </trkpt>
      <trkpt lat="44.55217" lon="0.63497">
        <ele>157.79</ele>
        <time>2014-05-18T10:26:14Z</time>
      </trkpt>
      <trkpt lat="44.55218" lon="0.635">
        <ele>158.75</ele>
        <time>2014-05-18T10:26:35Z</time>
      </trkpt>
      <trkpt lat="44.55216" lon="0.63501">
        <ele>160.2</ele>
        <time>2014-05-18T10:27:00Z</time>
      </trkpt>
      <trkpt lat="44.55214" lon="0.63497">
        <ele>159.72</ele>
        <time>2014-05-18T10:27:10Z</time>
      </trkpt>
      <trkpt lat="44.55204" lon="0.63487">
        <ele>158.27</ele>
        <time>2014-05-18T10:27:15Z</time>
      </trkpt>
      <trkpt lat="44.55181" lon="0.63463">
        <ele>153.95</ele>
        <time>2014-05-18T10:27:20Z</time>
      </trkpt>
      <trkpt lat="44.55111" lon="0.63402">
        <ele>141.93</ele>
        <time>2014-05-18T10:27:31Z</time>
      </trkpt>
      <trkpt lat="44.5506" lon="0.63319">
        <ele>144.82</ele>
        <time>2014-05-18T10:27:43Z</time>
      </trkpt>
      <trkpt lat="44.55021" lon="0.63226">
        <ele>148.18</ele>
        <time>2014-05-18T10:27:56Z</time>
      </trkpt>
      <trkpt lat="44.55011" lon="0.63203">
        <ele>147.22</ele>
        <time>2014-05-18T10:27:59Z</time>
      </trkpt>
      <trkpt lat="44.54958" lon="0.63199">
        <ele>144.82</ele>
        <time>2014-05-18T10:28:07Z</time>
      </trkpt>
      <trkpt lat="44.54942" lon="0.63201">
        <ele>143.37</ele>
        <time>2014-05-18T10:28:09Z</time>
      </trkpt>
      <trkpt lat="44.54831" lon="0.63239">
        <ele>133.76</ele>
        <time>2014-05-18T10:28:22Z</time>
      </trkpt>
      <trkpt lat="44.54719" lon="0.63276">
        <ele>125.11</ele>
        <time>2014-05-18T10:28:34Z</time>
      </trkpt>
      <trkpt lat="44.54641" lon="0.63249">
        <ele>128.47</ele>
        <time>2014-05-18T10:28:46Z</time>
      </trkpt>
      <trkpt lat="44.54611" lon="0.63231">
        <ele>128.95</ele>
        <time>2014-05-18T10:28:53Z</time>
      </trkpt>
      <trkpt lat="44.54546" lon="0.63185">
        <ele>125.11</ele>
        <time>2014-05-18T10:29:05Z</time>
      </trkpt>
      <trkpt lat="44.54484" lon="0.63101">
        <ele>125.59</ele>
        <time>2014-05-18T10:29:17Z</time>
      </trkpt>
      <trkpt lat="44.54468" lon="0.63072">
        <ele>127.03</ele>
        <time>2014-05-18T10:29:21Z</time>
      </trkpt>
      <trkpt lat="44.54444" lon="0.6303">
        <ele>127.51</ele>
        <time>2014-05-18T10:29:27Z</time>
      </trkpt>
      <trkpt lat="44.54393" lon="0.62963">
        <ele>131.36</ele>
        <time>2014-05-18T10:29:40Z</time>
      </trkpt>
      <trkpt lat="44.54354" lon="0.62918">
        <ele>136.16</ele>
        <time>2014-05-18T10:29:52Z</time>
      </trkpt>
      <trkpt lat="44.54317" lon="0.62875">
        <ele>140.01</ele>
        <time>2014-05-18T10:30:05Z</time>
      </trkpt>
      <trkpt lat="44.54279" lon="0.62843">
        <ele>139.53</ele>
        <time>2014-05-18T10:30:17Z</time>
      </trkpt>
      <trkpt lat="44.54216" lon="0.62792">
        <ele>134.24</ele>
        <time>2014-05-18T10:30:28Z</time>
      </trkpt>
      <trkpt lat="44.54206" lon="0.62782">
        <ele>133.76</ele>
        <time>2014-05-18T10:30:30Z</time>
      </trkpt>
      <trkpt lat="44.54185" lon="0.6275">
        <ele>134.24</ele>
        <time>2014-05-18T10:30:35Z</time>
      </trkpt>
      <trkpt lat="44.54182" lon="0.62743">
        <ele>134.24</ele>
        <time>2014-05-18T10:30:36Z</time>
      </trkpt>
      <trkpt lat="44.54159" lon="0.62671">
        <ele>135.2</ele>
        <time>2014-05-18T10:30:46Z</time>
      </trkpt>
      <trkpt lat="44.54155" lon="0.62665">
        <ele>135.2</ele>
        <time>2014-05-18T10:30:47Z</time>
      </trkpt>
      <trkpt lat="44.54151" lon="0.62659">
        <ele>135.2</ele>
        <time>2014-05-18T10:30:48Z</time>
      </trkpt>
      <trkpt lat="44.54146" lon="0.62654">
        <ele>135.2</ele>
        <time>2014-05-18T10:30:49Z</time>
      </trkpt>
      <trkpt lat="44.54141" lon="0.6265">
        <ele>134.72</ele>
        <time>2014-05-18T10:30:50Z</time>
      </trkpt>
      <trkpt lat="44.54135" lon="0.62648">
        <ele>134.72</ele>
        <time>2014-05-18T10:30:51Z</time>
      </trkpt>
      <trkpt lat="44.54129" lon="0.62645">
        <ele>135.2</ele>
        <time>2014-05-18T10:30:52Z</time>
      </trkpt>
      <trkpt lat="44.54124" lon="0.62643">
        <ele>134.72</ele>
        <time>2014-05-18T10:30:53Z</time>
      </trkpt>
      <trkpt lat="44.54119" lon="0.62639">
        <ele>135.2</ele>
        <time>2014-05-18T10:30:54Z</time>
      </trkpt>
      <trkpt lat="44.54114" lon="0.62634">
        <ele>134.72</ele>
        <time>2014-05-18T10:30:55Z</time>
      </trkpt>
      <trkpt lat="44.5411" lon="0.62627">
        <ele>134.72</ele>
        <time>2014-05-18T10:30:56Z</time>
      </trkpt>
      <trkpt lat="44.54106" lon="0.62619">
        <ele>134.72</ele>
        <time>2014-05-18T10:30:57Z</time>
      </trkpt>
      <trkpt lat="44.54103" lon="0.6261">
        <ele>135.2</ele>
        <time>2014-05-18T10:30:58Z</time>
      </trkpt>
      <trkpt lat="44.54073" lon="0.62514">
        <ele>140.01</ele>
        <time>2014-05-18T10:31:09Z</time>
      </trkpt>
      <trkpt lat="44.54058" lon="0.62473">
        <ele>145.3</ele>
        <time>2014-05-18T10:31:19Z</time>
      </trkpt>
      <trkpt lat="44.5405" lon="0.62459">
        <ele>147.22</ele>
        <time>2014-05-18T10:31:24Z</time>
      </trkpt>
      <trkpt lat="44.54049" lon="0.62458">
        <ele>147.22</ele>
        <time>2014-05-18T10:31:25Z</time>
      </trkpt>
      <trkpt lat="44.54047" lon="0.62457">
        <ele>147.22</ele>
        <time>2014-05-18T10:31:26Z</time>
      </trkpt>
      <trkpt lat="44.54045" lon="0.62456">
        <ele>147.22</ele>
        <time>2014-05-18T10:31:27Z</time>
      </trkpt>
      <trkpt lat="44.54042" lon="0.62456">
        <ele>147.22</ele>
        <time>2014-05-18T10:31:28Z</time>
      </trkpt>
      <trkpt lat="44.5404" lon="0.62456">
        <ele>147.22</ele>
        <time>2014-05-18T10:31:29Z</time>
      </trkpt>
      <trkpt lat="44.54037" lon="0.62455">
        <ele>146.74</ele>
        <time>2014-05-18T10:31:30Z</time>
      </trkpt>
      <trkpt lat="44.53981" lon="0.62444">
        <ele>143.37</ele>
        <time>2014-05-18T10:31:42Z</time>
      </trkpt>
      <trkpt lat="44.53883" lon="0.62429">
        <ele>140.97</ele>
        <time>2014-05-18T10:31:56Z</time>
      </trkpt>
      <trkpt lat="44.53822" lon="0.62418">
        <ele>145.3</ele>
        <time>2014-05-18T10:32:09Z</time>
      </trkpt>
      <trkpt lat="44.53772" lon="0.62408">
        <ele>149.62</ele>
        <time>2014-05-18T10:32:24Z</time>
      </trkpt>
      <trkpt lat="44.5374" lon="0.62403">
        <ele>152.51</ele>
        <time>2014-05-18T10:32:37Z</time>
      </trkpt>
      <trkpt lat="44.53736" lon="0.62403">
        <ele>153.47</ele>
        <time>2014-05-18T10:32:39Z</time>
      </trkpt>
      <trkpt lat="44.53734" lon="0.62405">
        <ele>153.47</ele>
        <time>2014-05-18T10:32:40Z</time>
      </trkpt>
      <trkpt lat="44.53732" lon="0.62407">
        <ele>153.47</ele>
        <time>2014-05-18T10:32:41Z</time>
      </trkpt>
      <trkpt lat="44.53698" lon="0.62454">
        <ele>152.99</ele>
        <time>2014-05-18T10:32:55Z</time>
      </trkpt>
      <trkpt lat="44.53657" lon="0.62492">
        <ele>153.95</ele>
        <time>2014-05-18T10:33:08Z</time>
      </trkpt>
      <trkpt lat="44.5363" lon="0.62471">
        <ele>156.83</ele>
        <time>2014-05-18T10:33:19Z</time>
      </trkpt>
      <trkpt lat="44.53624" lon="0.62469">
        <ele>157.31</ele>
        <time>2014-05-18T10:33:22Z</time>
      </trkpt>
      <trkpt lat="44.53615" lon="0.6247">
        <ele>157.79</ele>
        <time>2014-05-18T10:33:26Z</time>
      </trkpt>
      <trkpt lat="44.53613" lon="0.62468">
        <ele>157.79</ele>
        <time>2014-05-18T10:33:27Z</time>
      </trkpt>
      <trkpt lat="44.53612" lon="0.62467">
        <ele>157.79</ele>
        <time>2014-05-18T10:33:28Z</time>
      </trkpt>
      <trkpt lat="44.53612" lon="0.62464">
        <ele>157.79</ele>
        <time>2014-05-18T10:33:29Z</time>
      </trkpt>
      <trkpt lat="44.53612" lon="0.62462">
        <ele>158.27</ele>
        <time>2014-05-18T10:33:30Z</time>
      </trkpt>
      <trkpt lat="44.53613" lon="0.62459">
        <ele>158.27</ele>
        <time>2014-05-18T10:33:31Z</time>
      </trkpt>
      <trkpt lat="44.53613" lon="0.62456">
        <ele>158.27</ele>
        <time>2014-05-18T10:33:32Z</time>
      </trkpt>
      <trkpt lat="44.53615" lon="0.62449">
        <ele>158.75</ele>
        <time>2014-05-18T10:33:35Z</time>
      </trkpt>
      <trkpt lat="44.53616" lon="0.62448">
        <ele>158.75</ele>
        <time>2014-05-18T10:33:36Z</time>
      </trkpt>
    </trkseg>
  </trk>
</gpx>